<?xml version="1.0" encoding="UTF-8" standalone="no" ?>
<gpx xmlns="http://www.topografix.com/GPX/1/1" xmlns:xsi="http://www.w3.org/2001/XMLSchema-instance" xsi:schemaLocation="http://www.topografix.com/GPX/1/1 http://www.topografix.com/GPX/1/1/gpx.xsd" version="1.1" creator="VisuGPX - https://www.visugpx.com">
  <metadata>
    <name>VTT_Ile de ré Le Bois-Plage-en-Ré, La Noue, Sainte-Marie-de-Ré</name>
  </metadata>
  <wpt lat="46.18291" lon="-1.3687">
    <ele>10</ele>
    <name><![CDATA[Camping]]></name>
  </wpt>
  <trk>
    <name><![CDATA[VTT_Ile de ré Le Bois-Plage-en-Ré, La Noue, Sainte-Marie-de-Ré]]></name>
    <extensions>
      <line xmlns="http://www.topografix.com/GPX/gpx_style/0/2">
        <color>0000FF</color>
        <width>4</width>
          <extensions>
            <sens>1</sens>
          </extensions>
      </line>
    </extensions>
    <trkseg>
      <trkpt lat="46.18202" lon="-1.3701">
        <ele>9.9</ele>
      </trkpt>
      <trkpt lat="46.18206" lon="-1.3696">
        <ele>9.8</ele>
      </trkpt>
      <trkpt lat="46.18144" lon="-1.36467">
        <ele>11</ele>
      </trkpt>
      <trkpt lat="46.18145" lon="-1.36443">
        <ele>11</ele>
      </trkpt>
      <trkpt lat="46.18074" lon="-1.36493">
        <ele>10.7</ele>
      </trkpt>
      <trkpt lat="46.17947" lon="-1.36452">
        <ele>10.9</ele>
      </trkpt>
      <trkpt lat="46.17939" lon="-1.36445">
        <ele>11.2</ele>
      </trkpt>
      <trkpt lat="46.17923" lon="-1.36371">
        <ele>11</ele>
      </trkpt>
      <trkpt lat="46.17884" lon="-1.36222">
        <ele>11</ele>
      </trkpt>
      <trkpt lat="46.17861" lon="-1.36215">
        <ele>11</ele>
      </trkpt>
      <trkpt lat="46.17797" lon="-1.3617">
        <ele>12.1</ele>
      </trkpt>
      <trkpt lat="46.17778" lon="-1.36136">
        <ele>11.9</ele>
      </trkpt>
      <trkpt lat="46.17603" lon="-1.36015">
        <ele>10</ele>
      </trkpt>
      <trkpt lat="46.17389" lon="-1.3591">
        <ele>10.3</ele>
      </trkpt>
      <trkpt lat="46.17325" lon="-1.35861">
        <ele>11</ele>
      </trkpt>
      <trkpt lat="46.17236" lon="-1.35849">
        <ele>11</ele>
      </trkpt>
      <trkpt lat="46.17191" lon="-1.35825">
        <ele>11</ele>
      </trkpt>
      <trkpt lat="46.17068" lon="-1.35709">
        <ele>10.2</ele>
      </trkpt>
      <trkpt lat="46.16866" lon="-1.35437">
        <ele>8.2</ele>
      </trkpt>
      <trkpt lat="46.16876" lon="-1.3542">
        <ele>8.6</ele>
      </trkpt>
      <trkpt lat="46.16855" lon="-1.35393">
        <ele>8.6</ele>
      </trkpt>
      <trkpt lat="46.16832" lon="-1.35391">
        <ele>8</ele>
      </trkpt>
      <trkpt lat="46.1682" lon="-1.35381">
        <ele>8.2</ele>
      </trkpt>
      <trkpt lat="46.16772" lon="-1.35346">
        <ele>8.5</ele>
      </trkpt>
      <trkpt lat="46.16753" lon="-1.35339">
        <ele>8.8</ele>
      </trkpt>
      <trkpt lat="46.16749" lon="-1.35332">
        <ele>9</ele>
      </trkpt>
      <trkpt lat="46.16721" lon="-1.35327">
        <ele>9</ele>
      </trkpt>
      <trkpt lat="46.16691" lon="-1.3533">
        <ele>9.2</ele>
      </trkpt>
      <trkpt lat="46.16668" lon="-1.35325">
        <ele>10</ele>
      </trkpt>
      <trkpt lat="46.16653" lon="-1.35317">
        <ele>10</ele>
      </trkpt>
      <trkpt lat="46.16595" lon="-1.35287">
        <ele>10.6</ele>
      </trkpt>
      <trkpt lat="46.16592" lon="-1.35273">
        <ele>10.7</ele>
      </trkpt>
      <trkpt lat="46.16544" lon="-1.35237">
        <ele>10.6</ele>
      </trkpt>
      <trkpt lat="46.16509" lon="-1.35223">
        <ele>10</ele>
      </trkpt>
      <trkpt lat="46.16481" lon="-1.35208">
        <ele>10.7</ele>
      </trkpt>
      <trkpt lat="46.16458" lon="-1.35209">
        <ele>11</ele>
        <time>2021-05-23T14:14:05Z</time>
      </trkpt>
      <trkpt lat="46.16454" lon="-1.35212">
        <ele>15.63</ele>
        <time>2021-05-23T14:14:06Z</time>
      </trkpt>
      <trkpt lat="46.1645" lon="-1.35214">
        <ele>15.18</ele>
        <time>2021-05-23T14:14:08Z</time>
      </trkpt>
      <trkpt lat="46.16442" lon="-1.35217">
        <ele>14.6</ele>
        <time>2021-05-23T14:14:09Z</time>
      </trkpt>
      <trkpt lat="46.16437" lon="-1.35219">
        <ele>14.65</ele>
        <time>2021-05-23T14:14:10Z</time>
      </trkpt>
      <trkpt lat="46.16431" lon="-1.35221">
        <ele>14.78</ele>
        <time>2021-05-23T14:14:11Z</time>
      </trkpt>
      <trkpt lat="46.16426" lon="-1.35223">
        <ele>14.95</ele>
        <time>2021-05-23T14:14:12Z</time>
      </trkpt>
      <trkpt lat="46.16421" lon="-1.35225">
        <ele>15.35</ele>
        <time>2021-05-23T14:14:13Z</time>
      </trkpt>
      <trkpt lat="46.16416" lon="-1.35227">
        <ele>15.78</ele>
        <time>2021-05-23T14:14:14Z</time>
      </trkpt>
      <trkpt lat="46.16411" lon="-1.35229">
        <ele>16.44</ele>
        <time>2021-05-23T14:14:15Z</time>
      </trkpt>
      <trkpt lat="46.16406" lon="-1.35231">
        <ele>16.94</ele>
        <time>2021-05-23T14:14:16Z</time>
      </trkpt>
      <trkpt lat="46.16401" lon="-1.35233">
        <ele>17.3</ele>
        <time>2021-05-23T14:14:17Z</time>
      </trkpt>
      <trkpt lat="46.16396" lon="-1.35235">
        <ele>17.49</ele>
        <time>2021-05-23T14:14:18Z</time>
      </trkpt>
      <trkpt lat="46.16391" lon="-1.35237">
        <ele>17.53</ele>
        <time>2021-05-23T14:14:19Z</time>
      </trkpt>
      <trkpt lat="46.16386" lon="-1.35238">
        <ele>17.29</ele>
        <time>2021-05-23T14:14:20Z</time>
      </trkpt>
      <trkpt lat="46.16381" lon="-1.3524">
        <ele>16.55</ele>
        <time>2021-05-23T14:14:21Z</time>
      </trkpt>
      <trkpt lat="46.16375" lon="-1.35242">
        <ele>15.94</ele>
        <time>2021-05-23T14:14:22Z</time>
      </trkpt>
      <trkpt lat="46.1637" lon="-1.35244">
        <ele>15.53</ele>
        <time>2021-05-23T14:14:23Z</time>
      </trkpt>
      <trkpt lat="46.16365" lon="-1.35247">
        <ele>15.17</ele>
        <time>2021-05-23T14:14:24Z</time>
      </trkpt>
      <trkpt lat="46.1636" lon="-1.3525">
        <ele>15.12</ele>
        <time>2021-05-23T14:14:25Z</time>
      </trkpt>
      <trkpt lat="46.16355" lon="-1.35254">
        <ele>15.74</ele>
        <time>2021-05-23T14:14:26Z</time>
      </trkpt>
      <trkpt lat="46.1635" lon="-1.35258">
        <ele>16.26</ele>
        <time>2021-05-23T14:14:27Z</time>
      </trkpt>
      <trkpt lat="46.16345" lon="-1.35263">
        <ele>16.67</ele>
        <time>2021-05-23T14:14:28Z</time>
      </trkpt>
      <trkpt lat="46.16341" lon="-1.35268">
        <ele>16.88</ele>
        <time>2021-05-23T14:14:29Z</time>
      </trkpt>
      <trkpt lat="46.16337" lon="-1.35273">
        <ele>16.99</ele>
        <time>2021-05-23T14:14:30Z</time>
      </trkpt>
      <trkpt lat="46.16333" lon="-1.35278">
        <ele>17.01</ele>
        <time>2021-05-23T14:14:31Z</time>
      </trkpt>
      <trkpt lat="46.16329" lon="-1.35283">
        <ele>17.13</ele>
        <time>2021-05-23T14:14:32Z</time>
      </trkpt>
      <trkpt lat="46.16325" lon="-1.35287">
        <ele>17.2</ele>
        <time>2021-05-23T14:14:33Z</time>
      </trkpt>
      <trkpt lat="46.16321" lon="-1.35292">
        <ele>17.22</ele>
        <time>2021-05-23T14:14:34Z</time>
      </trkpt>
      <trkpt lat="46.16317" lon="-1.35296">
        <ele>17.2</ele>
        <time>2021-05-23T14:14:35Z</time>
      </trkpt>
      <trkpt lat="46.16314" lon="-1.353">
        <ele>17.14</ele>
        <time>2021-05-23T14:14:36Z</time>
      </trkpt>
      <trkpt lat="46.16311" lon="-1.35303">
        <ele>17.07</ele>
        <time>2021-05-23T14:14:37Z</time>
      </trkpt>
      <trkpt lat="46.16308" lon="-1.35306">
        <ele>16.95</ele>
        <time>2021-05-23T14:14:38Z</time>
      </trkpt>
      <trkpt lat="46.16305" lon="-1.35309">
        <ele>16.53</ele>
        <time>2021-05-23T14:14:39Z</time>
      </trkpt>
      <trkpt lat="46.16301" lon="-1.35313">
        <ele>16.18</ele>
        <time>2021-05-23T14:14:40Z</time>
      </trkpt>
      <trkpt lat="46.16298" lon="-1.35317">
        <ele>15.85</ele>
        <time>2021-05-23T14:14:41Z</time>
      </trkpt>
      <trkpt lat="46.16293" lon="-1.35321">
        <ele>15.73</ele>
        <time>2021-05-23T14:14:44Z</time>
      </trkpt>
      <trkpt lat="46.16281" lon="-1.35332">
        <ele>15.76</ele>
        <time>2021-05-23T14:14:51Z</time>
      </trkpt>
      <trkpt lat="46.16278" lon="-1.35335">
        <ele>15.86</ele>
        <time>2021-05-23T14:14:55Z</time>
      </trkpt>
      <trkpt lat="46.16274" lon="-1.3533">
        <ele>15.71</ele>
        <time>2021-05-23T14:15:00Z</time>
      </trkpt>
      <trkpt lat="46.16268" lon="-1.35313">
        <ele>16.31</ele>
        <time>2021-05-23T14:15:04Z</time>
      </trkpt>
      <trkpt lat="46.16261" lon="-1.35273">
        <ele>16.96</ele>
        <time>2021-05-23T14:15:08Z</time>
      </trkpt>
      <trkpt lat="46.16258" lon="-1.35256">
        <ele>17.36</ele>
        <time>2021-05-23T14:15:10Z</time>
      </trkpt>
      <trkpt lat="46.16257" lon="-1.35247">
        <ele>17.37</ele>
        <time>2021-05-23T14:15:11Z</time>
      </trkpt>
      <trkpt lat="46.16256" lon="-1.35239">
        <ele>16.9</ele>
        <time>2021-05-23T14:15:12Z</time>
      </trkpt>
      <trkpt lat="46.16255" lon="-1.3523">
        <ele>16.31</ele>
        <time>2021-05-23T14:15:13Z</time>
      </trkpt>
      <trkpt lat="46.16253" lon="-1.35222">
        <ele>15.55</ele>
        <time>2021-05-23T14:15:14Z</time>
      </trkpt>
      <trkpt lat="46.16252" lon="-1.35215">
        <ele>15.6</ele>
        <time>2021-05-23T14:15:15Z</time>
      </trkpt>
      <trkpt lat="46.16251" lon="-1.35208">
        <ele>15.67</ele>
        <time>2021-05-23T14:15:16Z</time>
      </trkpt>
      <trkpt lat="46.16249" lon="-1.35193">
        <ele>15.7</ele>
        <time>2021-05-23T14:15:20Z</time>
      </trkpt>
      <trkpt lat="46.16243" lon="-1.35177">
        <ele>13.42</ele>
        <time>2021-05-23T14:15:27Z</time>
      </trkpt>
      <trkpt lat="46.16227" lon="-1.35175">
        <ele>11.75</ele>
        <time>2021-05-23T14:15:31Z</time>
      </trkpt>
      <trkpt lat="46.16216" lon="-1.35171">
        <ele>10.9</ele>
        <time>2021-05-23T14:15:37Z</time>
      </trkpt>
      <trkpt lat="46.16215" lon="-1.35168">
        <ele>10.78</ele>
        <time>2021-05-23T14:15:42Z</time>
      </trkpt>
      <trkpt lat="46.16216" lon="-1.35158">
        <ele>11.09</ele>
        <time>2021-05-23T14:15:47Z</time>
      </trkpt>
      <trkpt lat="46.16222" lon="-1.35141">
        <ele>11.92</ele>
        <time>2021-05-23T14:15:55Z</time>
      </trkpt>
      <trkpt lat="46.16231" lon="-1.35121">
        <ele>12</ele>
        <time>2021-05-23T14:15:59Z</time>
      </trkpt>
      <trkpt lat="46.16234" lon="-1.35097">
        <ele>12</ele>
        <time>2021-05-23T14:16:00Z</time>
      </trkpt>
      <trkpt lat="46.16235" lon="-1.35081">
        <ele>12.21</ele>
        <time>2021-05-23T14:16:02Z</time>
      </trkpt>
      <trkpt lat="46.16234" lon="-1.35073">
        <ele>12.9</ele>
        <time>2021-05-23T14:16:03Z</time>
      </trkpt>
      <trkpt lat="46.16234" lon="-1.35064">
        <ele>13.69</ele>
        <time>2021-05-23T14:16:04Z</time>
      </trkpt>
      <trkpt lat="46.16233" lon="-1.35054">
        <ele>14.59</ele>
        <time>2021-05-23T14:16:05Z</time>
      </trkpt>
      <trkpt lat="46.16232" lon="-1.35045">
        <ele>15.74</ele>
        <time>2021-05-23T14:16:06Z</time>
      </trkpt>
      <trkpt lat="46.1623" lon="-1.35035">
        <ele>17.03</ele>
        <time>2021-05-23T14:16:07Z</time>
      </trkpt>
      <trkpt lat="46.16228" lon="-1.35027">
        <ele>18.02</ele>
        <time>2021-05-23T14:16:08Z</time>
      </trkpt>
      <trkpt lat="46.16227" lon="-1.35018">
        <ele>18.18</ele>
        <time>2021-05-23T14:16:09Z</time>
      </trkpt>
      <trkpt lat="46.16225" lon="-1.3501">
        <ele>18.19</ele>
        <time>2021-05-23T14:16:10Z</time>
      </trkpt>
      <trkpt lat="46.16224" lon="-1.35002">
        <ele>18.18</ele>
        <time>2021-05-23T14:16:11Z</time>
      </trkpt>
      <trkpt lat="46.16223" lon="-1.34994">
        <ele>17.86</ele>
        <time>2021-05-23T14:16:12Z</time>
      </trkpt>
      <trkpt lat="46.16222" lon="-1.34986">
        <ele>17.49</ele>
        <time>2021-05-23T14:16:13Z</time>
      </trkpt>
      <trkpt lat="46.16221" lon="-1.34978">
        <ele>17.22</ele>
        <time>2021-05-23T14:16:14Z</time>
      </trkpt>
      <trkpt lat="46.1622" lon="-1.34969">
        <ele>17.21</ele>
        <time>2021-05-23T14:16:15Z</time>
      </trkpt>
      <trkpt lat="46.16219" lon="-1.3496">
        <ele>17.61</ele>
        <time>2021-05-23T14:16:16Z</time>
      </trkpt>
      <trkpt lat="46.16218" lon="-1.34951">
        <ele>18.03</ele>
        <time>2021-05-23T14:16:17Z</time>
      </trkpt>
      <trkpt lat="46.16218" lon="-1.34942">
        <ele>18.22</ele>
        <time>2021-05-23T14:16:18Z</time>
      </trkpt>
      <trkpt lat="46.16217" lon="-1.34934">
        <ele>18</ele>
        <time>2021-05-23T14:16:19Z</time>
      </trkpt>
      <trkpt lat="46.16216" lon="-1.34925">
        <ele>17.75</ele>
        <time>2021-05-23T14:16:20Z</time>
      </trkpt>
      <trkpt lat="46.16216" lon="-1.34917">
        <ele>17.46</ele>
        <time>2021-05-23T14:16:21Z</time>
      </trkpt>
      <trkpt lat="46.16215" lon="-1.34908">
        <ele>17.21</ele>
        <time>2021-05-23T14:16:22Z</time>
      </trkpt>
      <trkpt lat="46.16215" lon="-1.349">
        <ele>16.92</ele>
        <time>2021-05-23T14:16:23Z</time>
      </trkpt>
      <trkpt lat="46.16214" lon="-1.34891">
        <ele>16.67</ele>
        <time>2021-05-23T14:16:24Z</time>
      </trkpt>
      <trkpt lat="46.16213" lon="-1.34881">
        <ele>16.95</ele>
        <time>2021-05-23T14:16:25Z</time>
      </trkpt>
      <trkpt lat="46.16212" lon="-1.34872">
        <ele>17.34</ele>
        <time>2021-05-23T14:16:26Z</time>
      </trkpt>
      <trkpt lat="46.16211" lon="-1.34863">
        <ele>17.74</ele>
        <time>2021-05-23T14:16:27Z</time>
      </trkpt>
      <trkpt lat="46.1621" lon="-1.34853">
        <ele>17.49</ele>
        <time>2021-05-23T14:16:28Z</time>
      </trkpt>
      <trkpt lat="46.16209" lon="-1.34844">
        <ele>17.07</ele>
        <time>2021-05-23T14:16:29Z</time>
      </trkpt>
      <trkpt lat="46.16208" lon="-1.34835">
        <ele>16.58</ele>
        <time>2021-05-23T14:16:30Z</time>
      </trkpt>
      <trkpt lat="46.16208" lon="-1.34825">
        <ele>16.33</ele>
        <time>2021-05-23T14:16:31Z</time>
      </trkpt>
      <trkpt lat="46.16207" lon="-1.34815">
        <ele>16.09</ele>
        <time>2021-05-23T14:16:32Z</time>
      </trkpt>
      <trkpt lat="46.16206" lon="-1.34806">
        <ele>15.84</ele>
        <time>2021-05-23T14:16:33Z</time>
      </trkpt>
      <trkpt lat="46.16205" lon="-1.34797">
        <ele>16.19</ele>
        <time>2021-05-23T14:16:34Z</time>
      </trkpt>
      <trkpt lat="46.16203" lon="-1.34789">
        <ele>16.4</ele>
        <time>2021-05-23T14:16:35Z</time>
      </trkpt>
      <trkpt lat="46.16201" lon="-1.34781">
        <ele>16.56</ele>
        <time>2021-05-23T14:16:36Z</time>
      </trkpt>
      <trkpt lat="46.16199" lon="-1.34774">
        <ele>16.74</ele>
        <time>2021-05-23T14:16:37Z</time>
      </trkpt>
      <trkpt lat="46.16196" lon="-1.34768">
        <ele>16.85</ele>
        <time>2021-05-23T14:16:38Z</time>
      </trkpt>
      <trkpt lat="46.16193" lon="-1.34763">
        <ele>16.88</ele>
        <time>2021-05-23T14:16:39Z</time>
      </trkpt>
      <trkpt lat="46.16192" lon="-1.3476">
        <ele>16.96</ele>
        <time>2021-05-23T14:16:40Z</time>
      </trkpt>
      <trkpt lat="46.1619" lon="-1.34756">
        <ele>16.96</ele>
        <time>2021-05-23T14:16:41Z</time>
      </trkpt>
      <trkpt lat="46.16188" lon="-1.3475">
        <ele>17.07</ele>
        <time>2021-05-23T14:16:43Z</time>
      </trkpt>
      <trkpt lat="46.16186" lon="-1.34746">
        <ele>16.83</ele>
        <time>2021-05-23T14:16:45Z</time>
      </trkpt>
      <trkpt lat="46.1618" lon="-1.34749">
        <ele>15.94</ele>
        <time>2021-05-23T14:16:48Z</time>
      </trkpt>
      <trkpt lat="46.16168" lon="-1.34762">
        <ele>13.74</ele>
        <time>2021-05-23T14:16:51Z</time>
      </trkpt>
      <trkpt lat="46.1616" lon="-1.34769">
        <ele>13.16</ele>
        <time>2021-05-23T14:16:52Z</time>
      </trkpt>
      <trkpt lat="46.16154" lon="-1.34772">
        <ele>13.02</ele>
        <time>2021-05-23T14:16:53Z</time>
      </trkpt>
      <trkpt lat="46.16148" lon="-1.34776">
        <ele>12.98</ele>
        <time>2021-05-23T14:16:54Z</time>
      </trkpt>
      <trkpt lat="46.16142" lon="-1.34779">
        <ele>12.96</ele>
        <time>2021-05-23T14:16:55Z</time>
      </trkpt>
      <trkpt lat="46.16136" lon="-1.34782">
        <ele>12.46</ele>
        <time>2021-05-23T14:16:56Z</time>
      </trkpt>
      <trkpt lat="46.16129" lon="-1.34785">
        <ele>11.5</ele>
        <time>2021-05-23T14:16:57Z</time>
      </trkpt>
      <trkpt lat="46.16122" lon="-1.34786">
        <ele>10.63</ele>
        <time>2021-05-23T14:16:58Z</time>
      </trkpt>
      <trkpt lat="46.16115" lon="-1.34788">
        <ele>9.82</ele>
        <time>2021-05-23T14:16:59Z</time>
      </trkpt>
      <trkpt lat="46.16109" lon="-1.3479">
        <ele>9.47</ele>
        <time>2021-05-23T14:17:00Z</time>
      </trkpt>
      <trkpt lat="46.16101" lon="-1.34791">
        <ele>9.65</ele>
        <time>2021-05-23T14:17:01Z</time>
      </trkpt>
      <trkpt lat="46.16094" lon="-1.34793">
        <ele>9.89</ele>
        <time>2021-05-23T14:17:02Z</time>
      </trkpt>
      <trkpt lat="46.16087" lon="-1.34793">
        <ele>10.02</ele>
        <time>2021-05-23T14:17:03Z</time>
      </trkpt>
      <trkpt lat="46.16081" lon="-1.34793">
        <ele>10.26</ele>
        <time>2021-05-23T14:17:04Z</time>
      </trkpt>
      <trkpt lat="46.16074" lon="-1.34793">
        <ele>10.74</ele>
        <time>2021-05-23T14:17:05Z</time>
      </trkpt>
      <trkpt lat="46.16068" lon="-1.34791">
        <ele>11.08</ele>
        <time>2021-05-23T14:17:06Z</time>
      </trkpt>
      <trkpt lat="46.16061" lon="-1.34787">
        <ele>11.54</ele>
        <time>2021-05-23T14:17:07Z</time>
      </trkpt>
      <trkpt lat="46.16055" lon="-1.34784">
        <ele>12.06</ele>
        <time>2021-05-23T14:17:08Z</time>
      </trkpt>
      <trkpt lat="46.1605" lon="-1.3478">
        <ele>12.58</ele>
        <time>2021-05-23T14:17:09Z</time>
      </trkpt>
      <trkpt lat="46.16044" lon="-1.34776">
        <ele>13.29</ele>
        <time>2021-05-23T14:17:10Z</time>
      </trkpt>
      <trkpt lat="46.16038" lon="-1.34772">
        <ele>13.97</ele>
        <time>2021-05-23T14:17:11Z</time>
      </trkpt>
      <trkpt lat="46.16032" lon="-1.34767">
        <ele>14.6</ele>
        <time>2021-05-23T14:17:12Z</time>
      </trkpt>
      <trkpt lat="46.16026" lon="-1.34762">
        <ele>14.94</ele>
        <time>2021-05-23T14:17:13Z</time>
      </trkpt>
      <trkpt lat="46.1602" lon="-1.34758">
        <ele>14.72</ele>
        <time>2021-05-23T14:17:14Z</time>
      </trkpt>
      <trkpt lat="46.16014" lon="-1.34754">
        <ele>14.5</ele>
        <time>2021-05-23T14:17:15Z</time>
      </trkpt>
      <trkpt lat="46.16007" lon="-1.34752">
        <ele>14.25</ele>
        <time>2021-05-23T14:17:16Z</time>
      </trkpt>
      <trkpt lat="46.16001" lon="-1.34751">
        <ele>14.04</ele>
        <time>2021-05-23T14:17:17Z</time>
      </trkpt>
      <trkpt lat="46.15994" lon="-1.34751">
        <ele>13.98</ele>
        <time>2021-05-23T14:17:18Z</time>
      </trkpt>
      <trkpt lat="46.15987" lon="-1.34751">
        <ele>13.97</ele>
        <time>2021-05-23T14:17:19Z</time>
      </trkpt>
      <trkpt lat="46.1598" lon="-1.34752">
        <ele>13.9</ele>
        <time>2021-05-23T14:17:20Z</time>
      </trkpt>
      <trkpt lat="46.15974" lon="-1.34753">
        <ele>13.8</ele>
        <time>2021-05-23T14:17:21Z</time>
      </trkpt>
      <trkpt lat="46.15967" lon="-1.34754">
        <ele>13.58</ele>
        <time>2021-05-23T14:17:22Z</time>
      </trkpt>
      <trkpt lat="46.15961" lon="-1.34756">
        <ele>13.34</ele>
        <time>2021-05-23T14:17:23Z</time>
      </trkpt>
      <trkpt lat="46.15955" lon="-1.34758">
        <ele>13.16</ele>
        <time>2021-05-23T14:17:24Z</time>
      </trkpt>
      <trkpt lat="46.15949" lon="-1.3476">
        <ele>13.05</ele>
        <time>2021-05-23T14:17:25Z</time>
      </trkpt>
      <trkpt lat="46.15942" lon="-1.34762">
        <ele>12.94</ele>
        <time>2021-05-23T14:17:26Z</time>
      </trkpt>
      <trkpt lat="46.15936" lon="-1.34765">
        <ele>12.88</ele>
        <time>2021-05-23T14:17:27Z</time>
      </trkpt>
      <trkpt lat="46.15929" lon="-1.34767">
        <ele>12.91</ele>
        <time>2021-05-23T14:17:28Z</time>
      </trkpt>
      <trkpt lat="46.15923" lon="-1.34771">
        <ele>13.21</ele>
        <time>2021-05-23T14:17:29Z</time>
      </trkpt>
      <trkpt lat="46.15916" lon="-1.34774">
        <ele>13.63</ele>
        <time>2021-05-23T14:17:30Z</time>
      </trkpt>
      <trkpt lat="46.1591" lon="-1.34777">
        <ele>14.38</ele>
        <time>2021-05-23T14:17:31Z</time>
      </trkpt>
      <trkpt lat="46.15903" lon="-1.3478">
        <ele>14.83</ele>
        <time>2021-05-23T14:17:32Z</time>
      </trkpt>
      <trkpt lat="46.15896" lon="-1.34783">
        <ele>14.93</ele>
        <time>2021-05-23T14:17:33Z</time>
      </trkpt>
      <trkpt lat="46.1589" lon="-1.34787">
        <ele>14.65</ele>
        <time>2021-05-23T14:17:34Z</time>
      </trkpt>
      <trkpt lat="46.15883" lon="-1.3479">
        <ele>13.88</ele>
        <time>2021-05-23T14:17:35Z</time>
      </trkpt>
      <trkpt lat="46.15877" lon="-1.34794">
        <ele>13.13</ele>
        <time>2021-05-23T14:17:36Z</time>
      </trkpt>
      <trkpt lat="46.1587" lon="-1.34798">
        <ele>12.53</ele>
        <time>2021-05-23T14:17:37Z</time>
      </trkpt>
      <trkpt lat="46.15863" lon="-1.34802">
        <ele>12.15</ele>
        <time>2021-05-23T14:17:38Z</time>
      </trkpt>
      <trkpt lat="46.15857" lon="-1.34806">
        <ele>11.97</ele>
        <time>2021-05-23T14:17:39Z</time>
      </trkpt>
      <trkpt lat="46.1585" lon="-1.3481">
        <ele>11.68</ele>
        <time>2021-05-23T14:17:40Z</time>
      </trkpt>
      <trkpt lat="46.15843" lon="-1.34815">
        <ele>11.32</ele>
        <time>2021-05-23T14:17:41Z</time>
      </trkpt>
      <trkpt lat="46.15836" lon="-1.3482">
        <ele>10.96</ele>
        <time>2021-05-23T14:17:42Z</time>
      </trkpt>
      <trkpt lat="46.1583" lon="-1.34825">
        <ele>10.68</ele>
        <time>2021-05-23T14:17:43Z</time>
      </trkpt>
      <trkpt lat="46.15823" lon="-1.34831">
        <ele>10.51</ele>
        <time>2021-05-23T14:17:44Z</time>
      </trkpt>
      <trkpt lat="46.15817" lon="-1.34837">
        <ele>10.7</ele>
        <time>2021-05-23T14:17:45Z</time>
      </trkpt>
      <trkpt lat="46.15811" lon="-1.34842">
        <ele>10.93</ele>
        <time>2021-05-23T14:17:46Z</time>
      </trkpt>
      <trkpt lat="46.15805" lon="-1.34848">
        <ele>11.09</ele>
        <time>2021-05-23T14:17:47Z</time>
      </trkpt>
      <trkpt lat="46.158" lon="-1.34854">
        <ele>11.95</ele>
        <time>2021-05-23T14:17:48Z</time>
      </trkpt>
      <trkpt lat="46.15795" lon="-1.3486">
        <ele>12.88</ele>
        <time>2021-05-23T14:17:49Z</time>
      </trkpt>
      <trkpt lat="46.15791" lon="-1.34865">
        <ele>13.96</ele>
        <time>2021-05-23T14:17:50Z</time>
      </trkpt>
      <trkpt lat="46.15787" lon="-1.3487">
        <ele>14.98</ele>
        <time>2021-05-23T14:17:51Z</time>
      </trkpt>
      <trkpt lat="46.15783" lon="-1.34875">
        <ele>15.84</ele>
        <time>2021-05-23T14:17:52Z</time>
      </trkpt>
      <trkpt lat="46.1578" lon="-1.3488">
        <ele>16.44</ele>
        <time>2021-05-23T14:17:53Z</time>
      </trkpt>
      <trkpt lat="46.15776" lon="-1.34884">
        <ele>17</ele>
        <time>2021-05-23T14:17:54Z</time>
      </trkpt>
      <trkpt lat="46.15773" lon="-1.34888">
        <ele>17.48</ele>
        <time>2021-05-23T14:17:55Z</time>
      </trkpt>
      <trkpt lat="46.15771" lon="-1.34891">
        <ele>17.77</ele>
        <time>2021-05-23T14:17:56Z</time>
      </trkpt>
      <trkpt lat="46.15768" lon="-1.34894">
        <ele>18.11</ele>
        <time>2021-05-23T14:17:57Z</time>
      </trkpt>
      <trkpt lat="46.15765" lon="-1.34897">
        <ele>18.4</ele>
        <time>2021-05-23T14:17:58Z</time>
      </trkpt>
      <trkpt lat="46.15762" lon="-1.34901">
        <ele>18.64</ele>
        <time>2021-05-23T14:17:59Z</time>
      </trkpt>
      <trkpt lat="46.15759" lon="-1.34904">
        <ele>18.84</ele>
        <time>2021-05-23T14:18:00Z</time>
      </trkpt>
      <trkpt lat="46.15756" lon="-1.34908">
        <ele>18.96</ele>
        <time>2021-05-23T14:18:01Z</time>
      </trkpt>
      <trkpt lat="46.15751" lon="-1.3491">
        <ele>19.19</ele>
        <time>2021-05-23T14:18:05Z</time>
      </trkpt>
      <trkpt lat="46.15747" lon="-1.34914">
        <ele>19.18</ele>
        <time>2021-05-23T14:18:06Z</time>
      </trkpt>
      <trkpt lat="46.15741" lon="-1.34919">
        <ele>19.1</ele>
        <time>2021-05-23T14:18:09Z</time>
      </trkpt>
      <trkpt lat="46.15734" lon="-1.34924">
        <ele>18.94</ele>
        <time>2021-05-23T14:18:14Z</time>
      </trkpt>
      <trkpt lat="46.15728" lon="-1.34927">
        <ele>18.97</ele>
        <time>2021-05-23T14:18:16Z</time>
      </trkpt>
      <trkpt lat="46.15721" lon="-1.34931">
        <ele>18.77</ele>
        <time>2021-05-23T14:18:18Z</time>
      </trkpt>
      <trkpt lat="46.15706" lon="-1.34937">
        <ele>15.5</ele>
        <time>2021-05-23T14:18:20Z</time>
      </trkpt>
      <trkpt lat="46.15701" lon="-1.34941">
        <ele>13.95</ele>
        <time>2021-05-23T14:18:21Z</time>
      </trkpt>
      <trkpt lat="46.15697" lon="-1.34945">
        <ele>12.58</ele>
        <time>2021-05-23T14:18:22Z</time>
      </trkpt>
      <trkpt lat="46.15693" lon="-1.34949">
        <ele>12.27</ele>
        <time>2021-05-23T14:18:23Z</time>
      </trkpt>
      <trkpt lat="46.15689" lon="-1.34954">
        <ele>12.42</ele>
        <time>2021-05-23T14:18:24Z</time>
      </trkpt>
      <trkpt lat="46.15685" lon="-1.34959">
        <ele>12.53</ele>
        <time>2021-05-23T14:18:25Z</time>
      </trkpt>
      <trkpt lat="46.15681" lon="-1.34964">
        <ele>12.58</ele>
        <time>2021-05-23T14:18:26Z</time>
      </trkpt>
      <trkpt lat="46.15677" lon="-1.34968">
        <ele>12.54</ele>
        <time>2021-05-23T14:18:27Z</time>
      </trkpt>
      <trkpt lat="46.15673" lon="-1.34972">
        <ele>12.45</ele>
        <time>2021-05-23T14:18:28Z</time>
      </trkpt>
      <trkpt lat="46.15669" lon="-1.34975">
        <ele>11.98</ele>
        <time>2021-05-23T14:18:29Z</time>
      </trkpt>
      <trkpt lat="46.15664" lon="-1.34978">
        <ele>11.28</ele>
        <time>2021-05-23T14:18:30Z</time>
      </trkpt>
      <trkpt lat="46.15658" lon="-1.34979">
        <ele>10.5</ele>
        <time>2021-05-23T14:18:31Z</time>
      </trkpt>
      <trkpt lat="46.15653" lon="-1.3498">
        <ele>9.83</ele>
        <time>2021-05-23T14:18:32Z</time>
      </trkpt>
      <trkpt lat="46.15648" lon="-1.34981">
        <ele>9.14</ele>
        <time>2021-05-23T14:18:33Z</time>
      </trkpt>
      <trkpt lat="46.15642" lon="-1.34982">
        <ele>8.32</ele>
        <time>2021-05-23T14:18:34Z</time>
      </trkpt>
      <trkpt lat="46.15637" lon="-1.34983">
        <ele>7.71</ele>
        <time>2021-05-23T14:18:35Z</time>
      </trkpt>
      <trkpt lat="46.15631" lon="-1.34984">
        <ele>7.24</ele>
        <time>2021-05-23T14:18:36Z</time>
      </trkpt>
      <trkpt lat="46.15624" lon="-1.34985">
        <ele>6.75</ele>
        <time>2021-05-23T14:18:37Z</time>
      </trkpt>
      <trkpt lat="46.15618" lon="-1.34986">
        <ele>6.37</ele>
        <time>2021-05-23T14:18:38Z</time>
      </trkpt>
      <trkpt lat="46.15612" lon="-1.34987">
        <ele>6.04</ele>
        <time>2021-05-23T14:18:39Z</time>
      </trkpt>
      <trkpt lat="46.15606" lon="-1.34987">
        <ele>6.28</ele>
        <time>2021-05-23T14:18:40Z</time>
      </trkpt>
      <trkpt lat="46.156" lon="-1.34987">
        <ele>6.61</ele>
        <time>2021-05-23T14:18:41Z</time>
      </trkpt>
      <trkpt lat="46.15595" lon="-1.34987">
        <ele>6.89</ele>
        <time>2021-05-23T14:18:42Z</time>
      </trkpt>
      <trkpt lat="46.15589" lon="-1.34986">
        <ele>7.19</ele>
        <time>2021-05-23T14:18:43Z</time>
      </trkpt>
      <trkpt lat="46.15584" lon="-1.34985">
        <ele>7.42</ele>
        <time>2021-05-23T14:18:44Z</time>
      </trkpt>
      <trkpt lat="46.15578" lon="-1.34984">
        <ele>7.78</ele>
        <time>2021-05-23T14:18:45Z</time>
      </trkpt>
      <trkpt lat="46.15574" lon="-1.34982">
        <ele>8.1</ele>
        <time>2021-05-23T14:18:46Z</time>
      </trkpt>
      <trkpt lat="46.15569" lon="-1.34981">
        <ele>8.56</ele>
        <time>2021-05-23T14:18:47Z</time>
      </trkpt>
      <trkpt lat="46.15566" lon="-1.3498">
        <ele>8.9</ele>
        <time>2021-05-23T14:18:48Z</time>
      </trkpt>
      <trkpt lat="46.15563" lon="-1.34979">
        <ele>9.28</ele>
        <time>2021-05-23T14:18:49Z</time>
      </trkpt>
      <trkpt lat="46.1556" lon="-1.34978">
        <ele>9.69</ele>
        <time>2021-05-23T14:18:50Z</time>
      </trkpt>
      <trkpt lat="46.15557" lon="-1.34976">
        <ele>10.28</ele>
        <time>2021-05-23T14:18:52Z</time>
      </trkpt>
      <trkpt lat="46.15555" lon="-1.34972">
        <ele>10.98</ele>
        <time>2021-05-23T14:18:56Z</time>
      </trkpt>
      <trkpt lat="46.15551" lon="-1.34965">
        <ele>11.28</ele>
        <time>2021-05-23T14:19:00Z</time>
      </trkpt>
      <trkpt lat="46.15553" lon="-1.34962">
        <ele>11.62</ele>
        <time>2021-05-23T14:20:37Z</time>
      </trkpt>
      <trkpt lat="46.15552" lon="-1.34957">
        <ele>11.98</ele>
        <time>2021-05-23T14:20:41Z</time>
      </trkpt>
      <trkpt lat="46.15551" lon="-1.34951">
        <ele>12.45</ele>
        <time>2021-05-23T14:20:43Z</time>
      </trkpt>
      <trkpt lat="46.15549" lon="-1.34948">
        <ele>12.68</ele>
        <time>2021-05-23T14:20:44Z</time>
      </trkpt>
      <trkpt lat="46.15547" lon="-1.3494">
        <ele>12.67</ele>
        <time>2021-05-23T14:20:46Z</time>
      </trkpt>
      <trkpt lat="46.15546" lon="-1.34937">
        <ele>12.47</ele>
        <time>2021-05-23T14:20:47Z</time>
      </trkpt>
      <trkpt lat="46.15544" lon="-1.34933">
        <ele>12.28</ele>
        <time>2021-05-23T14:20:48Z</time>
      </trkpt>
      <trkpt lat="46.15542" lon="-1.34929">
        <ele>12.15</ele>
        <time>2021-05-23T14:20:49Z</time>
      </trkpt>
      <trkpt lat="46.15541" lon="-1.34924">
        <ele>11.95</ele>
        <time>2021-05-23T14:20:50Z</time>
      </trkpt>
      <trkpt lat="46.15539" lon="-1.34921">
        <ele>11.98</ele>
        <time>2021-05-23T14:20:51Z</time>
      </trkpt>
      <trkpt lat="46.15538" lon="-1.34917">
        <ele>11.91</ele>
        <time>2021-05-23T14:20:52Z</time>
      </trkpt>
      <trkpt lat="46.15536" lon="-1.34913">
        <ele>11.93</ele>
        <time>2021-05-23T14:20:53Z</time>
      </trkpt>
      <trkpt lat="46.15535" lon="-1.3491">
        <ele>11.86</ele>
        <time>2021-05-23T14:20:54Z</time>
      </trkpt>
      <trkpt lat="46.15534" lon="-1.34905">
        <ele>11.68</ele>
        <time>2021-05-23T14:20:55Z</time>
      </trkpt>
      <trkpt lat="46.15532" lon="-1.349">
        <ele>11.53</ele>
        <time>2021-05-23T14:20:56Z</time>
      </trkpt>
      <trkpt lat="46.15531" lon="-1.34896">
        <ele>11.34</ele>
        <time>2021-05-23T14:20:57Z</time>
      </trkpt>
      <trkpt lat="46.15529" lon="-1.34891">
        <ele>11.1</ele>
        <time>2021-05-23T14:20:58Z</time>
      </trkpt>
      <trkpt lat="46.15527" lon="-1.34887">
        <ele>11.09</ele>
        <time>2021-05-23T14:20:59Z</time>
      </trkpt>
      <trkpt lat="46.15526" lon="-1.34883">
        <ele>11.26</ele>
        <time>2021-05-23T14:21:00Z</time>
      </trkpt>
      <trkpt lat="46.15524" lon="-1.34879">
        <ele>11.44</ele>
        <time>2021-05-23T14:21:01Z</time>
      </trkpt>
      <trkpt lat="46.15522" lon="-1.34876">
        <ele>11.58</ele>
        <time>2021-05-23T14:21:02Z</time>
      </trkpt>
      <trkpt lat="46.15521" lon="-1.34872">
        <ele>11.7</ele>
        <time>2021-05-23T14:21:03Z</time>
      </trkpt>
      <trkpt lat="46.15519" lon="-1.34868">
        <ele>11.83</ele>
        <time>2021-05-23T14:21:04Z</time>
      </trkpt>
      <trkpt lat="46.15518" lon="-1.34864">
        <ele>11.93</ele>
        <time>2021-05-23T14:21:05Z</time>
      </trkpt>
      <trkpt lat="46.15517" lon="-1.34861">
        <ele>12</ele>
        <time>2021-05-23T14:21:06Z</time>
      </trkpt>
      <trkpt lat="46.15515" lon="-1.34857">
        <ele>11.92</ele>
        <time>2021-05-23T14:21:07Z</time>
      </trkpt>
      <trkpt lat="46.15514" lon="-1.34853">
        <ele>11.85</ele>
        <time>2021-05-23T14:21:08Z</time>
      </trkpt>
      <trkpt lat="46.15512" lon="-1.34846">
        <ele>11.76</ele>
        <time>2021-05-23T14:21:10Z</time>
      </trkpt>
      <trkpt lat="46.1551" lon="-1.34839">
        <ele>11.71</ele>
        <time>2021-05-23T14:21:14Z</time>
      </trkpt>
      <trkpt lat="46.15507" lon="-1.34834">
        <ele>11.75</ele>
        <time>2021-05-23T14:21:15Z</time>
      </trkpt>
      <trkpt lat="46.15505" lon="-1.34825">
        <ele>12.47</ele>
        <time>2021-05-23T14:21:18Z</time>
      </trkpt>
      <trkpt lat="46.15503" lon="-1.34828">
        <ele>12.3</ele>
        <time>2021-05-23T14:21:37Z</time>
      </trkpt>
      <trkpt lat="46.15499" lon="-1.3483">
        <ele>12.26</ele>
        <time>2021-05-23T14:21:38Z</time>
      </trkpt>
      <trkpt lat="46.15494" lon="-1.34829">
        <ele>12.39</ele>
        <time>2021-05-23T14:21:39Z</time>
      </trkpt>
      <trkpt lat="46.15487" lon="-1.34828">
        <ele>12.49</ele>
        <time>2021-05-23T14:21:42Z</time>
      </trkpt>
      <trkpt lat="46.15477" lon="-1.34829">
        <ele>12.62</ele>
        <time>2021-05-23T14:21:44Z</time>
      </trkpt>
      <trkpt lat="46.15464" lon="-1.34828">
        <ele>11.96</ele>
        <time>2021-05-23T14:21:49Z</time>
      </trkpt>
      <trkpt lat="46.15455" lon="-1.34825">
        <ele>11.28</ele>
        <time>2021-05-23T14:21:50Z</time>
      </trkpt>
      <trkpt lat="46.15448" lon="-1.34817">
        <ele>11.26</ele>
        <time>2021-05-23T14:21:53Z</time>
      </trkpt>
      <trkpt lat="46.15446" lon="-1.3481">
        <ele>11.66</ele>
        <time>2021-05-23T14:21:56Z</time>
      </trkpt>
      <trkpt lat="46.15443" lon="-1.34809">
        <ele>11.55</ele>
        <time>2021-05-23T14:22:05Z</time>
      </trkpt>
      <trkpt lat="46.1544" lon="-1.3481">
        <ele>11.07</ele>
        <time>2021-05-23T14:22:08Z</time>
      </trkpt>
      <trkpt lat="46.15437" lon="-1.34812">
        <ele>10.53</ele>
        <time>2021-05-23T14:22:11Z</time>
      </trkpt>
      <trkpt lat="46.15434" lon="-1.34814">
        <ele>10</ele>
        <time>2021-05-23T14:22:15Z</time>
      </trkpt>
      <trkpt lat="46.15435" lon="-1.3481">
        <ele>10.37</ele>
        <time>2021-05-23T14:24:39Z</time>
      </trkpt>
      <trkpt lat="46.15439" lon="-1.34809">
        <ele>10.99</ele>
        <time>2021-05-23T14:24:42Z</time>
      </trkpt>
      <trkpt lat="46.1544" lon="-1.34805">
        <ele>11.32</ele>
        <time>2021-05-23T14:24:47Z</time>
      </trkpt>
      <trkpt lat="46.15443" lon="-1.34809">
        <ele>11.55</ele>
        <time>2021-05-23T14:24:56Z</time>
      </trkpt>
      <trkpt lat="46.15446" lon="-1.34814">
        <ele>11.4</ele>
        <time>2021-05-23T14:24:57Z</time>
      </trkpt>
      <trkpt lat="46.15448" lon="-1.34817">
        <ele>11.26</ele>
        <time>2021-05-23T14:24:58Z</time>
      </trkpt>
      <trkpt lat="46.1545" lon="-1.34821">
        <ele>11.13</ele>
        <time>2021-05-23T14:24:59Z</time>
      </trkpt>
      <trkpt lat="46.15452" lon="-1.34824">
        <ele>11.12</ele>
        <time>2021-05-23T14:25:00Z</time>
      </trkpt>
      <trkpt lat="46.15454" lon="-1.34827">
        <ele>11.17</ele>
        <time>2021-05-23T14:25:01Z</time>
      </trkpt>
      <trkpt lat="46.15458" lon="-1.34829">
        <ele>11.47</ele>
        <time>2021-05-23T14:25:02Z</time>
      </trkpt>
      <trkpt lat="46.15462" lon="-1.3483">
        <ele>11.83</ele>
        <time>2021-05-23T14:25:03Z</time>
      </trkpt>
      <trkpt lat="46.15465" lon="-1.34831">
        <ele>12.14</ele>
        <time>2021-05-23T14:25:04Z</time>
      </trkpt>
      <trkpt lat="46.15468" lon="-1.34832">
        <ele>12.48</ele>
        <time>2021-05-23T14:25:05Z</time>
      </trkpt>
      <trkpt lat="46.15471" lon="-1.34833">
        <ele>12.85</ele>
        <time>2021-05-23T14:25:06Z</time>
      </trkpt>
      <trkpt lat="46.15476" lon="-1.34833">
        <ele>12.85</ele>
        <time>2021-05-23T14:25:08Z</time>
      </trkpt>
      <trkpt lat="46.15479" lon="-1.34832">
        <ele>12.71</ele>
        <time>2021-05-23T14:25:09Z</time>
      </trkpt>
      <trkpt lat="46.15484" lon="-1.3483">
        <ele>12.54</ele>
        <time>2021-05-23T14:25:11Z</time>
      </trkpt>
      <trkpt lat="46.15488" lon="-1.34828">
        <ele>12.48</ele>
        <time>2021-05-23T14:25:13Z</time>
      </trkpt>
      <trkpt lat="46.15491" lon="-1.34828">
        <ele>12.46</ele>
        <time>2021-05-23T14:25:15Z</time>
      </trkpt>
      <trkpt lat="46.15494" lon="-1.34826">
        <ele>12.52</ele>
        <time>2021-05-23T14:25:18Z</time>
      </trkpt>
      <trkpt lat="46.15497" lon="-1.34823">
        <ele>12.69</ele>
        <time>2021-05-23T14:25:20Z</time>
      </trkpt>
      <trkpt lat="46.15502" lon="-1.34818">
        <ele>13.07</ele>
        <time>2021-05-23T14:25:22Z</time>
      </trkpt>
      <trkpt lat="46.15504" lon="-1.34814">
        <ele>13.35</ele>
        <time>2021-05-23T14:25:23Z</time>
      </trkpt>
      <trkpt lat="46.15508" lon="-1.3481">
        <ele>13.63</ele>
        <time>2021-05-23T14:25:24Z</time>
      </trkpt>
      <trkpt lat="46.15511" lon="-1.34805">
        <ele>13.98</ele>
        <time>2021-05-23T14:25:25Z</time>
      </trkpt>
      <trkpt lat="46.15514" lon="-1.348">
        <ele>13.8</ele>
        <time>2021-05-23T14:25:26Z</time>
      </trkpt>
      <trkpt lat="46.15518" lon="-1.34794">
        <ele>13.46</ele>
        <time>2021-05-23T14:25:27Z</time>
      </trkpt>
      <trkpt lat="46.15521" lon="-1.34789">
        <ele>13.1</ele>
        <time>2021-05-23T14:25:28Z</time>
      </trkpt>
      <trkpt lat="46.15525" lon="-1.34783">
        <ele>12.54</ele>
        <time>2021-05-23T14:25:29Z</time>
      </trkpt>
      <trkpt lat="46.15529" lon="-1.34778">
        <ele>12.28</ele>
        <time>2021-05-23T14:25:30Z</time>
      </trkpt>
      <trkpt lat="46.15533" lon="-1.34773">
        <ele>12.86</ele>
        <time>2021-05-23T14:25:31Z</time>
      </trkpt>
      <trkpt lat="46.15537" lon="-1.34769">
        <ele>13.36</ele>
        <time>2021-05-23T14:25:32Z</time>
      </trkpt>
      <trkpt lat="46.1554" lon="-1.34764">
        <ele>13.49</ele>
        <time>2021-05-23T14:25:33Z</time>
      </trkpt>
      <trkpt lat="46.15544" lon="-1.34759">
        <ele>13.64</ele>
        <time>2021-05-23T14:25:34Z</time>
      </trkpt>
      <trkpt lat="46.15548" lon="-1.34753">
        <ele>13.53</ele>
        <time>2021-05-23T14:25:35Z</time>
      </trkpt>
      <trkpt lat="46.15551" lon="-1.34748">
        <ele>13.24</ele>
        <time>2021-05-23T14:25:36Z</time>
      </trkpt>
      <trkpt lat="46.15555" lon="-1.34743">
        <ele>12.94</ele>
        <time>2021-05-23T14:25:37Z</time>
      </trkpt>
      <trkpt lat="46.15559" lon="-1.34738">
        <ele>12.56</ele>
        <time>2021-05-23T14:25:38Z</time>
      </trkpt>
      <trkpt lat="46.15562" lon="-1.34733">
        <ele>12.21</ele>
        <time>2021-05-23T14:25:39Z</time>
      </trkpt>
      <trkpt lat="46.15566" lon="-1.34728">
        <ele>12.1</ele>
        <time>2021-05-23T14:25:40Z</time>
      </trkpt>
      <trkpt lat="46.1557" lon="-1.34723">
        <ele>12.15</ele>
        <time>2021-05-23T14:25:41Z</time>
      </trkpt>
      <trkpt lat="46.15573" lon="-1.34719">
        <ele>12.53</ele>
        <time>2021-05-23T14:25:42Z</time>
      </trkpt>
      <trkpt lat="46.15577" lon="-1.34714">
        <ele>12.99</ele>
        <time>2021-05-23T14:25:43Z</time>
      </trkpt>
      <trkpt lat="46.15581" lon="-1.3471">
        <ele>13.33</ele>
        <time>2021-05-23T14:25:44Z</time>
      </trkpt>
      <trkpt lat="46.15585" lon="-1.34706">
        <ele>13.37</ele>
        <time>2021-05-23T14:25:45Z</time>
      </trkpt>
      <trkpt lat="46.15588" lon="-1.34702">
        <ele>13.18</ele>
        <time>2021-05-23T14:25:46Z</time>
      </trkpt>
      <trkpt lat="46.15591" lon="-1.34699">
        <ele>13.07</ele>
        <time>2021-05-23T14:25:47Z</time>
      </trkpt>
      <trkpt lat="46.15595" lon="-1.34696">
        <ele>13.01</ele>
        <time>2021-05-23T14:25:48Z</time>
      </trkpt>
      <trkpt lat="46.15599" lon="-1.34693">
        <ele>13.06</ele>
        <time>2021-05-23T14:25:49Z</time>
      </trkpt>
      <trkpt lat="46.15602" lon="-1.34692">
        <ele>13.12</ele>
        <time>2021-05-23T14:25:50Z</time>
      </trkpt>
      <trkpt lat="46.15606" lon="-1.3469">
        <ele>13.26</ele>
        <time>2021-05-23T14:25:51Z</time>
      </trkpt>
      <trkpt lat="46.15609" lon="-1.34687">
        <ele>13.5</ele>
        <time>2021-05-23T14:25:54Z</time>
      </trkpt>
      <trkpt lat="46.15616" lon="-1.34684">
        <ele>14.35</ele>
        <time>2021-05-23T14:25:55Z</time>
      </trkpt>
      <trkpt lat="46.15623" lon="-1.34675">
        <ele>15.98</ele>
        <time>2021-05-23T14:25:57Z</time>
      </trkpt>
      <trkpt lat="46.15623" lon="-1.34656">
        <ele>17.54</ele>
        <time>2021-05-23T14:26:02Z</time>
      </trkpt>
      <trkpt lat="46.15621" lon="-1.34641">
        <ele>18.54</ele>
        <time>2021-05-23T14:26:05Z</time>
      </trkpt>
      <trkpt lat="46.15617" lon="-1.34623">
        <ele>18.87</ele>
        <time>2021-05-23T14:26:09Z</time>
      </trkpt>
      <trkpt lat="46.15613" lon="-1.34613">
        <ele>19</ele>
        <time>2021-05-23T14:26:11Z</time>
      </trkpt>
      <trkpt lat="46.1561" lon="-1.34603">
        <ele>17.06</ele>
        <time>2021-05-23T14:26:14Z</time>
      </trkpt>
      <trkpt lat="46.15606" lon="-1.34589">
        <ele>14.11</ele>
        <time>2021-05-23T14:26:17Z</time>
      </trkpt>
      <trkpt lat="46.15604" lon="-1.34578">
        <ele>13.93</ele>
        <time>2021-05-23T14:26:21Z</time>
      </trkpt>
      <trkpt lat="46.15602" lon="-1.34567">
        <ele>15.29</ele>
        <time>2021-05-23T14:26:24Z</time>
      </trkpt>
      <trkpt lat="46.15599" lon="-1.34552">
        <ele>16.58</ele>
        <time>2021-05-23T14:26:27Z</time>
      </trkpt>
      <trkpt lat="46.15596" lon="-1.34535">
        <ele>16.39</ele>
        <time>2021-05-23T14:26:30Z</time>
      </trkpt>
      <trkpt lat="46.15594" lon="-1.34523">
        <ele>16.15</ele>
        <time>2021-05-23T14:26:32Z</time>
      </trkpt>
      <trkpt lat="46.15592" lon="-1.34509">
        <ele>15.94</ele>
        <time>2021-05-23T14:26:36Z</time>
      </trkpt>
      <trkpt lat="46.1559" lon="-1.3449">
        <ele>15.63</ele>
        <time>2021-05-23T14:26:40Z</time>
      </trkpt>
      <trkpt lat="46.15588" lon="-1.34471">
        <ele>15.32</ele>
        <time>2021-05-23T14:26:44Z</time>
      </trkpt>
      <trkpt lat="46.15585" lon="-1.34453">
        <ele>15.04</ele>
        <time>2021-05-23T14:26:49Z</time>
      </trkpt>
      <trkpt lat="46.15578" lon="-1.34434">
        <ele>13.94</ele>
        <time>2021-05-23T14:26:53Z</time>
      </trkpt>
      <trkpt lat="46.15571" lon="-1.34418">
        <ele>12.57</ele>
        <time>2021-05-23T14:26:57Z</time>
      </trkpt>
      <trkpt lat="46.15566" lon="-1.34402">
        <ele>11.9</ele>
        <time>2021-05-23T14:27:01Z</time>
      </trkpt>
      <trkpt lat="46.15559" lon="-1.34384">
        <ele>11.44</ele>
        <time>2021-05-23T14:27:05Z</time>
      </trkpt>
      <trkpt lat="46.15552" lon="-1.34369">
        <ele>10.5</ele>
        <time>2021-05-23T14:27:10Z</time>
      </trkpt>
      <trkpt lat="46.15544" lon="-1.34363">
        <ele>10.08</ele>
        <time>2021-05-23T14:27:19Z</time>
      </trkpt>
      <trkpt lat="46.15537" lon="-1.34374">
        <ele>10.31</ele>
        <time>2021-05-23T14:27:22Z</time>
      </trkpt>
      <trkpt lat="46.15531" lon="-1.34384">
        <ele>10.19</ele>
        <time>2021-05-23T14:27:25Z</time>
      </trkpt>
      <trkpt lat="46.15523" lon="-1.34399">
        <ele>10.25</ele>
        <time>2021-05-23T14:27:29Z</time>
      </trkpt>
      <trkpt lat="46.15516" lon="-1.34411">
        <ele>10.71</ele>
        <time>2021-05-23T14:27:32Z</time>
      </trkpt>
      <trkpt lat="46.15509" lon="-1.34422">
        <ele>11.25</ele>
        <time>2021-05-23T14:27:36Z</time>
      </trkpt>
      <trkpt lat="46.15501" lon="-1.34436">
        <ele>11.72</ele>
        <time>2021-05-23T14:27:40Z</time>
      </trkpt>
      <trkpt lat="46.15493" lon="-1.34446">
        <ele>12.01</ele>
        <time>2021-05-23T14:27:44Z</time>
      </trkpt>
      <trkpt lat="46.15485" lon="-1.34459">
        <ele>11.68</ele>
        <time>2021-05-23T14:27:49Z</time>
      </trkpt>
      <trkpt lat="46.15476" lon="-1.34467">
        <ele>10.71</ele>
        <time>2021-05-23T14:27:52Z</time>
      </trkpt>
      <trkpt lat="46.15467" lon="-1.34469">
        <ele>10.07</ele>
        <time>2021-05-23T14:27:55Z</time>
      </trkpt>
      <trkpt lat="46.1546" lon="-1.34471">
        <ele>9.67</ele>
        <time>2021-05-23T14:27:58Z</time>
      </trkpt>
      <trkpt lat="46.15452" lon="-1.34474">
        <ele>9.19</ele>
        <time>2021-05-23T14:28:01Z</time>
      </trkpt>
      <trkpt lat="46.15444" lon="-1.34483">
        <ele>8.66</ele>
        <time>2021-05-23T14:28:08Z</time>
      </trkpt>
      <trkpt lat="46.15435" lon="-1.34492">
        <ele>9.31</ele>
        <time>2021-05-23T14:28:11Z</time>
      </trkpt>
      <trkpt lat="46.15427" lon="-1.34499">
        <ele>9.92</ele>
        <time>2021-05-23T14:28:14Z</time>
      </trkpt>
      <trkpt lat="46.15419" lon="-1.34504">
        <ele>10.99</ele>
        <time>2021-05-23T14:28:17Z</time>
      </trkpt>
      <trkpt lat="46.15417" lon="-1.34503">
        <ele>11.17</ele>
        <time>2021-05-23T14:28:25Z</time>
      </trkpt>
      <trkpt lat="46.1541" lon="-1.345">
        <ele>11.24</ele>
        <time>2021-05-23T14:28:27Z</time>
      </trkpt>
      <trkpt lat="46.15402" lon="-1.34494">
        <ele>11.74</ele>
        <time>2021-05-23T14:28:29Z</time>
      </trkpt>
      <trkpt lat="46.15393" lon="-1.34486">
        <ele>12.36</ele>
        <time>2021-05-23T14:28:32Z</time>
      </trkpt>
      <trkpt lat="46.15382" lon="-1.34477">
        <ele>12.49</ele>
        <time>2021-05-23T14:28:34Z</time>
      </trkpt>
      <trkpt lat="46.15379" lon="-1.34464">
        <ele>12.94</ele>
        <time>2021-05-23T14:28:35Z</time>
      </trkpt>
      <trkpt lat="46.15374" lon="-1.34451">
        <ele>13.23</ele>
        <time>2021-05-23T14:28:37Z</time>
      </trkpt>
      <trkpt lat="46.15372" lon="-1.34445">
        <ele>13.37</ele>
        <time>2021-05-23T14:28:38Z</time>
      </trkpt>
      <trkpt lat="46.15371" lon="-1.34438">
        <ele>12.81</ele>
        <time>2021-05-23T14:28:39Z</time>
      </trkpt>
      <trkpt lat="46.15369" lon="-1.34432">
        <ele>12.26</ele>
        <time>2021-05-23T14:28:40Z</time>
      </trkpt>
      <trkpt lat="46.15367" lon="-1.34425">
        <ele>11.66</ele>
        <time>2021-05-23T14:28:41Z</time>
      </trkpt>
      <trkpt lat="46.15366" lon="-1.34418">
        <ele>11.1</ele>
        <time>2021-05-23T14:28:42Z</time>
      </trkpt>
      <trkpt lat="46.15365" lon="-1.34411">
        <ele>11.12</ele>
        <time>2021-05-23T14:28:43Z</time>
      </trkpt>
      <trkpt lat="46.15364" lon="-1.34404">
        <ele>11.31</ele>
        <time>2021-05-23T14:28:44Z</time>
      </trkpt>
      <trkpt lat="46.15363" lon="-1.34397">
        <ele>11.56</ele>
        <time>2021-05-23T14:28:45Z</time>
      </trkpt>
      <trkpt lat="46.15362" lon="-1.3439">
        <ele>11.87</ele>
        <time>2021-05-23T14:28:46Z</time>
      </trkpt>
      <trkpt lat="46.15362" lon="-1.34383">
        <ele>11.49</ele>
        <time>2021-05-23T14:28:47Z</time>
      </trkpt>
      <trkpt lat="46.15361" lon="-1.34377">
        <ele>11.14</ele>
        <time>2021-05-23T14:28:48Z</time>
      </trkpt>
      <trkpt lat="46.15359" lon="-1.34371">
        <ele>10.66</ele>
        <time>2021-05-23T14:28:49Z</time>
      </trkpt>
      <trkpt lat="46.15357" lon="-1.34365">
        <ele>10.24</ele>
        <time>2021-05-23T14:28:50Z</time>
      </trkpt>
      <trkpt lat="46.15355" lon="-1.34358">
        <ele>9.74</ele>
        <time>2021-05-23T14:28:51Z</time>
      </trkpt>
      <trkpt lat="46.15354" lon="-1.34352">
        <ele>9.27</ele>
        <time>2021-05-23T14:28:52Z</time>
      </trkpt>
      <trkpt lat="46.15353" lon="-1.34345">
        <ele>8.77</ele>
        <time>2021-05-23T14:28:53Z</time>
      </trkpt>
      <trkpt lat="46.15352" lon="-1.34339">
        <ele>8.4</ele>
        <time>2021-05-23T14:28:54Z</time>
      </trkpt>
      <trkpt lat="46.15351" lon="-1.34334">
        <ele>8.14</ele>
        <time>2021-05-23T14:28:55Z</time>
      </trkpt>
      <trkpt lat="46.1535" lon="-1.34329">
        <ele>8.39</ele>
        <time>2021-05-23T14:28:56Z</time>
      </trkpt>
      <trkpt lat="46.15348" lon="-1.34324">
        <ele>8.89</ele>
        <time>2021-05-23T14:28:57Z</time>
      </trkpt>
      <trkpt lat="46.15345" lon="-1.34319">
        <ele>9.64</ele>
        <time>2021-05-23T14:28:58Z</time>
      </trkpt>
      <trkpt lat="46.15343" lon="-1.34313">
        <ele>10.39</ele>
        <time>2021-05-23T14:28:59Z</time>
      </trkpt>
      <trkpt lat="46.15341" lon="-1.34308">
        <ele>11.15</ele>
        <time>2021-05-23T14:29:00Z</time>
      </trkpt>
      <trkpt lat="46.15338" lon="-1.34302">
        <ele>12.01</ele>
        <time>2021-05-23T14:29:02Z</time>
      </trkpt>
      <trkpt lat="46.15335" lon="-1.34299">
        <ele>12.65</ele>
        <time>2021-05-23T14:29:04Z</time>
      </trkpt>
      <trkpt lat="46.15328" lon="-1.34291">
        <ele>13.12</ele>
        <time>2021-05-23T14:29:07Z</time>
      </trkpt>
      <trkpt lat="46.1532" lon="-1.34302">
        <ele>12.35</ele>
        <time>2021-05-23T14:29:10Z</time>
      </trkpt>
      <trkpt lat="46.15316" lon="-1.34311">
        <ele>11.53</ele>
        <time>2021-05-23T14:29:11Z</time>
      </trkpt>
      <trkpt lat="46.15312" lon="-1.3432">
        <ele>11.1</ele>
        <time>2021-05-23T14:29:13Z</time>
      </trkpt>
      <trkpt lat="46.15307" lon="-1.34327">
        <ele>10.98</ele>
        <time>2021-05-23T14:29:15Z</time>
      </trkpt>
      <trkpt lat="46.15302" lon="-1.34336">
        <ele>10.52</ele>
        <time>2021-05-23T14:29:17Z</time>
      </trkpt>
      <trkpt lat="46.15296" lon="-1.34349">
        <ele>9.59</ele>
        <time>2021-05-23T14:29:19Z</time>
      </trkpt>
      <trkpt lat="46.15295" lon="-1.34363">
        <ele>9.23</ele>
        <time>2021-05-23T14:29:22Z</time>
      </trkpt>
      <trkpt lat="46.15294" lon="-1.34374">
        <ele>9.91</ele>
        <time>2021-05-23T14:29:24Z</time>
      </trkpt>
      <trkpt lat="46.15293" lon="-1.34386">
        <ele>10.66</ele>
        <time>2021-05-23T14:29:27Z</time>
      </trkpt>
      <trkpt lat="46.15293" lon="-1.34395">
        <ele>10.89</ele>
        <time>2021-05-23T14:29:30Z</time>
      </trkpt>
      <trkpt lat="46.15294" lon="-1.3439">
        <ele>10.69</ele>
        <time>2021-05-23T14:29:35Z</time>
      </trkpt>
      <trkpt lat="46.15293" lon="-1.34385">
        <ele>10.6</ele>
        <time>2021-05-23T14:29:43Z</time>
      </trkpt>
      <trkpt lat="46.1529" lon="-1.34383">
        <ele>10.91</ele>
        <time>2021-05-23T14:29:45Z</time>
      </trkpt>
      <trkpt lat="46.15287" lon="-1.34384">
        <ele>11.38</ele>
        <time>2021-05-23T14:29:49Z</time>
      </trkpt>
      <trkpt lat="46.15284" lon="-1.34382">
        <ele>11.66</ele>
        <time>2021-05-23T14:29:58Z</time>
      </trkpt>
      <trkpt lat="46.1528" lon="-1.34381">
        <ele>12.13</ele>
        <time>2021-05-23T14:30:02Z</time>
      </trkpt>
      <trkpt lat="46.15276" lon="-1.34382">
        <ele>12.36</ele>
        <time>2021-05-23T14:30:03Z</time>
      </trkpt>
      <trkpt lat="46.15272" lon="-1.34386">
        <ele>12.23</ele>
        <time>2021-05-23T14:30:07Z</time>
      </trkpt>
      <trkpt lat="46.15269" lon="-1.34388">
        <ele>12.02</ele>
        <time>2021-05-23T14:30:10Z</time>
      </trkpt>
      <trkpt lat="46.15266" lon="-1.34389">
        <ele>11.72</ele>
        <time>2021-05-23T14:30:12Z</time>
      </trkpt>
      <trkpt lat="46.15262" lon="-1.3439">
        <ele>11.2</ele>
        <time>2021-05-23T14:30:14Z</time>
      </trkpt>
      <trkpt lat="46.15259" lon="-1.34392">
        <ele>10.75</ele>
        <time>2021-05-23T14:30:18Z</time>
      </trkpt>
      <trkpt lat="46.15263" lon="-1.34391">
        <ele>11.22</ele>
        <time>2021-05-23T14:30:41Z</time>
      </trkpt>
      <trkpt lat="46.15266" lon="-1.3439">
        <ele>11.62</ele>
        <time>2021-05-23T14:30:44Z</time>
      </trkpt>
      <trkpt lat="46.15271" lon="-1.3439">
        <ele>12.14</ele>
        <time>2021-05-23T14:30:46Z</time>
      </trkpt>
      <trkpt lat="46.15273" lon="-1.3439">
        <ele>12.34</ele>
        <time>2021-05-23T14:30:48Z</time>
      </trkpt>
      <trkpt lat="46.15277" lon="-1.3439">
        <ele>12.76</ele>
        <time>2021-05-23T14:30:50Z</time>
      </trkpt>
      <trkpt lat="46.1528" lon="-1.34389">
        <ele>12.67</ele>
        <time>2021-05-23T14:30:51Z</time>
      </trkpt>
      <trkpt lat="46.15284" lon="-1.34389">
        <ele>12.1</ele>
        <time>2021-05-23T14:30:55Z</time>
      </trkpt>
      <trkpt lat="46.15287" lon="-1.3439">
        <ele>11.62</ele>
        <time>2021-05-23T14:30:57Z</time>
      </trkpt>
      <trkpt lat="46.15289" lon="-1.34387">
        <ele>11.28</ele>
        <time>2021-05-23T14:31:04Z</time>
      </trkpt>
      <trkpt lat="46.1529" lon="-1.34381">
        <ele>10.8</ele>
        <time>2021-05-23T14:31:06Z</time>
      </trkpt>
      <trkpt lat="46.15293" lon="-1.34376">
        <ele>10.13</ele>
        <time>2021-05-23T14:31:08Z</time>
      </trkpt>
      <trkpt lat="46.15295" lon="-1.34365">
        <ele>9.33</ele>
        <time>2021-05-23T14:31:09Z</time>
      </trkpt>
      <trkpt lat="46.15298" lon="-1.34356">
        <ele>9.12</ele>
        <time>2021-05-23T14:31:10Z</time>
      </trkpt>
      <trkpt lat="46.15301" lon="-1.34346">
        <ele>9.68</ele>
        <time>2021-05-23T14:31:13Z</time>
      </trkpt>
      <trkpt lat="46.1531" lon="-1.34326">
        <ele>10.97</ele>
        <time>2021-05-23T14:31:14Z</time>
      </trkpt>
      <trkpt lat="46.15314" lon="-1.34321">
        <ele>11.1</ele>
        <time>2021-05-23T14:31:15Z</time>
      </trkpt>
      <trkpt lat="46.15317" lon="-1.34315">
        <ele>11.4</ele>
        <time>2021-05-23T14:31:16Z</time>
      </trkpt>
      <trkpt lat="46.15321" lon="-1.34308">
        <ele>11.97</ele>
        <time>2021-05-23T14:31:17Z</time>
      </trkpt>
      <trkpt lat="46.15323" lon="-1.34303">
        <ele>12.43</ele>
        <time>2021-05-23T14:31:18Z</time>
      </trkpt>
      <trkpt lat="46.15325" lon="-1.34297">
        <ele>12.86</ele>
        <time>2021-05-23T14:31:19Z</time>
      </trkpt>
      <trkpt lat="46.15327" lon="-1.3429">
        <ele>13.18</ele>
        <time>2021-05-23T14:31:23Z</time>
      </trkpt>
      <trkpt lat="46.15331" lon="-1.34281">
        <ele>13.2</ele>
        <time>2021-05-23T14:31:25Z</time>
      </trkpt>
      <trkpt lat="46.15336" lon="-1.34271">
        <ele>12.37</ele>
        <time>2021-05-23T14:31:28Z</time>
      </trkpt>
      <trkpt lat="46.15342" lon="-1.34261">
        <ele>11.59</ele>
        <time>2021-05-23T14:31:31Z</time>
      </trkpt>
      <trkpt lat="46.15351" lon="-1.34248">
        <ele>11.29</ele>
        <time>2021-05-23T14:31:32Z</time>
      </trkpt>
      <trkpt lat="46.15356" lon="-1.34241">
        <ele>10.86</ele>
        <time>2021-05-23T14:31:33Z</time>
      </trkpt>
      <trkpt lat="46.1536" lon="-1.34234">
        <ele>10.46</ele>
        <time>2021-05-23T14:31:34Z</time>
      </trkpt>
      <trkpt lat="46.15364" lon="-1.34226">
        <ele>9.93</ele>
        <time>2021-05-23T14:31:35Z</time>
      </trkpt>
      <trkpt lat="46.15367" lon="-1.34217">
        <ele>9.47</ele>
        <time>2021-05-23T14:31:36Z</time>
      </trkpt>
      <trkpt lat="46.15369" lon="-1.34208">
        <ele>9.21</ele>
        <time>2021-05-23T14:31:37Z</time>
      </trkpt>
      <trkpt lat="46.15371" lon="-1.34198">
        <ele>9.04</ele>
        <time>2021-05-23T14:31:38Z</time>
      </trkpt>
      <trkpt lat="46.15372" lon="-1.34189">
        <ele>9.24</ele>
        <time>2021-05-23T14:31:39Z</time>
      </trkpt>
      <trkpt lat="46.15372" lon="-1.34179">
        <ele>9.68</ele>
        <time>2021-05-23T14:31:40Z</time>
      </trkpt>
      <trkpt lat="46.15373" lon="-1.34169">
        <ele>10.05</ele>
        <time>2021-05-23T14:31:41Z</time>
      </trkpt>
      <trkpt lat="46.15373" lon="-1.34159">
        <ele>10.34</ele>
        <time>2021-05-23T14:31:42Z</time>
      </trkpt>
      <trkpt lat="46.15374" lon="-1.34149">
        <ele>10.46</ele>
        <time>2021-05-23T14:31:43Z</time>
      </trkpt>
      <trkpt lat="46.15374" lon="-1.34139">
        <ele>10.68</ele>
        <time>2021-05-23T14:31:44Z</time>
      </trkpt>
      <trkpt lat="46.15374" lon="-1.3413">
        <ele>11</ele>
        <time>2021-05-23T14:31:45Z</time>
      </trkpt>
      <trkpt lat="46.15374" lon="-1.3412">
        <ele>11.36</ele>
        <time>2021-05-23T14:31:46Z</time>
      </trkpt>
      <trkpt lat="46.15373" lon="-1.3411">
        <ele>11.93</ele>
        <time>2021-05-23T14:31:47Z</time>
      </trkpt>
      <trkpt lat="46.15372" lon="-1.341">
        <ele>12.75</ele>
        <time>2021-05-23T14:31:48Z</time>
      </trkpt>
      <trkpt lat="46.15371" lon="-1.3409">
        <ele>13.52</ele>
        <time>2021-05-23T14:31:49Z</time>
      </trkpt>
      <trkpt lat="46.15371" lon="-1.3408">
        <ele>13.93</ele>
        <time>2021-05-23T14:31:50Z</time>
      </trkpt>
      <trkpt lat="46.1537" lon="-1.3407">
        <ele>14.04</ele>
        <time>2021-05-23T14:31:51Z</time>
      </trkpt>
      <trkpt lat="46.15369" lon="-1.34061">
        <ele>14.15</ele>
        <time>2021-05-23T14:31:52Z</time>
      </trkpt>
      <trkpt lat="46.15368" lon="-1.34051">
        <ele>13.89</ele>
        <time>2021-05-23T14:31:53Z</time>
      </trkpt>
      <trkpt lat="46.15368" lon="-1.34042">
        <ele>13.16</ele>
        <time>2021-05-23T14:31:54Z</time>
      </trkpt>
      <trkpt lat="46.15368" lon="-1.34034">
        <ele>12.51</ele>
        <time>2021-05-23T14:31:55Z</time>
      </trkpt>
      <trkpt lat="46.15367" lon="-1.34026">
        <ele>11.97</ele>
        <time>2021-05-23T14:31:56Z</time>
      </trkpt>
      <trkpt lat="46.15367" lon="-1.34019">
        <ele>11.87</ele>
        <time>2021-05-23T14:31:57Z</time>
      </trkpt>
      <trkpt lat="46.15367" lon="-1.34012">
        <ele>11.76</ele>
        <time>2021-05-23T14:31:58Z</time>
      </trkpt>
      <trkpt lat="46.15367" lon="-1.34005">
        <ele>11.65</ele>
        <time>2021-05-23T14:31:59Z</time>
      </trkpt>
      <trkpt lat="46.15367" lon="-1.33999">
        <ele>11.55</ele>
        <time>2021-05-23T14:32:00Z</time>
      </trkpt>
      <trkpt lat="46.15367" lon="-1.33994">
        <ele>11.41</ele>
        <time>2021-05-23T14:32:01Z</time>
      </trkpt>
      <trkpt lat="46.15367" lon="-1.33988">
        <ele>11.24</ele>
        <time>2021-05-23T14:32:02Z</time>
      </trkpt>
      <trkpt lat="46.15367" lon="-1.33982">
        <ele>11.07</ele>
        <time>2021-05-23T14:32:03Z</time>
      </trkpt>
      <trkpt lat="46.15366" lon="-1.33974">
        <ele>10.88</ele>
        <time>2021-05-23T14:32:04Z</time>
      </trkpt>
      <trkpt lat="46.15366" lon="-1.33965">
        <ele>10.82</ele>
        <time>2021-05-23T14:32:05Z</time>
      </trkpt>
      <trkpt lat="46.15365" lon="-1.33957">
        <ele>10.86</ele>
        <time>2021-05-23T14:32:06Z</time>
      </trkpt>
      <trkpt lat="46.15365" lon="-1.33948">
        <ele>10.86</ele>
        <time>2021-05-23T14:32:07Z</time>
      </trkpt>
      <trkpt lat="46.15365" lon="-1.3394">
        <ele>10.7</ele>
        <time>2021-05-23T14:32:08Z</time>
      </trkpt>
      <trkpt lat="46.15364" lon="-1.33931">
        <ele>10.41</ele>
        <time>2021-05-23T14:32:09Z</time>
      </trkpt>
      <trkpt lat="46.15364" lon="-1.33923">
        <ele>10.12</ele>
        <time>2021-05-23T14:32:10Z</time>
      </trkpt>
      <trkpt lat="46.15363" lon="-1.33915">
        <ele>9.7</ele>
        <time>2021-05-23T14:32:11Z</time>
      </trkpt>
      <trkpt lat="46.15363" lon="-1.33907">
        <ele>8.61</ele>
        <time>2021-05-23T14:32:12Z</time>
      </trkpt>
      <trkpt lat="46.15363" lon="-1.33899">
        <ele>7.52</ele>
        <time>2021-05-23T14:32:13Z</time>
      </trkpt>
      <trkpt lat="46.15363" lon="-1.33892">
        <ele>6.56</ele>
        <time>2021-05-23T14:32:14Z</time>
      </trkpt>
      <trkpt lat="46.15363" lon="-1.33885">
        <ele>6.26</ele>
        <time>2021-05-23T14:32:15Z</time>
      </trkpt>
      <trkpt lat="46.15363" lon="-1.33878">
        <ele>6.47</ele>
        <time>2021-05-23T14:32:16Z</time>
      </trkpt>
      <trkpt lat="46.15363" lon="-1.33871">
        <ele>6.69</ele>
        <time>2021-05-23T14:32:17Z</time>
      </trkpt>
      <trkpt lat="46.15363" lon="-1.33865">
        <ele>6.88</ele>
        <time>2021-05-23T14:32:18Z</time>
      </trkpt>
      <trkpt lat="46.15363" lon="-1.33859">
        <ele>7.22</ele>
        <time>2021-05-23T14:32:19Z</time>
      </trkpt>
      <trkpt lat="46.15364" lon="-1.33853">
        <ele>7.85</ele>
        <time>2021-05-23T14:32:20Z</time>
      </trkpt>
      <trkpt lat="46.15365" lon="-1.33847">
        <ele>8.45</ele>
        <time>2021-05-23T14:32:21Z</time>
      </trkpt>
      <trkpt lat="46.15365" lon="-1.33842">
        <ele>8.97</ele>
        <time>2021-05-23T14:32:22Z</time>
      </trkpt>
      <trkpt lat="46.15366" lon="-1.33836">
        <ele>9.55</ele>
        <time>2021-05-23T14:32:23Z</time>
      </trkpt>
      <trkpt lat="46.15366" lon="-1.33829">
        <ele>9.98</ele>
        <time>2021-05-23T14:32:24Z</time>
      </trkpt>
      <trkpt lat="46.15366" lon="-1.33821">
        <ele>10.27</ele>
        <time>2021-05-23T14:32:25Z</time>
      </trkpt>
      <trkpt lat="46.15366" lon="-1.33813">
        <ele>10.56</ele>
        <time>2021-05-23T14:32:26Z</time>
      </trkpt>
      <trkpt lat="46.15365" lon="-1.33806">
        <ele>10.84</ele>
        <time>2021-05-23T14:32:27Z</time>
      </trkpt>
      <trkpt lat="46.15363" lon="-1.33798">
        <ele>10.93</ele>
        <time>2021-05-23T14:32:28Z</time>
      </trkpt>
      <trkpt lat="46.15362" lon="-1.33791">
        <ele>10.97</ele>
        <time>2021-05-23T14:32:29Z</time>
      </trkpt>
      <trkpt lat="46.15361" lon="-1.33785">
        <ele>11.01</ele>
        <time>2021-05-23T14:32:30Z</time>
      </trkpt>
      <trkpt lat="46.1536" lon="-1.33778">
        <ele>11.08</ele>
        <time>2021-05-23T14:32:31Z</time>
      </trkpt>
      <trkpt lat="46.1536" lon="-1.33772">
        <ele>11.07</ele>
        <time>2021-05-23T14:32:32Z</time>
      </trkpt>
      <trkpt lat="46.15359" lon="-1.33765">
        <ele>11.12</ele>
        <time>2021-05-23T14:32:33Z</time>
      </trkpt>
      <trkpt lat="46.15359" lon="-1.3376">
        <ele>11.1</ele>
        <time>2021-05-23T14:32:34Z</time>
      </trkpt>
      <trkpt lat="46.15358" lon="-1.33749">
        <ele>11.1</ele>
        <time>2021-05-23T14:32:38Z</time>
      </trkpt>
      <trkpt lat="46.15356" lon="-1.33738">
        <ele>11.03</ele>
        <time>2021-05-23T14:32:40Z</time>
      </trkpt>
      <trkpt lat="46.15353" lon="-1.3373">
        <ele>10.87</ele>
        <time>2021-05-23T14:32:41Z</time>
      </trkpt>
      <trkpt lat="46.15347" lon="-1.33724">
        <ele>10.56</ele>
        <time>2021-05-23T14:32:43Z</time>
      </trkpt>
      <trkpt lat="46.15341" lon="-1.33715">
        <ele>10.09</ele>
        <time>2021-05-23T14:32:45Z</time>
      </trkpt>
      <trkpt lat="46.15335" lon="-1.33707">
        <ele>9.54</ele>
        <time>2021-05-23T14:32:47Z</time>
      </trkpt>
      <trkpt lat="46.15327" lon="-1.33694">
        <ele>9.22</ele>
        <time>2021-05-23T14:32:49Z</time>
      </trkpt>
      <trkpt lat="46.15321" lon="-1.33686">
        <ele>9.31</ele>
        <time>2021-05-23T14:32:50Z</time>
      </trkpt>
      <trkpt lat="46.15313" lon="-1.33676">
        <ele>9.25</ele>
        <time>2021-05-23T14:32:52Z</time>
      </trkpt>
      <trkpt lat="46.1531" lon="-1.33672">
        <ele>9.16</ele>
        <time>2021-05-23T14:32:53Z</time>
      </trkpt>
      <trkpt lat="46.15304" lon="-1.33663">
        <ele>9.17</ele>
        <time>2021-05-23T14:32:56Z</time>
      </trkpt>
      <trkpt lat="46.15297" lon="-1.33657">
        <ele>9.33</ele>
        <time>2021-05-23T14:32:58Z</time>
      </trkpt>
      <trkpt lat="46.15289" lon="-1.3365">
        <ele>9.12</ele>
        <time>2021-05-23T14:33:00Z</time>
      </trkpt>
      <trkpt lat="46.15283" lon="-1.33635">
        <ele>8.21</ele>
        <time>2021-05-23T14:33:02Z</time>
      </trkpt>
      <trkpt lat="46.15282" lon="-1.33621">
        <ele>7.56</ele>
        <time>2021-05-23T14:33:04Z</time>
      </trkpt>
      <trkpt lat="46.15281" lon="-1.33614">
        <ele>7.23</ele>
        <time>2021-05-23T14:33:05Z</time>
      </trkpt>
      <trkpt lat="46.1528" lon="-1.33606">
        <ele>6.9</ele>
        <time>2021-05-23T14:33:06Z</time>
      </trkpt>
      <trkpt lat="46.1528" lon="-1.33599">
        <ele>6.64</ele>
        <time>2021-05-23T14:33:07Z</time>
      </trkpt>
      <trkpt lat="46.15279" lon="-1.33592">
        <ele>6.36</ele>
        <time>2021-05-23T14:33:08Z</time>
      </trkpt>
      <trkpt lat="46.15279" lon="-1.33584">
        <ele>6.07</ele>
        <time>2021-05-23T14:33:09Z</time>
      </trkpt>
      <trkpt lat="46.15278" lon="-1.33577">
        <ele>6.01</ele>
        <time>2021-05-23T14:33:10Z</time>
      </trkpt>
      <trkpt lat="46.15277" lon="-1.3357">
        <ele>5.99</ele>
        <time>2021-05-23T14:33:11Z</time>
      </trkpt>
      <trkpt lat="46.15277" lon="-1.33563">
        <ele>5.98</ele>
        <time>2021-05-23T14:33:12Z</time>
      </trkpt>
      <trkpt lat="46.15277" lon="-1.33545">
        <ele>5.98</ele>
        <time>2021-05-23T14:33:15Z</time>
      </trkpt>
      <trkpt lat="46.15276" lon="-1.33532">
        <ele>5.99</ele>
        <time>2021-05-23T14:33:18Z</time>
      </trkpt>
      <trkpt lat="46.15277" lon="-1.33514">
        <ele>6.52</ele>
        <time>2021-05-23T14:33:23Z</time>
      </trkpt>
      <trkpt lat="46.15278" lon="-1.33502">
        <ele>6.92</ele>
        <time>2021-05-23T14:33:25Z</time>
      </trkpt>
      <trkpt lat="46.15279" lon="-1.33487">
        <ele>7.87</ele>
        <time>2021-05-23T14:33:27Z</time>
      </trkpt>
      <trkpt lat="46.15278" lon="-1.3348">
        <ele>8.43</ele>
        <time>2021-05-23T14:33:28Z</time>
      </trkpt>
      <trkpt lat="46.15278" lon="-1.33473">
        <ele>8.93</ele>
        <time>2021-05-23T14:33:29Z</time>
      </trkpt>
      <trkpt lat="46.15278" lon="-1.33466">
        <ele>8.76</ele>
        <time>2021-05-23T14:33:30Z</time>
      </trkpt>
      <trkpt lat="46.15278" lon="-1.33459">
        <ele>8.51</ele>
        <time>2021-05-23T14:33:31Z</time>
      </trkpt>
      <trkpt lat="46.15278" lon="-1.33452">
        <ele>8.26</ele>
        <time>2021-05-23T14:33:32Z</time>
      </trkpt>
      <trkpt lat="46.15277" lon="-1.33446">
        <ele>8.11</ele>
        <time>2021-05-23T14:33:33Z</time>
      </trkpt>
      <trkpt lat="46.15277" lon="-1.33439">
        <ele>7.85</ele>
        <time>2021-05-23T14:33:34Z</time>
      </trkpt>
      <trkpt lat="46.15276" lon="-1.33432">
        <ele>7.62</ele>
        <time>2021-05-23T14:33:35Z</time>
      </trkpt>
      <trkpt lat="46.15276" lon="-1.33426">
        <ele>7.38</ele>
        <time>2021-05-23T14:33:36Z</time>
      </trkpt>
      <trkpt lat="46.15275" lon="-1.33419">
        <ele>7.1</ele>
        <time>2021-05-23T14:33:37Z</time>
      </trkpt>
      <trkpt lat="46.15275" lon="-1.33412">
        <ele>6.98</ele>
        <time>2021-05-23T14:33:38Z</time>
      </trkpt>
      <trkpt lat="46.15274" lon="-1.33405">
        <ele>6.94</ele>
        <time>2021-05-23T14:33:39Z</time>
      </trkpt>
      <trkpt lat="46.15274" lon="-1.33399">
        <ele>6.91</ele>
        <time>2021-05-23T14:33:40Z</time>
      </trkpt>
      <trkpt lat="46.15273" lon="-1.33391">
        <ele>6.84</ele>
        <time>2021-05-23T14:33:41Z</time>
      </trkpt>
      <trkpt lat="46.15273" lon="-1.33384">
        <ele>6.65</ele>
        <time>2021-05-23T14:33:42Z</time>
      </trkpt>
      <trkpt lat="46.15273" lon="-1.33377">
        <ele>6.4</ele>
        <time>2021-05-23T14:33:43Z</time>
      </trkpt>
      <trkpt lat="46.15272" lon="-1.3337">
        <ele>6.11</ele>
        <time>2021-05-23T14:33:44Z</time>
      </trkpt>
      <trkpt lat="46.15272" lon="-1.33363">
        <ele>5.86</ele>
        <time>2021-05-23T14:33:45Z</time>
      </trkpt>
      <trkpt lat="46.15272" lon="-1.33355">
        <ele>6.14</ele>
        <time>2021-05-23T14:33:46Z</time>
      </trkpt>
      <trkpt lat="46.15272" lon="-1.33348">
        <ele>6.54</ele>
        <time>2021-05-23T14:33:47Z</time>
      </trkpt>
      <trkpt lat="46.15271" lon="-1.3334">
        <ele>6.91</ele>
        <time>2021-05-23T14:33:48Z</time>
      </trkpt>
      <trkpt lat="46.15271" lon="-1.33333">
        <ele>7.28</ele>
        <time>2021-05-23T14:33:49Z</time>
      </trkpt>
      <trkpt lat="46.1527" lon="-1.33326">
        <ele>7.5</ele>
        <time>2021-05-23T14:33:50Z</time>
      </trkpt>
      <trkpt lat="46.1527" lon="-1.33319">
        <ele>7.82</ele>
        <time>2021-05-23T14:33:51Z</time>
      </trkpt>
      <trkpt lat="46.15269" lon="-1.33312">
        <ele>8.06</ele>
        <time>2021-05-23T14:33:52Z</time>
      </trkpt>
      <trkpt lat="46.15268" lon="-1.33306">
        <ele>8.27</ele>
        <time>2021-05-23T14:33:53Z</time>
      </trkpt>
      <trkpt lat="46.15267" lon="-1.333">
        <ele>8.58</ele>
        <time>2021-05-23T14:33:54Z</time>
      </trkpt>
      <trkpt lat="46.15267" lon="-1.33295">
        <ele>8.9</ele>
        <time>2021-05-23T14:33:55Z</time>
      </trkpt>
      <trkpt lat="46.15266" lon="-1.33289">
        <ele>9.25</ele>
        <time>2021-05-23T14:33:57Z</time>
      </trkpt>
      <trkpt lat="46.15266" lon="-1.33285">
        <ele>9.52</ele>
        <time>2021-05-23T14:33:59Z</time>
      </trkpt>
      <trkpt lat="46.15269" lon="-1.3328">
        <ele>9.87</ele>
        <time>2021-05-23T14:34:01Z</time>
      </trkpt>
      <trkpt lat="46.1528" lon="-1.33278">
        <ele>9.83</ele>
        <time>2021-05-23T14:34:05Z</time>
      </trkpt>
      <trkpt lat="46.15291" lon="-1.33275">
        <ele>9.1</ele>
        <time>2021-05-23T14:34:07Z</time>
      </trkpt>
      <trkpt lat="46.153" lon="-1.3327">
        <ele>8.46</ele>
        <time>2021-05-23T14:34:10Z</time>
      </trkpt>
      <trkpt lat="46.15303" lon="-1.3326">
        <ele>8.24</ele>
        <time>2021-05-23T14:34:12Z</time>
      </trkpt>
      <trkpt lat="46.15297" lon="-1.33256">
        <ele>8.86</ele>
        <time>2021-05-23T14:34:16Z</time>
      </trkpt>
      <trkpt lat="46.1529" lon="-1.33252">
        <ele>9.64</ele>
        <time>2021-05-23T14:34:19Z</time>
      </trkpt>
      <trkpt lat="46.15278" lon="-1.33244">
        <ele>10.98</ele>
        <time>2021-05-23T14:34:24Z</time>
      </trkpt>
      <trkpt lat="46.15268" lon="-1.33236">
        <ele>10.83</ele>
        <time>2021-05-23T14:34:26Z</time>
      </trkpt>
      <trkpt lat="46.15261" lon="-1.33227">
        <ele>10.9</ele>
        <time>2021-05-23T14:34:29Z</time>
      </trkpt>
      <trkpt lat="46.15252" lon="-1.33217">
        <ele>10.64</ele>
        <time>2021-05-23T14:34:31Z</time>
      </trkpt>
      <trkpt lat="46.15242" lon="-1.33207">
        <ele>10.51</ele>
        <time>2021-05-23T14:34:34Z</time>
      </trkpt>
      <trkpt lat="46.15232" lon="-1.332">
        <ele>11.08</ele>
        <time>2021-05-23T14:34:36Z</time>
      </trkpt>
      <trkpt lat="46.15217" lon="-1.33192">
        <ele>12.24</ele>
        <time>2021-05-23T14:34:41Z</time>
      </trkpt>
      <trkpt lat="46.15206" lon="-1.33188">
        <ele>12.55</ele>
        <time>2021-05-23T14:34:46Z</time>
      </trkpt>
      <trkpt lat="46.152" lon="-1.33166">
        <ele>12.19</ele>
        <time>2021-05-23T14:34:54Z</time>
      </trkpt>
      <trkpt lat="46.15197" lon="-1.33148">
        <ele>11.54</ele>
        <time>2021-05-23T14:34:56Z</time>
      </trkpt>
      <trkpt lat="46.15196" lon="-1.3314">
        <ele>11.2</ele>
        <time>2021-05-23T14:34:57Z</time>
      </trkpt>
      <trkpt lat="46.15196" lon="-1.33133">
        <ele>11.18</ele>
        <time>2021-05-23T14:34:58Z</time>
      </trkpt>
      <trkpt lat="46.15195" lon="-1.33124">
        <ele>11.07</ele>
        <time>2021-05-23T14:34:59Z</time>
      </trkpt>
      <trkpt lat="46.15194" lon="-1.33116">
        <ele>10.99</ele>
        <time>2021-05-23T14:35:00Z</time>
      </trkpt>
      <trkpt lat="46.15194" lon="-1.33107">
        <ele>10.54</ele>
        <time>2021-05-23T14:35:01Z</time>
      </trkpt>
      <trkpt lat="46.15193" lon="-1.33099">
        <ele>9.69</ele>
        <time>2021-05-23T14:35:02Z</time>
      </trkpt>
      <trkpt lat="46.15192" lon="-1.3309">
        <ele>8.77</ele>
        <time>2021-05-23T14:35:03Z</time>
      </trkpt>
      <trkpt lat="46.15191" lon="-1.33081">
        <ele>8.13</ele>
        <time>2021-05-23T14:35:04Z</time>
      </trkpt>
      <trkpt lat="46.1519" lon="-1.33072">
        <ele>8.23</ele>
        <time>2021-05-23T14:35:05Z</time>
      </trkpt>
      <trkpt lat="46.15189" lon="-1.33064">
        <ele>8.33</ele>
        <time>2021-05-23T14:35:06Z</time>
      </trkpt>
      <trkpt lat="46.15189" lon="-1.33056">
        <ele>8.39</ele>
        <time>2021-05-23T14:35:07Z</time>
      </trkpt>
      <trkpt lat="46.15188" lon="-1.33047">
        <ele>8.77</ele>
        <time>2021-05-23T14:35:08Z</time>
      </trkpt>
      <trkpt lat="46.15188" lon="-1.33039">
        <ele>9.06</ele>
        <time>2021-05-23T14:35:09Z</time>
      </trkpt>
      <trkpt lat="46.15187" lon="-1.33031">
        <ele>9.42</ele>
        <time>2021-05-23T14:35:10Z</time>
      </trkpt>
      <trkpt lat="46.15187" lon="-1.33022">
        <ele>9.9</ele>
        <time>2021-05-23T14:35:11Z</time>
      </trkpt>
      <trkpt lat="46.15186" lon="-1.33014">
        <ele>10.45</ele>
        <time>2021-05-23T14:35:12Z</time>
      </trkpt>
      <trkpt lat="46.15186" lon="-1.33007">
        <ele>10.88</ele>
        <time>2021-05-23T14:35:13Z</time>
      </trkpt>
      <trkpt lat="46.15185" lon="-1.32999">
        <ele>11.34</ele>
        <time>2021-05-23T14:35:14Z</time>
      </trkpt>
      <trkpt lat="46.15186" lon="-1.32992">
        <ele>11.3</ele>
        <time>2021-05-23T14:35:15Z</time>
      </trkpt>
      <trkpt lat="46.15186" lon="-1.32985">
        <ele>11.3</ele>
        <time>2021-05-23T14:35:16Z</time>
      </trkpt>
      <trkpt lat="46.15187" lon="-1.32978">
        <ele>11.27</ele>
        <time>2021-05-23T14:35:17Z</time>
      </trkpt>
      <trkpt lat="46.15188" lon="-1.3297">
        <ele>11.29</ele>
        <time>2021-05-23T14:35:18Z</time>
      </trkpt>
      <trkpt lat="46.15188" lon="-1.32962">
        <ele>11.51</ele>
        <time>2021-05-23T14:35:19Z</time>
      </trkpt>
      <trkpt lat="46.15188" lon="-1.32954">
        <ele>11.74</ele>
        <time>2021-05-23T14:35:20Z</time>
      </trkpt>
      <trkpt lat="46.15186" lon="-1.32946">
        <ele>11.96</ele>
        <time>2021-05-23T14:35:21Z</time>
      </trkpt>
      <trkpt lat="46.15185" lon="-1.32938">
        <ele>12.15</ele>
        <time>2021-05-23T14:35:22Z</time>
      </trkpt>
      <trkpt lat="46.15184" lon="-1.3293">
        <ele>12.32</ele>
        <time>2021-05-23T14:35:23Z</time>
      </trkpt>
      <trkpt lat="46.15183" lon="-1.32922">
        <ele>12.48</ele>
        <time>2021-05-23T14:35:24Z</time>
      </trkpt>
      <trkpt lat="46.15182" lon="-1.32915">
        <ele>12.49</ele>
        <time>2021-05-23T14:35:25Z</time>
      </trkpt>
      <trkpt lat="46.15181" lon="-1.32907">
        <ele>12.17</ele>
        <time>2021-05-23T14:35:26Z</time>
      </trkpt>
      <trkpt lat="46.15181" lon="-1.32899">
        <ele>11.88</ele>
        <time>2021-05-23T14:35:27Z</time>
      </trkpt>
      <trkpt lat="46.15181" lon="-1.32891">
        <ele>11.59</ele>
        <time>2021-05-23T14:35:28Z</time>
      </trkpt>
      <trkpt lat="46.15181" lon="-1.32882">
        <ele>11.27</ele>
        <time>2021-05-23T14:35:29Z</time>
      </trkpt>
      <trkpt lat="46.1518" lon="-1.32874">
        <ele>10.94</ele>
        <time>2021-05-23T14:35:30Z</time>
      </trkpt>
      <trkpt lat="46.15181" lon="-1.32866">
        <ele>10.69</ele>
        <time>2021-05-23T14:35:31Z</time>
      </trkpt>
      <trkpt lat="46.15181" lon="-1.32858">
        <ele>10.28</ele>
        <time>2021-05-23T14:35:32Z</time>
      </trkpt>
      <trkpt lat="46.15181" lon="-1.3285">
        <ele>9.69</ele>
        <time>2021-05-23T14:35:33Z</time>
      </trkpt>
      <trkpt lat="46.15181" lon="-1.32841">
        <ele>9.02</ele>
        <time>2021-05-23T14:35:34Z</time>
      </trkpt>
      <trkpt lat="46.15182" lon="-1.32833">
        <ele>8.35</ele>
        <time>2021-05-23T14:35:35Z</time>
      </trkpt>
      <trkpt lat="46.15182" lon="-1.32825">
        <ele>8.48</ele>
        <time>2021-05-23T14:35:36Z</time>
      </trkpt>
      <trkpt lat="46.15183" lon="-1.32817">
        <ele>8.48</ele>
        <time>2021-05-23T14:35:37Z</time>
      </trkpt>
      <trkpt lat="46.15184" lon="-1.32808">
        <ele>8.47</ele>
        <time>2021-05-23T14:35:38Z</time>
      </trkpt>
      <trkpt lat="46.15185" lon="-1.328">
        <ele>8.16</ele>
        <time>2021-05-23T14:35:39Z</time>
      </trkpt>
      <trkpt lat="46.15187" lon="-1.32792">
        <ele>7.68</ele>
        <time>2021-05-23T14:35:40Z</time>
      </trkpt>
      <trkpt lat="46.15187" lon="-1.32783">
        <ele>7.42</ele>
        <time>2021-05-23T14:35:41Z</time>
      </trkpt>
      <trkpt lat="46.15188" lon="-1.32775">
        <ele>7.21</ele>
        <time>2021-05-23T14:35:42Z</time>
      </trkpt>
      <trkpt lat="46.15189" lon="-1.32766">
        <ele>7.11</ele>
        <time>2021-05-23T14:35:43Z</time>
      </trkpt>
      <trkpt lat="46.15191" lon="-1.32758">
        <ele>7.04</ele>
        <time>2021-05-23T14:35:44Z</time>
      </trkpt>
      <trkpt lat="46.15192" lon="-1.3275">
        <ele>7</ele>
        <time>2021-05-23T14:35:45Z</time>
      </trkpt>
      <trkpt lat="46.15194" lon="-1.32742">
        <ele>7</ele>
        <time>2021-05-23T14:35:46Z</time>
      </trkpt>
      <trkpt lat="46.15195" lon="-1.32734">
        <ele>7.02</ele>
        <time>2021-05-23T14:35:47Z</time>
      </trkpt>
      <trkpt lat="46.15196" lon="-1.32726">
        <ele>7.06</ele>
        <time>2021-05-23T14:35:48Z</time>
      </trkpt>
      <trkpt lat="46.15197" lon="-1.32717">
        <ele>7.09</ele>
        <time>2021-05-23T14:35:49Z</time>
      </trkpt>
      <trkpt lat="46.15198" lon="-1.32709">
        <ele>7.13</ele>
        <time>2021-05-23T14:35:50Z</time>
      </trkpt>
      <trkpt lat="46.15199" lon="-1.32701">
        <ele>7.16</ele>
        <time>2021-05-23T14:35:51Z</time>
      </trkpt>
      <trkpt lat="46.152" lon="-1.32692">
        <ele>7.15</ele>
        <time>2021-05-23T14:35:52Z</time>
      </trkpt>
      <trkpt lat="46.152" lon="-1.32684">
        <ele>6.97</ele>
        <time>2021-05-23T14:35:53Z</time>
      </trkpt>
      <trkpt lat="46.152" lon="-1.32676">
        <ele>6.8</ele>
        <time>2021-05-23T14:35:54Z</time>
      </trkpt>
      <trkpt lat="46.152" lon="-1.32668">
        <ele>6.63</ele>
        <time>2021-05-23T14:35:55Z</time>
      </trkpt>
      <trkpt lat="46.15201" lon="-1.3266">
        <ele>7.13</ele>
        <time>2021-05-23T14:35:56Z</time>
      </trkpt>
      <trkpt lat="46.15201" lon="-1.32653">
        <ele>7.58</ele>
        <time>2021-05-23T14:35:57Z</time>
      </trkpt>
      <trkpt lat="46.15201" lon="-1.32645">
        <ele>8.08</ele>
        <time>2021-05-23T14:35:58Z</time>
      </trkpt>
      <trkpt lat="46.15202" lon="-1.32638">
        <ele>8.54</ele>
        <time>2021-05-23T14:35:59Z</time>
      </trkpt>
      <trkpt lat="46.15202" lon="-1.3263">
        <ele>8.54</ele>
        <time>2021-05-23T14:36:00Z</time>
      </trkpt>
      <trkpt lat="46.15203" lon="-1.32623">
        <ele>8.62</ele>
        <time>2021-05-23T14:36:01Z</time>
      </trkpt>
      <trkpt lat="46.15203" lon="-1.32615">
        <ele>8.62</ele>
        <time>2021-05-23T14:36:02Z</time>
      </trkpt>
      <trkpt lat="46.15203" lon="-1.32607">
        <ele>8.57</ele>
        <time>2021-05-23T14:36:03Z</time>
      </trkpt>
      <trkpt lat="46.15204" lon="-1.32599">
        <ele>8.54</ele>
        <time>2021-05-23T14:36:04Z</time>
      </trkpt>
      <trkpt lat="46.15204" lon="-1.3259">
        <ele>8.43</ele>
        <time>2021-05-23T14:36:05Z</time>
      </trkpt>
      <trkpt lat="46.15204" lon="-1.32581">
        <ele>8.4</ele>
        <time>2021-05-23T14:36:06Z</time>
      </trkpt>
      <trkpt lat="46.15205" lon="-1.32573">
        <ele>8.61</ele>
        <time>2021-05-23T14:36:07Z</time>
      </trkpt>
      <trkpt lat="46.15205" lon="-1.32564">
        <ele>8.81</ele>
        <time>2021-05-23T14:36:08Z</time>
      </trkpt>
      <trkpt lat="46.15205" lon="-1.32554">
        <ele>9.06</ele>
        <time>2021-05-23T14:36:09Z</time>
      </trkpt>
      <trkpt lat="46.15206" lon="-1.32545">
        <ele>9.38</ele>
        <time>2021-05-23T14:36:10Z</time>
      </trkpt>
      <trkpt lat="46.15206" lon="-1.32535">
        <ele>9.74</ele>
        <time>2021-05-23T14:36:11Z</time>
      </trkpt>
      <trkpt lat="46.15207" lon="-1.32526">
        <ele>10</ele>
        <time>2021-05-23T14:36:12Z</time>
      </trkpt>
      <trkpt lat="46.15208" lon="-1.32517">
        <ele>10</ele>
        <time>2021-05-23T14:36:13Z</time>
      </trkpt>
      <trkpt lat="46.15208" lon="-1.32507">
        <ele>10</ele>
        <time>2021-05-23T14:36:14Z</time>
      </trkpt>
      <trkpt lat="46.1521" lon="-1.32498">
        <ele>9.96</ele>
        <time>2021-05-23T14:36:15Z</time>
      </trkpt>
      <trkpt lat="46.15211" lon="-1.32488">
        <ele>9.74</ele>
        <time>2021-05-23T14:36:16Z</time>
      </trkpt>
      <trkpt lat="46.15212" lon="-1.32479">
        <ele>9.52</ele>
        <time>2021-05-23T14:36:17Z</time>
      </trkpt>
      <trkpt lat="46.15212" lon="-1.32469">
        <ele>9.44</ele>
        <time>2021-05-23T14:36:18Z</time>
      </trkpt>
      <trkpt lat="46.15213" lon="-1.3246">
        <ele>9.63</ele>
        <time>2021-05-23T14:36:19Z</time>
      </trkpt>
      <trkpt lat="46.15214" lon="-1.3245">
        <ele>9.86</ele>
        <time>2021-05-23T14:36:20Z</time>
      </trkpt>
      <trkpt lat="46.15214" lon="-1.32441">
        <ele>10.09</ele>
        <time>2021-05-23T14:36:21Z</time>
      </trkpt>
      <trkpt lat="46.15215" lon="-1.32431">
        <ele>10.36</ele>
        <time>2021-05-23T14:36:22Z</time>
      </trkpt>
      <trkpt lat="46.15216" lon="-1.32421">
        <ele>10.65</ele>
        <time>2021-05-23T14:36:23Z</time>
      </trkpt>
      <trkpt lat="46.15216" lon="-1.32411">
        <ele>10.41</ele>
        <time>2021-05-23T14:36:24Z</time>
      </trkpt>
      <trkpt lat="46.15216" lon="-1.324">
        <ele>9.71</ele>
        <time>2021-05-23T14:36:25Z</time>
      </trkpt>
      <trkpt lat="46.15217" lon="-1.3239">
        <ele>9.07</ele>
        <time>2021-05-23T14:36:26Z</time>
      </trkpt>
      <trkpt lat="46.15217" lon="-1.32379">
        <ele>9.58</ele>
        <time>2021-05-23T14:36:27Z</time>
      </trkpt>
      <trkpt lat="46.15217" lon="-1.32369">
        <ele>10.16</ele>
        <time>2021-05-23T14:36:28Z</time>
      </trkpt>
      <trkpt lat="46.15218" lon="-1.32358">
        <ele>10.68</ele>
        <time>2021-05-23T14:36:29Z</time>
      </trkpt>
      <trkpt lat="46.15218" lon="-1.32348">
        <ele>10.62</ele>
        <time>2021-05-23T14:36:30Z</time>
      </trkpt>
      <trkpt lat="46.15219" lon="-1.32338">
        <ele>10.67</ele>
        <time>2021-05-23T14:36:31Z</time>
      </trkpt>
      <trkpt lat="46.1522" lon="-1.32328">
        <ele>10.98</ele>
        <time>2021-05-23T14:36:32Z</time>
      </trkpt>
      <trkpt lat="46.1522" lon="-1.32318">
        <ele>11.4</ele>
        <time>2021-05-23T14:36:33Z</time>
      </trkpt>
      <trkpt lat="46.15221" lon="-1.32309">
        <ele>11.82</ele>
        <time>2021-05-23T14:36:34Z</time>
      </trkpt>
      <trkpt lat="46.15222" lon="-1.32299">
        <ele>11.52</ele>
        <time>2021-05-23T14:36:35Z</time>
      </trkpt>
      <trkpt lat="46.15223" lon="-1.32289">
        <ele>10.81</ele>
        <time>2021-05-23T14:36:36Z</time>
      </trkpt>
      <trkpt lat="46.15223" lon="-1.32279">
        <ele>10.11</ele>
        <time>2021-05-23T14:36:37Z</time>
      </trkpt>
      <trkpt lat="46.15224" lon="-1.32269">
        <ele>9.75</ele>
        <time>2021-05-23T14:36:38Z</time>
      </trkpt>
      <trkpt lat="46.15224" lon="-1.3226">
        <ele>9.42</ele>
        <time>2021-05-23T14:36:39Z</time>
      </trkpt>
      <trkpt lat="46.15224" lon="-1.3225">
        <ele>9.06</ele>
        <time>2021-05-23T14:36:40Z</time>
      </trkpt>
      <trkpt lat="46.15224" lon="-1.3224">
        <ele>8.77</ele>
        <time>2021-05-23T14:36:41Z</time>
      </trkpt>
      <trkpt lat="46.15224" lon="-1.3223">
        <ele>8.48</ele>
        <time>2021-05-23T14:36:42Z</time>
      </trkpt>
      <trkpt lat="46.15224" lon="-1.3222">
        <ele>8.41</ele>
        <time>2021-05-23T14:36:43Z</time>
      </trkpt>
      <trkpt lat="46.15224" lon="-1.32211">
        <ele>9.01</ele>
        <time>2021-05-23T14:36:44Z</time>
      </trkpt>
      <trkpt lat="46.15224" lon="-1.32201">
        <ele>9.69</ele>
        <time>2021-05-23T14:36:45Z</time>
      </trkpt>
      <trkpt lat="46.15224" lon="-1.32191">
        <ele>10.12</ele>
        <time>2021-05-23T14:36:46Z</time>
      </trkpt>
      <trkpt lat="46.15224" lon="-1.32182">
        <ele>10.1</ele>
        <time>2021-05-23T14:36:47Z</time>
      </trkpt>
      <trkpt lat="46.15224" lon="-1.32172">
        <ele>10.08</ele>
        <time>2021-05-23T14:36:48Z</time>
      </trkpt>
      <trkpt lat="46.15224" lon="-1.32162">
        <ele>10.22</ele>
        <time>2021-05-23T14:36:49Z</time>
      </trkpt>
      <trkpt lat="46.15225" lon="-1.32153">
        <ele>10.54</ele>
        <time>2021-05-23T14:36:50Z</time>
      </trkpt>
      <trkpt lat="46.15225" lon="-1.32144">
        <ele>10.83</ele>
        <time>2021-05-23T14:36:51Z</time>
      </trkpt>
      <trkpt lat="46.15225" lon="-1.32135">
        <ele>11.01</ele>
        <time>2021-05-23T14:36:52Z</time>
      </trkpt>
      <trkpt lat="46.15226" lon="-1.32125">
        <ele>11.07</ele>
        <time>2021-05-23T14:36:53Z</time>
      </trkpt>
      <trkpt lat="46.15226" lon="-1.32117">
        <ele>11.11</ele>
        <time>2021-05-23T14:36:54Z</time>
      </trkpt>
      <trkpt lat="46.15227" lon="-1.32108">
        <ele>11.19</ele>
        <time>2021-05-23T14:36:55Z</time>
      </trkpt>
      <trkpt lat="46.15227" lon="-1.32099">
        <ele>11.25</ele>
        <time>2021-05-23T14:36:56Z</time>
      </trkpt>
      <trkpt lat="46.15227" lon="-1.32091">
        <ele>11.3</ele>
        <time>2021-05-23T14:36:57Z</time>
      </trkpt>
      <trkpt lat="46.15228" lon="-1.32083">
        <ele>11.43</ele>
        <time>2021-05-23T14:36:58Z</time>
      </trkpt>
      <trkpt lat="46.15228" lon="-1.32075">
        <ele>11.72</ele>
        <time>2021-05-23T14:36:59Z</time>
      </trkpt>
      <trkpt lat="46.15228" lon="-1.32068">
        <ele>11.97</ele>
        <time>2021-05-23T14:37:00Z</time>
      </trkpt>
      <trkpt lat="46.15229" lon="-1.32062">
        <ele>12.26</ele>
        <time>2021-05-23T14:37:01Z</time>
      </trkpt>
      <trkpt lat="46.15228" lon="-1.32057">
        <ele>12.36</ele>
        <time>2021-05-23T14:37:02Z</time>
      </trkpt>
      <trkpt lat="46.15228" lon="-1.32052">
        <ele>12.67</ele>
        <time>2021-05-23T14:37:03Z</time>
      </trkpt>
      <trkpt lat="46.15227" lon="-1.32048">
        <ele>12.89</ele>
        <time>2021-05-23T14:37:05Z</time>
      </trkpt>
      <trkpt lat="46.15224" lon="-1.32046">
        <ele>12.82</ele>
        <time>2021-05-23T14:37:16Z</time>
      </trkpt>
      <trkpt lat="46.1522" lon="-1.32043">
        <ele>12.79</ele>
        <time>2021-05-23T14:39:19Z</time>
      </trkpt>
      <trkpt lat="46.15214" lon="-1.32043">
        <ele>12.47</ele>
        <time>2021-05-23T14:39:22Z</time>
      </trkpt>
      <trkpt lat="46.15208" lon="-1.32043">
        <ele>12.16</ele>
        <time>2021-05-23T14:39:24Z</time>
      </trkpt>
      <trkpt lat="46.15201" lon="-1.32041">
        <ele>11.88</ele>
        <time>2021-05-23T14:39:26Z</time>
      </trkpt>
      <trkpt lat="46.15196" lon="-1.32034">
        <ele>11.88</ele>
        <time>2021-05-23T14:39:27Z</time>
      </trkpt>
      <trkpt lat="46.15193" lon="-1.32024">
        <ele>12.1</ele>
        <time>2021-05-23T14:39:28Z</time>
      </trkpt>
      <trkpt lat="46.15188" lon="-1.3201">
        <ele>12.46</ele>
        <time>2021-05-23T14:39:30Z</time>
      </trkpt>
      <trkpt lat="46.15185" lon="-1.32003">
        <ele>12.68</ele>
        <time>2021-05-23T14:39:31Z</time>
      </trkpt>
      <trkpt lat="46.15183" lon="-1.31996">
        <ele>12.91</ele>
        <time>2021-05-23T14:39:32Z</time>
      </trkpt>
      <trkpt lat="46.15181" lon="-1.3199">
        <ele>13.15</ele>
        <time>2021-05-23T14:39:33Z</time>
      </trkpt>
      <trkpt lat="46.15179" lon="-1.31983">
        <ele>13.38</ele>
        <time>2021-05-23T14:39:34Z</time>
      </trkpt>
      <trkpt lat="46.15177" lon="-1.31977">
        <ele>13.56</ele>
        <time>2021-05-23T14:39:35Z</time>
      </trkpt>
      <trkpt lat="46.1517" lon="-1.31971">
        <ele>13.88</ele>
        <time>2021-05-23T14:39:39Z</time>
      </trkpt>
      <trkpt lat="46.1516" lon="-1.31974">
        <ele>13.3</ele>
        <time>2021-05-23T14:39:40Z</time>
      </trkpt>
      <trkpt lat="46.15152" lon="-1.31978">
        <ele>12.53</ele>
        <time>2021-05-23T14:39:41Z</time>
      </trkpt>
      <trkpt lat="46.15144" lon="-1.31982">
        <ele>11.84</ele>
        <time>2021-05-23T14:39:43Z</time>
      </trkpt>
      <trkpt lat="46.15132" lon="-1.31969">
        <ele>10.87</ele>
        <time>2021-05-23T14:39:47Z</time>
      </trkpt>
      <trkpt lat="46.15128" lon="-1.31961">
        <ele>11.01</ele>
        <time>2021-05-23T14:39:48Z</time>
      </trkpt>
      <trkpt lat="46.15125" lon="-1.31954">
        <ele>11.16</ele>
        <time>2021-05-23T14:39:49Z</time>
      </trkpt>
      <trkpt lat="46.15122" lon="-1.31946">
        <ele>11.34</ele>
        <time>2021-05-23T14:39:50Z</time>
      </trkpt>
      <trkpt lat="46.15119" lon="-1.31939">
        <ele>10.95</ele>
        <time>2021-05-23T14:39:51Z</time>
      </trkpt>
      <trkpt lat="46.15116" lon="-1.31931">
        <ele>10.29</ele>
        <time>2021-05-23T14:39:52Z</time>
      </trkpt>
      <trkpt lat="46.15114" lon="-1.31925">
        <ele>9.78</ele>
        <time>2021-05-23T14:39:53Z</time>
      </trkpt>
      <trkpt lat="46.15111" lon="-1.31918">
        <ele>9.1</ele>
        <time>2021-05-23T14:39:54Z</time>
      </trkpt>
      <trkpt lat="46.15108" lon="-1.31912">
        <ele>9.26</ele>
        <time>2021-05-23T14:39:55Z</time>
      </trkpt>
      <trkpt lat="46.15106" lon="-1.31906">
        <ele>9.5</ele>
        <time>2021-05-23T14:39:56Z</time>
      </trkpt>
      <trkpt lat="46.15103" lon="-1.319">
        <ele>9.72</ele>
        <time>2021-05-23T14:39:57Z</time>
      </trkpt>
      <trkpt lat="46.151" lon="-1.31894">
        <ele>9.89</ele>
        <time>2021-05-23T14:39:58Z</time>
      </trkpt>
      <trkpt lat="46.15098" lon="-1.31889">
        <ele>10</ele>
        <time>2021-05-23T14:39:59Z</time>
      </trkpt>
      <trkpt lat="46.15095" lon="-1.31883">
        <ele>10.39</ele>
        <time>2021-05-23T14:40:00Z</time>
      </trkpt>
      <trkpt lat="46.15093" lon="-1.31879">
        <ele>10.6</ele>
        <time>2021-05-23T14:40:01Z</time>
      </trkpt>
      <trkpt lat="46.15091" lon="-1.31876">
        <ele>10.72</ele>
        <time>2021-05-23T14:40:02Z</time>
      </trkpt>
      <trkpt lat="46.15089" lon="-1.31872">
        <ele>10.86</ele>
        <time>2021-05-23T14:40:03Z</time>
      </trkpt>
      <trkpt lat="46.15086" lon="-1.3187">
        <ele>10.81</ele>
        <time>2021-05-23T14:40:04Z</time>
      </trkpt>
      <trkpt lat="46.15083" lon="-1.31869">
        <ele>10.73</ele>
        <time>2021-05-23T14:40:05Z</time>
      </trkpt>
      <trkpt lat="46.15081" lon="-1.31869">
        <ele>10.85</ele>
        <time>2021-05-23T14:40:06Z</time>
      </trkpt>
      <trkpt lat="46.15075" lon="-1.3187">
        <ele>11.17</ele>
        <time>2021-05-23T14:40:10Z</time>
      </trkpt>
      <trkpt lat="46.15066" lon="-1.31862">
        <ele>11.63</ele>
        <time>2021-05-23T14:40:11Z</time>
      </trkpt>
      <trkpt lat="46.15061" lon="-1.31843">
        <ele>11.01</ele>
        <time>2021-05-23T14:40:12Z</time>
      </trkpt>
      <trkpt lat="46.15058" lon="-1.31835">
        <ele>10.36</ele>
        <time>2021-05-23T14:40:13Z</time>
      </trkpt>
      <trkpt lat="46.15056" lon="-1.31827">
        <ele>10.04</ele>
        <time>2021-05-23T14:40:14Z</time>
      </trkpt>
      <trkpt lat="46.15054" lon="-1.31819">
        <ele>10.08</ele>
        <time>2021-05-23T14:40:15Z</time>
      </trkpt>
      <trkpt lat="46.15051" lon="-1.31811">
        <ele>10.2</ele>
        <time>2021-05-23T14:40:16Z</time>
      </trkpt>
      <trkpt lat="46.15049" lon="-1.31803">
        <ele>10.14</ele>
        <time>2021-05-23T14:40:17Z</time>
      </trkpt>
      <trkpt lat="46.15046" lon="-1.31795">
        <ele>9.96</ele>
        <time>2021-05-23T14:40:18Z</time>
      </trkpt>
      <trkpt lat="46.15044" lon="-1.31787">
        <ele>9.75</ele>
        <time>2021-05-23T14:40:19Z</time>
      </trkpt>
      <trkpt lat="46.15041" lon="-1.3178">
        <ele>9.6</ele>
        <time>2021-05-23T14:40:20Z</time>
      </trkpt>
      <trkpt lat="46.15038" lon="-1.31772">
        <ele>9.42</ele>
        <time>2021-05-23T14:40:21Z</time>
      </trkpt>
      <trkpt lat="46.15036" lon="-1.31765">
        <ele>9.24</ele>
        <time>2021-05-23T14:40:22Z</time>
      </trkpt>
      <trkpt lat="46.15033" lon="-1.31757">
        <ele>9.06</ele>
        <time>2021-05-23T14:40:23Z</time>
      </trkpt>
      <trkpt lat="46.15031" lon="-1.31749">
        <ele>8.88</ele>
        <time>2021-05-23T14:40:24Z</time>
      </trkpt>
      <trkpt lat="46.15029" lon="-1.31742">
        <ele>8.96</ele>
        <time>2021-05-23T14:40:25Z</time>
      </trkpt>
      <trkpt lat="46.15027" lon="-1.31734">
        <ele>9.06</ele>
        <time>2021-05-23T14:40:26Z</time>
      </trkpt>
      <trkpt lat="46.15025" lon="-1.31727">
        <ele>9.15</ele>
        <time>2021-05-23T14:40:27Z</time>
      </trkpt>
      <trkpt lat="46.15023" lon="-1.31719">
        <ele>9.11</ele>
        <time>2021-05-23T14:40:28Z</time>
      </trkpt>
      <trkpt lat="46.15021" lon="-1.31712">
        <ele>8.97</ele>
        <time>2021-05-23T14:40:29Z</time>
      </trkpt>
      <trkpt lat="46.15019" lon="-1.31704">
        <ele>8.69</ele>
        <time>2021-05-23T14:40:30Z</time>
      </trkpt>
      <trkpt lat="46.15017" lon="-1.31697">
        <ele>8.33</ele>
        <time>2021-05-23T14:40:31Z</time>
      </trkpt>
      <trkpt lat="46.15015" lon="-1.3169">
        <ele>8.08</ele>
        <time>2021-05-23T14:40:32Z</time>
      </trkpt>
      <trkpt lat="46.15013" lon="-1.31683">
        <ele>7.94</ele>
        <time>2021-05-23T14:40:33Z</time>
      </trkpt>
      <trkpt lat="46.15011" lon="-1.31676">
        <ele>7.79</ele>
        <time>2021-05-23T14:40:34Z</time>
      </trkpt>
      <trkpt lat="46.15009" lon="-1.31669">
        <ele>7.65</ele>
        <time>2021-05-23T14:40:35Z</time>
      </trkpt>
      <trkpt lat="46.15008" lon="-1.31663">
        <ele>7.71</ele>
        <time>2021-05-23T14:40:36Z</time>
      </trkpt>
      <trkpt lat="46.15006" lon="-1.31658">
        <ele>7.74</ele>
        <time>2021-05-23T14:40:37Z</time>
      </trkpt>
      <trkpt lat="46.15005" lon="-1.31653">
        <ele>7.85</ele>
        <time>2021-05-23T14:40:38Z</time>
      </trkpt>
      <trkpt lat="46.15004" lon="-1.31649">
        <ele>7.92</ele>
        <time>2021-05-23T14:40:39Z</time>
      </trkpt>
      <trkpt lat="46.15002" lon="-1.31646">
        <ele>7.89</ele>
        <time>2021-05-23T14:40:40Z</time>
      </trkpt>
      <trkpt lat="46.14998" lon="-1.31645">
        <ele>7.72</ele>
        <time>2021-05-23T14:40:42Z</time>
      </trkpt>
      <trkpt lat="46.14991" lon="-1.31648">
        <ele>7.45</ele>
        <time>2021-05-23T14:40:45Z</time>
      </trkpt>
      <trkpt lat="46.14976" lon="-1.31652">
        <ele>7.07</ele>
        <time>2021-05-23T14:40:50Z</time>
      </trkpt>
      <trkpt lat="46.14953" lon="-1.31657">
        <ele>8.62</ele>
        <time>2021-05-23T14:40:52Z</time>
      </trkpt>
      <trkpt lat="46.14942" lon="-1.3166">
        <ele>9.35</ele>
        <time>2021-05-23T14:40:54Z</time>
      </trkpt>
      <trkpt lat="46.14936" lon="-1.31662">
        <ele>9.52</ele>
        <time>2021-05-23T14:40:55Z</time>
      </trkpt>
      <trkpt lat="46.1493" lon="-1.31665">
        <ele>9.61</ele>
        <time>2021-05-23T14:40:56Z</time>
      </trkpt>
      <trkpt lat="46.14925" lon="-1.31669">
        <ele>9.64</ele>
        <time>2021-05-23T14:40:57Z</time>
      </trkpt>
      <trkpt lat="46.14919" lon="-1.31672">
        <ele>9.74</ele>
        <time>2021-05-23T14:40:58Z</time>
      </trkpt>
      <trkpt lat="46.14914" lon="-1.31675">
        <ele>9.7</ele>
        <time>2021-05-23T14:40:59Z</time>
      </trkpt>
      <trkpt lat="46.14908" lon="-1.31679">
        <ele>9.56</ele>
        <time>2021-05-23T14:41:00Z</time>
      </trkpt>
      <trkpt lat="46.14902" lon="-1.31682">
        <ele>9.45</ele>
        <time>2021-05-23T14:41:01Z</time>
      </trkpt>
      <trkpt lat="46.14897" lon="-1.31684">
        <ele>9.38</ele>
        <time>2021-05-23T14:41:02Z</time>
      </trkpt>
      <trkpt lat="46.14891" lon="-1.31687">
        <ele>9.27</ele>
        <time>2021-05-23T14:41:03Z</time>
      </trkpt>
      <trkpt lat="46.14885" lon="-1.3169">
        <ele>9</ele>
        <time>2021-05-23T14:41:04Z</time>
      </trkpt>
      <trkpt lat="46.14879" lon="-1.31693">
        <ele>8.68</ele>
        <time>2021-05-23T14:41:05Z</time>
      </trkpt>
      <trkpt lat="46.14873" lon="-1.31695">
        <ele>8.44</ele>
        <time>2021-05-23T14:41:06Z</time>
      </trkpt>
      <trkpt lat="46.14867" lon="-1.31697">
        <ele>8.28</ele>
        <time>2021-05-23T14:41:07Z</time>
      </trkpt>
      <trkpt lat="46.14861" lon="-1.31699">
        <ele>8.16</ele>
        <time>2021-05-23T14:41:08Z</time>
      </trkpt>
      <trkpt lat="46.14855" lon="-1.317">
        <ele>8.24</ele>
        <time>2021-05-23T14:41:09Z</time>
      </trkpt>
      <trkpt lat="46.14848" lon="-1.317">
        <ele>8.29</ele>
        <time>2021-05-23T14:41:10Z</time>
      </trkpt>
      <trkpt lat="46.14841" lon="-1.31701">
        <ele>8.41</ele>
        <time>2021-05-23T14:41:11Z</time>
      </trkpt>
      <trkpt lat="46.14834" lon="-1.31701">
        <ele>8.47</ele>
        <time>2021-05-23T14:41:12Z</time>
      </trkpt>
      <trkpt lat="46.14827" lon="-1.31701">
        <ele>8.19</ele>
        <time>2021-05-23T14:41:13Z</time>
      </trkpt>
      <trkpt lat="46.14819" lon="-1.31702">
        <ele>7.89</ele>
        <time>2021-05-23T14:41:14Z</time>
      </trkpt>
      <trkpt lat="46.14812" lon="-1.31702">
        <ele>7.57</ele>
        <time>2021-05-23T14:41:15Z</time>
      </trkpt>
      <trkpt lat="46.14804" lon="-1.31703">
        <ele>7.38</ele>
        <time>2021-05-23T14:41:16Z</time>
      </trkpt>
      <trkpt lat="46.14797" lon="-1.31704">
        <ele>7.76</ele>
        <time>2021-05-23T14:41:17Z</time>
      </trkpt>
      <trkpt lat="46.1479" lon="-1.31704">
        <ele>8.1</ele>
        <time>2021-05-23T14:41:18Z</time>
      </trkpt>
      <trkpt lat="46.14782" lon="-1.31705">
        <ele>8.55</ele>
        <time>2021-05-23T14:41:19Z</time>
      </trkpt>
      <trkpt lat="46.14775" lon="-1.31706">
        <ele>9.03</ele>
        <time>2021-05-23T14:41:20Z</time>
      </trkpt>
      <trkpt lat="46.14768" lon="-1.31706">
        <ele>9.54</ele>
        <time>2021-05-23T14:41:21Z</time>
      </trkpt>
      <trkpt lat="46.14761" lon="-1.31707">
        <ele>10.11</ele>
        <time>2021-05-23T14:41:22Z</time>
      </trkpt>
      <trkpt lat="46.14754" lon="-1.31708">
        <ele>10.69</ele>
        <time>2021-05-23T14:41:23Z</time>
      </trkpt>
      <trkpt lat="46.14746" lon="-1.31709">
        <ele>11.26</ele>
        <time>2021-05-23T14:41:24Z</time>
      </trkpt>
      <trkpt lat="46.14739" lon="-1.31709">
        <ele>11.63</ele>
        <time>2021-05-23T14:41:25Z</time>
      </trkpt>
      <trkpt lat="46.14732" lon="-1.3171">
        <ele>12.05</ele>
        <time>2021-05-23T14:41:26Z</time>
      </trkpt>
      <trkpt lat="46.14725" lon="-1.3171">
        <ele>12.42</ele>
        <time>2021-05-23T14:41:27Z</time>
      </trkpt>
      <trkpt lat="46.14718" lon="-1.3171">
        <ele>12.58</ele>
        <time>2021-05-23T14:41:28Z</time>
      </trkpt>
      <trkpt lat="46.14712" lon="-1.3171">
        <ele>12.6</ele>
        <time>2021-05-23T14:41:29Z</time>
      </trkpt>
      <trkpt lat="46.14705" lon="-1.31709">
        <ele>12.55</ele>
        <time>2021-05-23T14:41:30Z</time>
      </trkpt>
      <trkpt lat="46.14698" lon="-1.31708">
        <ele>12.47</ele>
        <time>2021-05-23T14:41:31Z</time>
      </trkpt>
      <trkpt lat="46.14691" lon="-1.31708">
        <ele>12.04</ele>
        <time>2021-05-23T14:41:32Z</time>
      </trkpt>
      <trkpt lat="46.14684" lon="-1.31707">
        <ele>11.13</ele>
        <time>2021-05-23T14:41:33Z</time>
      </trkpt>
      <trkpt lat="46.14677" lon="-1.31707">
        <ele>10.31</ele>
        <time>2021-05-23T14:41:34Z</time>
      </trkpt>
      <trkpt lat="46.1467" lon="-1.31707">
        <ele>9.49</ele>
        <time>2021-05-23T14:41:35Z</time>
      </trkpt>
      <trkpt lat="46.14663" lon="-1.31708">
        <ele>8.89</ele>
        <time>2021-05-23T14:41:36Z</time>
      </trkpt>
      <trkpt lat="46.14656" lon="-1.31708">
        <ele>8.62</ele>
        <time>2021-05-23T14:41:37Z</time>
      </trkpt>
      <trkpt lat="46.14648" lon="-1.31709">
        <ele>8.34</ele>
        <time>2021-05-23T14:41:38Z</time>
      </trkpt>
      <trkpt lat="46.14642" lon="-1.31709">
        <ele>8.15</ele>
        <time>2021-05-23T14:41:39Z</time>
      </trkpt>
      <trkpt lat="46.14635" lon="-1.31709">
        <ele>7.97</ele>
        <time>2021-05-23T14:41:40Z</time>
      </trkpt>
      <trkpt lat="46.14628" lon="-1.31709">
        <ele>7.84</ele>
        <time>2021-05-23T14:41:41Z</time>
      </trkpt>
      <trkpt lat="46.14621" lon="-1.31709">
        <ele>7.71</ele>
        <time>2021-05-23T14:41:42Z</time>
      </trkpt>
      <trkpt lat="46.14614" lon="-1.31709">
        <ele>7.58</ele>
        <time>2021-05-23T14:41:43Z</time>
      </trkpt>
      <trkpt lat="46.14607" lon="-1.31708">
        <ele>7.34</ele>
        <time>2021-05-23T14:41:44Z</time>
      </trkpt>
      <trkpt lat="46.146" lon="-1.31708">
        <ele>7.1</ele>
        <time>2021-05-23T14:41:45Z</time>
      </trkpt>
      <trkpt lat="46.14594" lon="-1.31707">
        <ele>6.9</ele>
        <time>2021-05-23T14:41:46Z</time>
      </trkpt>
      <trkpt lat="46.14587" lon="-1.31706">
        <ele>6.69</ele>
        <time>2021-05-23T14:41:47Z</time>
      </trkpt>
      <trkpt lat="46.14581" lon="-1.31706">
        <ele>6.67</ele>
        <time>2021-05-23T14:41:48Z</time>
      </trkpt>
      <trkpt lat="46.14575" lon="-1.31705">
        <ele>6.92</ele>
        <time>2021-05-23T14:41:49Z</time>
      </trkpt>
      <trkpt lat="46.1457" lon="-1.31705">
        <ele>7.1</ele>
        <time>2021-05-23T14:41:50Z</time>
      </trkpt>
      <trkpt lat="46.14565" lon="-1.31704">
        <ele>7.32</ele>
        <time>2021-05-23T14:41:51Z</time>
      </trkpt>
      <trkpt lat="46.1456" lon="-1.31704">
        <ele>7.5</ele>
        <time>2021-05-23T14:41:52Z</time>
      </trkpt>
      <trkpt lat="46.14556" lon="-1.31703">
        <ele>7.68</ele>
        <time>2021-05-23T14:41:53Z</time>
      </trkpt>
      <trkpt lat="46.14553" lon="-1.31702">
        <ele>7.73</ele>
        <time>2021-05-23T14:41:54Z</time>
      </trkpt>
      <trkpt lat="46.14551" lon="-1.31704">
        <ele>7.66</ele>
        <time>2021-05-23T14:48:36Z</time>
      </trkpt>
      <trkpt lat="46.14554" lon="-1.31711">
        <ele>7.4</ele>
        <time>2021-05-23T14:48:40Z</time>
      </trkpt>
      <trkpt lat="46.14558" lon="-1.3173">
        <ele>6.91</ele>
        <time>2021-05-23T14:48:42Z</time>
      </trkpt>
      <trkpt lat="46.1456" lon="-1.31741">
        <ele>6.84</ele>
        <time>2021-05-23T14:48:43Z</time>
      </trkpt>
      <trkpt lat="46.14562" lon="-1.3175">
        <ele>6.77</ele>
        <time>2021-05-23T14:48:44Z</time>
      </trkpt>
      <trkpt lat="46.14563" lon="-1.31759">
        <ele>7.14</ele>
        <time>2021-05-23T14:48:45Z</time>
      </trkpt>
      <trkpt lat="46.14565" lon="-1.31769">
        <ele>7.58</ele>
        <time>2021-05-23T14:48:46Z</time>
      </trkpt>
      <trkpt lat="46.14567" lon="-1.31779">
        <ele>8.03</ele>
        <time>2021-05-23T14:48:47Z</time>
      </trkpt>
      <trkpt lat="46.14569" lon="-1.31788">
        <ele>8.19</ele>
        <time>2021-05-23T14:48:48Z</time>
      </trkpt>
      <trkpt lat="46.14571" lon="-1.31798">
        <ele>8.32</ele>
        <time>2021-05-23T14:48:49Z</time>
      </trkpt>
      <trkpt lat="46.14573" lon="-1.31807">
        <ele>8.41</ele>
        <time>2021-05-23T14:48:50Z</time>
      </trkpt>
      <trkpt lat="46.14576" lon="-1.31817">
        <ele>8.48</ele>
        <time>2021-05-23T14:48:51Z</time>
      </trkpt>
      <trkpt lat="46.14578" lon="-1.31826">
        <ele>8.47</ele>
        <time>2021-05-23T14:48:52Z</time>
      </trkpt>
      <trkpt lat="46.1458" lon="-1.31835">
        <ele>8.41</ele>
        <time>2021-05-23T14:48:53Z</time>
      </trkpt>
      <trkpt lat="46.14582" lon="-1.31843">
        <ele>8.48</ele>
        <time>2021-05-23T14:48:54Z</time>
      </trkpt>
      <trkpt lat="46.14583" lon="-1.31852">
        <ele>8.7</ele>
        <time>2021-05-23T14:48:55Z</time>
      </trkpt>
      <trkpt lat="46.14584" lon="-1.3186">
        <ele>8.96</ele>
        <time>2021-05-23T14:48:56Z</time>
      </trkpt>
      <trkpt lat="46.14583" lon="-1.31867">
        <ele>9.02</ele>
        <time>2021-05-23T14:48:57Z</time>
      </trkpt>
      <trkpt lat="46.14582" lon="-1.31873">
        <ele>9.08</ele>
        <time>2021-05-23T14:48:58Z</time>
      </trkpt>
      <trkpt lat="46.14579" lon="-1.31876">
        <ele>9.23</ele>
        <time>2021-05-23T14:48:59Z</time>
      </trkpt>
      <trkpt lat="46.14576" lon="-1.31879">
        <ele>9.36</ele>
        <time>2021-05-23T14:49:00Z</time>
      </trkpt>
      <trkpt lat="46.14572" lon="-1.31882">
        <ele>9.51</ele>
        <time>2021-05-23T14:49:01Z</time>
      </trkpt>
      <trkpt lat="46.14568" lon="-1.31883">
        <ele>9.67</ele>
        <time>2021-05-23T14:49:02Z</time>
      </trkpt>
      <trkpt lat="46.14564" lon="-1.31885">
        <ele>9.79</ele>
        <time>2021-05-23T14:49:03Z</time>
      </trkpt>
      <trkpt lat="46.14559" lon="-1.31887">
        <ele>9.94</ele>
        <time>2021-05-23T14:49:04Z</time>
      </trkpt>
      <trkpt lat="46.14554" lon="-1.31889">
        <ele>9.88</ele>
        <time>2021-05-23T14:49:05Z</time>
      </trkpt>
      <trkpt lat="46.14552" lon="-1.31892">
        <ele>9.56</ele>
        <time>2021-05-23T14:49:06Z</time>
      </trkpt>
      <trkpt lat="46.14551" lon="-1.31912">
        <ele>8.42</ele>
        <time>2021-05-23T14:49:10Z</time>
      </trkpt>
      <trkpt lat="46.14557" lon="-1.31922">
        <ele>8.01</ele>
        <time>2021-05-23T14:49:11Z</time>
      </trkpt>
      <trkpt lat="46.14561" lon="-1.31928">
        <ele>8.08</ele>
        <time>2021-05-23T14:49:12Z</time>
      </trkpt>
      <trkpt lat="46.14565" lon="-1.31935">
        <ele>8.22</ele>
        <time>2021-05-23T14:49:13Z</time>
      </trkpt>
      <trkpt lat="46.14568" lon="-1.31944">
        <ele>8.44</ele>
        <time>2021-05-23T14:49:14Z</time>
      </trkpt>
      <trkpt lat="46.14571" lon="-1.31953">
        <ele>8.52</ele>
        <time>2021-05-23T14:49:15Z</time>
      </trkpt>
      <trkpt lat="46.14574" lon="-1.31962">
        <ele>8.46</ele>
        <time>2021-05-23T14:49:16Z</time>
      </trkpt>
      <trkpt lat="46.14578" lon="-1.31971">
        <ele>8.22</ele>
        <time>2021-05-23T14:49:17Z</time>
      </trkpt>
      <trkpt lat="46.14581" lon="-1.3198">
        <ele>8.83</ele>
        <time>2021-05-23T14:49:18Z</time>
      </trkpt>
      <trkpt lat="46.14584" lon="-1.31988">
        <ele>9.74</ele>
        <time>2021-05-23T14:49:19Z</time>
      </trkpt>
      <trkpt lat="46.14587" lon="-1.31997">
        <ele>10.72</ele>
        <time>2021-05-23T14:49:20Z</time>
      </trkpt>
      <trkpt lat="46.1459" lon="-1.32005">
        <ele>11.14</ele>
        <time>2021-05-23T14:49:21Z</time>
      </trkpt>
      <trkpt lat="46.14593" lon="-1.32013">
        <ele>11.31</ele>
        <time>2021-05-23T14:49:22Z</time>
      </trkpt>
      <trkpt lat="46.14596" lon="-1.3202">
        <ele>11.39</ele>
        <time>2021-05-23T14:49:23Z</time>
      </trkpt>
      <trkpt lat="46.14599" lon="-1.32027">
        <ele>11.42</ele>
        <time>2021-05-23T14:49:24Z</time>
      </trkpt>
      <trkpt lat="46.14602" lon="-1.32034">
        <ele>11.55</ele>
        <time>2021-05-23T14:49:25Z</time>
      </trkpt>
      <trkpt lat="46.14605" lon="-1.32043">
        <ele>11.77</ele>
        <time>2021-05-23T14:49:26Z</time>
      </trkpt>
      <trkpt lat="46.14609" lon="-1.32052">
        <ele>11.95</ele>
        <time>2021-05-23T14:49:27Z</time>
      </trkpt>
      <trkpt lat="46.14611" lon="-1.32062">
        <ele>12</ele>
        <time>2021-05-23T14:49:28Z</time>
      </trkpt>
      <trkpt lat="46.14613" lon="-1.32072">
        <ele>12.07</ele>
        <time>2021-05-23T14:49:29Z</time>
      </trkpt>
      <trkpt lat="46.14615" lon="-1.32083">
        <ele>12.14</ele>
        <time>2021-05-23T14:49:30Z</time>
      </trkpt>
      <trkpt lat="46.14616" lon="-1.32093">
        <ele>12.46</ele>
        <time>2021-05-23T14:49:31Z</time>
      </trkpt>
      <trkpt lat="46.14617" lon="-1.32103">
        <ele>12.77</ele>
        <time>2021-05-23T14:49:32Z</time>
      </trkpt>
      <trkpt lat="46.14617" lon="-1.32113">
        <ele>12.92</ele>
        <time>2021-05-23T14:49:33Z</time>
      </trkpt>
      <trkpt lat="46.14618" lon="-1.32124">
        <ele>12.42</ele>
        <time>2021-05-23T14:49:34Z</time>
      </trkpt>
      <trkpt lat="46.14619" lon="-1.32134">
        <ele>11.94</ele>
        <time>2021-05-23T14:49:35Z</time>
      </trkpt>
      <trkpt lat="46.1462" lon="-1.32145">
        <ele>11.31</ele>
        <time>2021-05-23T14:49:36Z</time>
      </trkpt>
      <trkpt lat="46.14621" lon="-1.32154">
        <ele>10.75</ele>
        <time>2021-05-23T14:49:37Z</time>
      </trkpt>
      <trkpt lat="46.14622" lon="-1.32164">
        <ele>10.15</ele>
        <time>2021-05-23T14:49:38Z</time>
      </trkpt>
      <trkpt lat="46.14623" lon="-1.32174">
        <ele>9.85</ele>
        <time>2021-05-23T14:49:39Z</time>
      </trkpt>
      <trkpt lat="46.14624" lon="-1.32184">
        <ele>9.67</ele>
        <time>2021-05-23T14:49:40Z</time>
      </trkpt>
      <trkpt lat="46.14626" lon="-1.32193">
        <ele>9.56</ele>
        <time>2021-05-23T14:49:41Z</time>
      </trkpt>
      <trkpt lat="46.14627" lon="-1.32203">
        <ele>9.44</ele>
        <time>2021-05-23T14:49:42Z</time>
      </trkpt>
      <trkpt lat="46.14628" lon="-1.32211">
        <ele>9.37</ele>
        <time>2021-05-23T14:49:43Z</time>
      </trkpt>
      <trkpt lat="46.14629" lon="-1.32221">
        <ele>9.3</ele>
        <time>2021-05-23T14:49:44Z</time>
      </trkpt>
      <trkpt lat="46.1463" lon="-1.3223">
        <ele>9.08</ele>
        <time>2021-05-23T14:49:45Z</time>
      </trkpt>
      <trkpt lat="46.14631" lon="-1.3224">
        <ele>8.79</ele>
        <time>2021-05-23T14:49:46Z</time>
      </trkpt>
      <trkpt lat="46.14632" lon="-1.3225">
        <ele>8.5</ele>
        <time>2021-05-23T14:49:47Z</time>
      </trkpt>
      <trkpt lat="46.14632" lon="-1.32259">
        <ele>8.26</ele>
        <time>2021-05-23T14:49:48Z</time>
      </trkpt>
      <trkpt lat="46.14633" lon="-1.32269">
        <ele>8.04</ele>
        <time>2021-05-23T14:49:49Z</time>
      </trkpt>
      <trkpt lat="46.14634" lon="-1.32278">
        <ele>7.82</ele>
        <time>2021-05-23T14:49:50Z</time>
      </trkpt>
      <trkpt lat="46.14636" lon="-1.32287">
        <ele>7.6</ele>
        <time>2021-05-23T14:49:51Z</time>
      </trkpt>
      <trkpt lat="46.14639" lon="-1.32295">
        <ele>7.38</ele>
        <time>2021-05-23T14:49:52Z</time>
      </trkpt>
      <trkpt lat="46.14642" lon="-1.32303">
        <ele>6.98</ele>
        <time>2021-05-23T14:49:53Z</time>
      </trkpt>
      <trkpt lat="46.14645" lon="-1.32311">
        <ele>6.78</ele>
        <time>2021-05-23T14:49:54Z</time>
      </trkpt>
      <trkpt lat="46.14648" lon="-1.32319">
        <ele>6.67</ele>
        <time>2021-05-23T14:49:55Z</time>
      </trkpt>
      <trkpt lat="46.14651" lon="-1.32327">
        <ele>6.56</ele>
        <time>2021-05-23T14:49:56Z</time>
      </trkpt>
      <trkpt lat="46.14654" lon="-1.32335">
        <ele>6.48</ele>
        <time>2021-05-23T14:49:57Z</time>
      </trkpt>
      <trkpt lat="46.14656" lon="-1.32342">
        <ele>6.5</ele>
        <time>2021-05-23T14:49:58Z</time>
      </trkpt>
      <trkpt lat="46.14659" lon="-1.32349">
        <ele>6.43</ele>
        <time>2021-05-23T14:49:59Z</time>
      </trkpt>
      <trkpt lat="46.14661" lon="-1.32354">
        <ele>6.36</ele>
        <time>2021-05-23T14:50:00Z</time>
      </trkpt>
      <trkpt lat="46.14663" lon="-1.32359">
        <ele>6.25</ele>
        <time>2021-05-23T14:50:01Z</time>
      </trkpt>
      <trkpt lat="46.14664" lon="-1.32363">
        <ele>6.32</ele>
        <time>2021-05-23T14:50:02Z</time>
      </trkpt>
      <trkpt lat="46.14665" lon="-1.32367">
        <ele>6.53</ele>
        <time>2021-05-23T14:50:03Z</time>
      </trkpt>
      <trkpt lat="46.14667" lon="-1.3237">
        <ele>6.66</ele>
        <time>2021-05-23T14:50:04Z</time>
      </trkpt>
      <trkpt lat="46.14669" lon="-1.32375">
        <ele>7.08</ele>
        <time>2021-05-23T14:50:06Z</time>
      </trkpt>
      <trkpt lat="46.14671" lon="-1.32379">
        <ele>7.4</ele>
        <time>2021-05-23T14:50:08Z</time>
      </trkpt>
      <trkpt lat="46.14673" lon="-1.32382">
        <ele>7.62</ele>
        <time>2021-05-23T14:50:11Z</time>
      </trkpt>
      <trkpt lat="46.14676" lon="-1.32384">
        <ele>7.77</ele>
        <time>2021-05-23T14:50:15Z</time>
      </trkpt>
      <trkpt lat="46.14681" lon="-1.32387">
        <ele>7.93</ele>
        <time>2021-05-23T14:50:17Z</time>
      </trkpt>
      <trkpt lat="46.14691" lon="-1.32385">
        <ele>7.97</ele>
        <time>2021-05-23T14:50:18Z</time>
      </trkpt>
      <trkpt lat="46.14696" lon="-1.32383">
        <ele>7.9</ele>
        <time>2021-05-23T14:50:19Z</time>
      </trkpt>
      <trkpt lat="46.14702" lon="-1.32381">
        <ele>7.53</ele>
        <time>2021-05-23T14:50:20Z</time>
      </trkpt>
      <trkpt lat="46.14707" lon="-1.32378">
        <ele>7.27</ele>
        <time>2021-05-23T14:50:21Z</time>
      </trkpt>
      <trkpt lat="46.14713" lon="-1.32374">
        <ele>7.02</ele>
        <time>2021-05-23T14:50:22Z</time>
      </trkpt>
      <trkpt lat="46.14719" lon="-1.32369">
        <ele>6.86</ele>
        <time>2021-05-23T14:50:23Z</time>
      </trkpt>
      <trkpt lat="46.14724" lon="-1.32364">
        <ele>6.9</ele>
        <time>2021-05-23T14:50:24Z</time>
      </trkpt>
      <trkpt lat="46.1473" lon="-1.32358">
        <ele>7</ele>
        <time>2021-05-23T14:50:25Z</time>
      </trkpt>
      <trkpt lat="46.14736" lon="-1.32353">
        <ele>7</ele>
        <time>2021-05-23T14:50:26Z</time>
      </trkpt>
      <trkpt lat="46.14741" lon="-1.32347">
        <ele>7</ele>
        <time>2021-05-23T14:50:27Z</time>
      </trkpt>
      <trkpt lat="46.14747" lon="-1.32343">
        <ele>7</ele>
        <time>2021-05-23T14:50:28Z</time>
      </trkpt>
      <trkpt lat="46.14752" lon="-1.32339">
        <ele>6.99</ele>
        <time>2021-05-23T14:50:29Z</time>
      </trkpt>
      <trkpt lat="46.14757" lon="-1.32336">
        <ele>6.98</ele>
        <time>2021-05-23T14:50:30Z</time>
      </trkpt>
      <trkpt lat="46.14762" lon="-1.32332">
        <ele>7</ele>
        <time>2021-05-23T14:50:31Z</time>
      </trkpt>
      <trkpt lat="46.14768" lon="-1.32329">
        <ele>7</ele>
        <time>2021-05-23T14:50:32Z</time>
      </trkpt>
      <trkpt lat="46.14774" lon="-1.32325">
        <ele>7</ele>
        <time>2021-05-23T14:50:33Z</time>
      </trkpt>
      <trkpt lat="46.1478" lon="-1.32321">
        <ele>7</ele>
        <time>2021-05-23T14:50:34Z</time>
      </trkpt>
      <trkpt lat="46.14787" lon="-1.32316">
        <ele>7</ele>
        <time>2021-05-23T14:50:35Z</time>
      </trkpt>
      <trkpt lat="46.14793" lon="-1.32312">
        <ele>7</ele>
        <time>2021-05-23T14:50:36Z</time>
      </trkpt>
      <trkpt lat="46.14799" lon="-1.32308">
        <ele>7</ele>
        <time>2021-05-23T14:50:37Z</time>
      </trkpt>
      <trkpt lat="46.14804" lon="-1.32304">
        <ele>6.94</ele>
        <time>2021-05-23T14:50:38Z</time>
      </trkpt>
      <trkpt lat="46.14809" lon="-1.32301">
        <ele>6.75</ele>
        <time>2021-05-23T14:50:39Z</time>
      </trkpt>
      <trkpt lat="46.14813" lon="-1.32299">
        <ele>6.62</ele>
        <time>2021-05-23T14:50:40Z</time>
      </trkpt>
      <trkpt lat="46.14816" lon="-1.32298">
        <ele>6.56</ele>
        <time>2021-05-23T14:50:41Z</time>
      </trkpt>
      <trkpt lat="46.14819" lon="-1.32298">
        <ele>6.51</ele>
        <time>2021-05-23T14:50:42Z</time>
      </trkpt>
      <trkpt lat="46.14823" lon="-1.32304">
        <ele>6.39</ele>
        <time>2021-05-23T14:50:44Z</time>
      </trkpt>
      <trkpt lat="46.14824" lon="-1.3231">
        <ele>6.34</ele>
        <time>2021-05-23T14:50:45Z</time>
      </trkpt>
      <trkpt lat="46.14826" lon="-1.32318">
        <ele>6.26</ele>
        <time>2021-05-23T14:50:46Z</time>
      </trkpt>
      <trkpt lat="46.14828" lon="-1.32328">
        <ele>6.19</ele>
        <time>2021-05-23T14:50:47Z</time>
      </trkpt>
      <trkpt lat="46.1483" lon="-1.32337">
        <ele>6.09</ele>
        <time>2021-05-23T14:50:48Z</time>
      </trkpt>
      <trkpt lat="46.14833" lon="-1.32346">
        <ele>6</ele>
        <time>2021-05-23T14:50:49Z</time>
      </trkpt>
      <trkpt lat="46.14835" lon="-1.32355">
        <ele>6.03</ele>
        <time>2021-05-23T14:50:50Z</time>
      </trkpt>
      <trkpt lat="46.14837" lon="-1.32364">
        <ele>6.1</ele>
        <time>2021-05-23T14:50:51Z</time>
      </trkpt>
      <trkpt lat="46.14839" lon="-1.32374">
        <ele>6.46</ele>
        <time>2021-05-23T14:50:52Z</time>
      </trkpt>
      <trkpt lat="46.14842" lon="-1.32384">
        <ele>6.82</ele>
        <time>2021-05-23T14:50:53Z</time>
      </trkpt>
      <trkpt lat="46.14844" lon="-1.32394">
        <ele>7.11</ele>
        <time>2021-05-23T14:50:54Z</time>
      </trkpt>
      <trkpt lat="46.14846" lon="-1.32403">
        <ele>7.28</ele>
        <time>2021-05-23T14:50:55Z</time>
      </trkpt>
      <trkpt lat="46.14848" lon="-1.32412">
        <ele>7.39</ele>
        <time>2021-05-23T14:50:56Z</time>
      </trkpt>
      <trkpt lat="46.1485" lon="-1.32418">
        <ele>7.44</ele>
        <time>2021-05-23T14:50:57Z</time>
      </trkpt>
      <trkpt lat="46.14851" lon="-1.32424">
        <ele>7.6</ele>
        <time>2021-05-23T14:50:58Z</time>
      </trkpt>
      <trkpt lat="46.14849" lon="-1.32432">
        <ele>7.82</ele>
        <time>2021-05-23T14:51:00Z</time>
      </trkpt>
      <trkpt lat="46.14845" lon="-1.32436">
        <ele>7.76</ele>
        <time>2021-05-23T14:51:01Z</time>
      </trkpt>
      <trkpt lat="46.1484" lon="-1.32439">
        <ele>7.53</ele>
        <time>2021-05-23T14:51:02Z</time>
      </trkpt>
      <trkpt lat="46.14835" lon="-1.32442">
        <ele>7.19</ele>
        <time>2021-05-23T14:51:03Z</time>
      </trkpt>
      <trkpt lat="46.14829" lon="-1.32445">
        <ele>6.98</ele>
        <time>2021-05-23T14:51:04Z</time>
      </trkpt>
      <trkpt lat="46.14823" lon="-1.32448">
        <ele>6.92</ele>
        <time>2021-05-23T14:51:05Z</time>
      </trkpt>
      <trkpt lat="46.14818" lon="-1.32451">
        <ele>6.89</ele>
        <time>2021-05-23T14:51:06Z</time>
      </trkpt>
      <trkpt lat="46.14813" lon="-1.32453">
        <ele>6.92</ele>
        <time>2021-05-23T14:51:07Z</time>
      </trkpt>
      <trkpt lat="46.14809" lon="-1.32455">
        <ele>6.95</ele>
        <time>2021-05-23T14:51:08Z</time>
      </trkpt>
      <trkpt lat="46.14806" lon="-1.32456">
        <ele>6.99</ele>
        <time>2021-05-23T14:51:09Z</time>
      </trkpt>
      <trkpt lat="46.14804" lon="-1.32469">
        <ele>7.1</ele>
        <time>2021-05-23T14:51:13Z</time>
      </trkpt>
      <trkpt lat="46.14807" lon="-1.32484">
        <ele>7.39</ele>
        <time>2021-05-23T14:51:15Z</time>
      </trkpt>
      <trkpt lat="46.1481" lon="-1.32495">
        <ele>7.79</ele>
        <time>2021-05-23T14:51:16Z</time>
      </trkpt>
      <trkpt lat="46.14812" lon="-1.32503">
        <ele>7.89</ele>
        <time>2021-05-23T14:51:17Z</time>
      </trkpt>
      <trkpt lat="46.14814" lon="-1.32511">
        <ele>7.6</ele>
        <time>2021-05-23T14:51:18Z</time>
      </trkpt>
      <trkpt lat="46.14816" lon="-1.32519">
        <ele>7.32</ele>
        <time>2021-05-23T14:51:19Z</time>
      </trkpt>
      <trkpt lat="46.14818" lon="-1.32527">
        <ele>7.03</ele>
        <time>2021-05-23T14:51:20Z</time>
      </trkpt>
      <trkpt lat="46.1482" lon="-1.32534">
        <ele>7.12</ele>
        <time>2021-05-23T14:51:21Z</time>
      </trkpt>
      <trkpt lat="46.14822" lon="-1.32541">
        <ele>7.28</ele>
        <time>2021-05-23T14:51:22Z</time>
      </trkpt>
      <trkpt lat="46.14824" lon="-1.32548">
        <ele>7.48</ele>
        <time>2021-05-23T14:51:23Z</time>
      </trkpt>
      <trkpt lat="46.14826" lon="-1.32554">
        <ele>7.69</ele>
        <time>2021-05-23T14:51:24Z</time>
      </trkpt>
      <trkpt lat="46.14827" lon="-1.3256">
        <ele>8.06</ele>
        <time>2021-05-23T14:51:25Z</time>
      </trkpt>
      <trkpt lat="46.14831" lon="-1.32569">
        <ele>8.84</ele>
        <time>2021-05-23T14:51:29Z</time>
      </trkpt>
      <trkpt lat="46.14829" lon="-1.32579">
        <ele>9.4</ele>
        <time>2021-05-23T14:51:31Z</time>
      </trkpt>
      <trkpt lat="46.14821" lon="-1.32587">
        <ele>9.17</ele>
        <time>2021-05-23T14:51:34Z</time>
      </trkpt>
      <trkpt lat="46.14811" lon="-1.32591">
        <ele>8.61</ele>
        <time>2021-05-23T14:51:35Z</time>
      </trkpt>
      <trkpt lat="46.14806" lon="-1.32599">
        <ele>8.59</ele>
        <time>2021-05-23T14:51:38Z</time>
      </trkpt>
      <trkpt lat="46.14808" lon="-1.32615">
        <ele>9.06</ele>
        <time>2021-05-23T14:51:41Z</time>
      </trkpt>
      <trkpt lat="46.14811" lon="-1.32631">
        <ele>8.92</ele>
        <time>2021-05-23T14:51:42Z</time>
      </trkpt>
      <trkpt lat="46.14812" lon="-1.32639">
        <ele>8.77</ele>
        <time>2021-05-23T14:51:43Z</time>
      </trkpt>
      <trkpt lat="46.14814" lon="-1.32648">
        <ele>9.02</ele>
        <time>2021-05-23T14:51:44Z</time>
      </trkpt>
      <trkpt lat="46.14815" lon="-1.32656">
        <ele>9.28</ele>
        <time>2021-05-23T14:51:45Z</time>
      </trkpt>
      <trkpt lat="46.14816" lon="-1.32665">
        <ele>9.56</ele>
        <time>2021-05-23T14:51:46Z</time>
      </trkpt>
      <trkpt lat="46.14818" lon="-1.32674">
        <ele>9.79</ele>
        <time>2021-05-23T14:51:47Z</time>
      </trkpt>
      <trkpt lat="46.14819" lon="-1.32681">
        <ele>10.02</ele>
        <time>2021-05-23T14:51:48Z</time>
      </trkpt>
      <trkpt lat="46.1482" lon="-1.32688">
        <ele>10.28</ele>
        <time>2021-05-23T14:51:49Z</time>
      </trkpt>
      <trkpt lat="46.14821" lon="-1.32694">
        <ele>10.54</ele>
        <time>2021-05-23T14:51:50Z</time>
      </trkpt>
      <trkpt lat="46.14821" lon="-1.32706">
        <ele>10.79</ele>
        <time>2021-05-23T14:51:54Z</time>
      </trkpt>
      <trkpt lat="46.14835" lon="-1.3272">
        <ele>11.8</ele>
        <time>2021-05-23T14:51:58Z</time>
      </trkpt>
      <trkpt lat="46.14842" lon="-1.32731">
        <ele>11.26</ele>
        <time>2021-05-23T14:52:00Z</time>
      </trkpt>
      <trkpt lat="46.14846" lon="-1.32737">
        <ele>11.04</ele>
        <time>2021-05-23T14:52:01Z</time>
      </trkpt>
      <trkpt lat="46.14851" lon="-1.32741">
        <ele>10.91</ele>
        <time>2021-05-23T14:52:02Z</time>
      </trkpt>
      <trkpt lat="46.14856" lon="-1.32743">
        <ele>10.84</ele>
        <time>2021-05-23T14:52:03Z</time>
      </trkpt>
      <trkpt lat="46.14861" lon="-1.32746">
        <ele>10.86</ele>
        <time>2021-05-23T14:52:04Z</time>
      </trkpt>
      <trkpt lat="46.14866" lon="-1.32748">
        <ele>10.59</ele>
        <time>2021-05-23T14:52:05Z</time>
      </trkpt>
      <trkpt lat="46.14872" lon="-1.32752">
        <ele>10.17</ele>
        <time>2021-05-23T14:52:06Z</time>
      </trkpt>
      <trkpt lat="46.14878" lon="-1.32755">
        <ele>9.71</ele>
        <time>2021-05-23T14:52:07Z</time>
      </trkpt>
      <trkpt lat="46.14884" lon="-1.3276">
        <ele>9.29</ele>
        <time>2021-05-23T14:52:08Z</time>
      </trkpt>
      <trkpt lat="46.14891" lon="-1.32764">
        <ele>9</ele>
        <time>2021-05-23T14:52:09Z</time>
      </trkpt>
      <trkpt lat="46.14898" lon="-1.32769">
        <ele>9</ele>
        <time>2021-05-23T14:52:10Z</time>
      </trkpt>
      <trkpt lat="46.14904" lon="-1.32774">
        <ele>9</ele>
        <time>2021-05-23T14:52:11Z</time>
      </trkpt>
      <trkpt lat="46.1491" lon="-1.32779">
        <ele>9.01</ele>
        <time>2021-05-23T14:52:12Z</time>
      </trkpt>
      <trkpt lat="46.14917" lon="-1.32784">
        <ele>8.99</ele>
        <time>2021-05-23T14:52:13Z</time>
      </trkpt>
      <trkpt lat="46.14923" lon="-1.32789">
        <ele>8.86</ele>
        <time>2021-05-23T14:52:14Z</time>
      </trkpt>
      <trkpt lat="46.14929" lon="-1.32793">
        <ele>8.8</ele>
        <time>2021-05-23T14:52:15Z</time>
      </trkpt>
      <trkpt lat="46.14935" lon="-1.32797">
        <ele>8.8</ele>
        <time>2021-05-23T14:52:16Z</time>
      </trkpt>
      <trkpt lat="46.14941" lon="-1.32802">
        <ele>8.89</ele>
        <time>2021-05-23T14:52:17Z</time>
      </trkpt>
      <trkpt lat="46.14947" lon="-1.32806">
        <ele>9</ele>
        <time>2021-05-23T14:52:18Z</time>
      </trkpt>
      <trkpt lat="46.14952" lon="-1.32809">
        <ele>9</ele>
        <time>2021-05-23T14:52:19Z</time>
      </trkpt>
      <trkpt lat="46.14957" lon="-1.32813">
        <ele>9</ele>
        <time>2021-05-23T14:52:20Z</time>
      </trkpt>
      <trkpt lat="46.14962" lon="-1.32816">
        <ele>9</ele>
        <time>2021-05-23T14:52:21Z</time>
      </trkpt>
      <trkpt lat="46.14965" lon="-1.32818">
        <ele>9</ele>
        <time>2021-05-23T14:52:22Z</time>
      </trkpt>
      <trkpt lat="46.14968" lon="-1.3282">
        <ele>9</ele>
        <time>2021-05-23T14:52:23Z</time>
      </trkpt>
      <trkpt lat="46.14971" lon="-1.32824">
        <ele>9</ele>
        <time>2021-05-23T14:52:25Z</time>
      </trkpt>
      <trkpt lat="46.14973" lon="-1.32832">
        <ele>9</ele>
        <time>2021-05-23T14:52:27Z</time>
      </trkpt>
      <trkpt lat="46.14973" lon="-1.32838">
        <ele>9</ele>
        <time>2021-05-23T14:52:28Z</time>
      </trkpt>
      <trkpt lat="46.14973" lon="-1.32846">
        <ele>8.99</ele>
        <time>2021-05-23T14:52:29Z</time>
      </trkpt>
      <trkpt lat="46.14974" lon="-1.32854">
        <ele>8.95</ele>
        <time>2021-05-23T14:52:30Z</time>
      </trkpt>
      <trkpt lat="46.14974" lon="-1.32861">
        <ele>8.94</ele>
        <time>2021-05-23T14:52:31Z</time>
      </trkpt>
      <trkpt lat="46.14975" lon="-1.32867">
        <ele>9.32</ele>
        <time>2021-05-23T14:52:32Z</time>
      </trkpt>
      <trkpt lat="46.14975" lon="-1.32872">
        <ele>9.68</ele>
        <time>2021-05-23T14:52:33Z</time>
      </trkpt>
      <trkpt lat="46.14976" lon="-1.32883">
        <ele>10.44</ele>
        <time>2021-05-23T14:52:37Z</time>
      </trkpt>
      <trkpt lat="46.14978" lon="-1.32895">
        <ele>10.88</ele>
        <time>2021-05-23T14:52:41Z</time>
      </trkpt>
      <trkpt lat="46.14981" lon="-1.32908">
        <ele>11.12</ele>
        <time>2021-05-23T14:52:45Z</time>
      </trkpt>
      <trkpt lat="46.14981" lon="-1.32919">
        <ele>11.32</ele>
        <time>2021-05-23T14:52:47Z</time>
      </trkpt>
      <trkpt lat="46.14984" lon="-1.32927">
        <ele>11.42</ele>
        <time>2021-05-23T14:52:50Z</time>
      </trkpt>
      <trkpt lat="46.14991" lon="-1.3294">
        <ele>11.68</ele>
        <time>2021-05-23T14:52:53Z</time>
      </trkpt>
      <trkpt lat="46.14996" lon="-1.32953">
        <ele>11.5</ele>
        <time>2021-05-23T14:52:56Z</time>
      </trkpt>
      <trkpt lat="46.15" lon="-1.3296">
        <ele>11.44</ele>
        <time>2021-05-23T14:52:57Z</time>
      </trkpt>
      <trkpt lat="46.15007" lon="-1.32974">
        <ele>10.68</ele>
        <time>2021-05-23T14:52:58Z</time>
      </trkpt>
      <trkpt lat="46.15013" lon="-1.32981">
        <ele>10.22</ele>
        <time>2021-05-23T14:53:02Z</time>
      </trkpt>
      <trkpt lat="46.15019" lon="-1.32993">
        <ele>9.57</ele>
        <time>2021-05-23T14:53:03Z</time>
      </trkpt>
      <trkpt lat="46.15021" lon="-1.33006">
        <ele>9.35</ele>
        <time>2021-05-23T14:53:06Z</time>
      </trkpt>
      <trkpt lat="46.1502" lon="-1.33017">
        <ele>9.55</ele>
        <time>2021-05-23T14:53:10Z</time>
      </trkpt>
      <trkpt lat="46.1502" lon="-1.33027">
        <ele>9.71</ele>
        <time>2021-05-23T14:53:13Z</time>
      </trkpt>
      <trkpt lat="46.15024" lon="-1.33036">
        <ele>9.57</ele>
        <time>2021-05-23T14:53:15Z</time>
      </trkpt>
      <trkpt lat="46.15031" lon="-1.33042">
        <ele>9.26</ele>
        <time>2021-05-23T14:53:18Z</time>
      </trkpt>
      <trkpt lat="46.15039" lon="-1.33046">
        <ele>8.66</ele>
        <time>2021-05-23T14:53:19Z</time>
      </trkpt>
      <trkpt lat="46.15046" lon="-1.33054">
        <ele>8.33</ele>
        <time>2021-05-23T14:53:22Z</time>
      </trkpt>
      <trkpt lat="46.15051" lon="-1.33068">
        <ele>8.47</ele>
        <time>2021-05-23T14:53:26Z</time>
      </trkpt>
      <trkpt lat="46.15054" lon="-1.33081">
        <ele>8.87</ele>
        <time>2021-05-23T14:53:28Z</time>
      </trkpt>
      <trkpt lat="46.15059" lon="-1.33097">
        <ele>9.43</ele>
        <time>2021-05-23T14:53:32Z</time>
      </trkpt>
      <trkpt lat="46.15061" lon="-1.33115">
        <ele>9.72</ele>
        <time>2021-05-23T14:53:33Z</time>
      </trkpt>
      <trkpt lat="46.15062" lon="-1.33125">
        <ele>9.5</ele>
        <time>2021-05-23T14:53:34Z</time>
      </trkpt>
      <trkpt lat="46.15062" lon="-1.33132">
        <ele>9.36</ele>
        <time>2021-05-23T14:53:35Z</time>
      </trkpt>
      <trkpt lat="46.15061" lon="-1.33139">
        <ele>9.2</ele>
        <time>2021-05-23T14:53:38Z</time>
      </trkpt>
      <trkpt lat="46.15062" lon="-1.33148">
        <ele>9.74</ele>
        <time>2021-05-23T14:53:41Z</time>
      </trkpt>
      <trkpt lat="46.15066" lon="-1.3315">
        <ele>9.88</ele>
        <time>2021-05-23T14:53:59Z</time>
      </trkpt>
      <trkpt lat="46.15071" lon="-1.33152">
        <ele>9.98</ele>
        <time>2021-05-23T14:54:01Z</time>
      </trkpt>
      <trkpt lat="46.15076" lon="-1.33154">
        <ele>10.02</ele>
        <time>2021-05-23T14:54:03Z</time>
      </trkpt>
      <trkpt lat="46.15094" lon="-1.33161">
        <ele>10.38</ele>
        <time>2021-05-23T14:54:06Z</time>
      </trkpt>
      <trkpt lat="46.151" lon="-1.33164">
        <ele>10.6</ele>
        <time>2021-05-23T14:54:07Z</time>
      </trkpt>
      <trkpt lat="46.15107" lon="-1.33166">
        <ele>10.85</ele>
        <time>2021-05-23T14:54:08Z</time>
      </trkpt>
      <trkpt lat="46.15113" lon="-1.33168">
        <ele>11.04</ele>
        <time>2021-05-23T14:54:09Z</time>
      </trkpt>
      <trkpt lat="46.15119" lon="-1.33171">
        <ele>11.11</ele>
        <time>2021-05-23T14:54:10Z</time>
      </trkpt>
      <trkpt lat="46.15124" lon="-1.33174">
        <ele>11.14</ele>
        <time>2021-05-23T14:54:11Z</time>
      </trkpt>
      <trkpt lat="46.15129" lon="-1.33177">
        <ele>11.13</ele>
        <time>2021-05-23T14:54:12Z</time>
      </trkpt>
      <trkpt lat="46.15135" lon="-1.33179">
        <ele>11.06</ele>
        <time>2021-05-23T14:54:13Z</time>
      </trkpt>
      <trkpt lat="46.1514" lon="-1.33182">
        <ele>11.02</ele>
        <time>2021-05-23T14:54:14Z</time>
      </trkpt>
      <trkpt lat="46.15146" lon="-1.33185">
        <ele>11.17</ele>
        <time>2021-05-23T14:54:15Z</time>
      </trkpt>
      <trkpt lat="46.15151" lon="-1.33187">
        <ele>11.32</ele>
        <time>2021-05-23T14:54:16Z</time>
      </trkpt>
      <trkpt lat="46.15157" lon="-1.3319">
        <ele>11.55</ele>
        <time>2021-05-23T14:54:17Z</time>
      </trkpt>
      <trkpt lat="46.15163" lon="-1.33193">
        <ele>11.82</ele>
        <time>2021-05-23T14:54:18Z</time>
      </trkpt>
      <trkpt lat="46.15168" lon="-1.33195">
        <ele>12.05</ele>
        <time>2021-05-23T14:54:19Z</time>
      </trkpt>
      <trkpt lat="46.15173" lon="-1.33197">
        <ele>12.23</ele>
        <time>2021-05-23T14:54:20Z</time>
      </trkpt>
      <trkpt lat="46.15178" lon="-1.33197">
        <ele>12.41</ele>
        <time>2021-05-23T14:54:21Z</time>
      </trkpt>
      <trkpt lat="46.15181" lon="-1.33197">
        <ele>12.52</ele>
        <time>2021-05-23T14:54:22Z</time>
      </trkpt>
      <trkpt lat="46.15184" lon="-1.33197">
        <ele>12.62</ele>
        <time>2021-05-23T14:54:23Z</time>
      </trkpt>
      <trkpt lat="46.15189" lon="-1.33196">
        <ele>12.8</ele>
        <time>2021-05-23T14:54:25Z</time>
      </trkpt>
      <trkpt lat="46.15192" lon="-1.33194">
        <ele>12.9</ele>
        <time>2021-05-23T14:54:27Z</time>
      </trkpt>
      <trkpt lat="46.152" lon="-1.33192">
        <ele>12.75</ele>
        <time>2021-05-23T14:54:33Z</time>
      </trkpt>
      <trkpt lat="46.15212" lon="-1.33195">
        <ele>12.37</ele>
        <time>2021-05-23T14:54:36Z</time>
      </trkpt>
      <trkpt lat="46.15222" lon="-1.33196">
        <ele>12.01</ele>
        <time>2021-05-23T14:54:39Z</time>
      </trkpt>
      <trkpt lat="46.15234" lon="-1.33205">
        <ele>11.05</ele>
        <time>2021-05-23T14:54:42Z</time>
      </trkpt>
      <trkpt lat="46.15242" lon="-1.33211">
        <ele>10.71</ele>
        <time>2021-05-23T14:54:43Z</time>
      </trkpt>
      <trkpt lat="46.15248" lon="-1.33214">
        <ele>10.52</ele>
        <time>2021-05-23T14:54:44Z</time>
      </trkpt>
      <trkpt lat="46.15253" lon="-1.33219">
        <ele>10.78</ele>
        <time>2021-05-23T14:54:45Z</time>
      </trkpt>
      <trkpt lat="46.15258" lon="-1.33225">
        <ele>10.93</ele>
        <time>2021-05-23T14:54:46Z</time>
      </trkpt>
      <trkpt lat="46.15263" lon="-1.33231">
        <ele>10.83</ele>
        <time>2021-05-23T14:54:47Z</time>
      </trkpt>
      <trkpt lat="46.15268" lon="-1.33236">
        <ele>10.83</ele>
        <time>2021-05-23T14:54:48Z</time>
      </trkpt>
      <trkpt lat="46.15274" lon="-1.33241">
        <ele>10.91</ele>
        <time>2021-05-23T14:54:49Z</time>
      </trkpt>
      <trkpt lat="46.15279" lon="-1.33246">
        <ele>10.87</ele>
        <time>2021-05-23T14:54:50Z</time>
      </trkpt>
      <trkpt lat="46.15283" lon="-1.33251">
        <ele>10.41</ele>
        <time>2021-05-23T14:54:51Z</time>
      </trkpt>
      <trkpt lat="46.15287" lon="-1.33254">
        <ele>9.91</ele>
        <time>2021-05-23T14:54:52Z</time>
      </trkpt>
      <trkpt lat="46.1529" lon="-1.33256">
        <ele>9.56</ele>
        <time>2021-05-23T14:54:53Z</time>
      </trkpt>
      <trkpt lat="46.15294" lon="-1.3326">
        <ele>9.1</ele>
        <time>2021-05-23T14:54:55Z</time>
      </trkpt>
      <trkpt lat="46.15296" lon="-1.33262">
        <ele>8.88</ele>
        <time>2021-05-23T14:54:58Z</time>
      </trkpt>
      <trkpt lat="46.15299" lon="-1.33265">
        <ele>8.58</ele>
        <time>2021-05-23T14:55:01Z</time>
      </trkpt>
      <trkpt lat="46.15301" lon="-1.33271">
        <ele>8.37</ele>
        <time>2021-05-23T14:55:02Z</time>
      </trkpt>
      <trkpt lat="46.15304" lon="-1.33274">
        <ele>8.12</ele>
        <time>2021-05-23T14:55:03Z</time>
      </trkpt>
      <trkpt lat="46.15306" lon="-1.33277">
        <ele>8.06</ele>
        <time>2021-05-23T14:55:04Z</time>
      </trkpt>
      <trkpt lat="46.15308" lon="-1.33281">
        <ele>8.47</ele>
        <time>2021-05-23T14:55:05Z</time>
      </trkpt>
      <trkpt lat="46.15309" lon="-1.33285">
        <ele>8.76</ele>
        <time>2021-05-23T14:55:06Z</time>
      </trkpt>
      <trkpt lat="46.1531" lon="-1.33288">
        <ele>9.01</ele>
        <time>2021-05-23T14:55:07Z</time>
      </trkpt>
      <trkpt lat="46.15313" lon="-1.33291">
        <ele>9.55</ele>
        <time>2021-05-23T14:55:08Z</time>
      </trkpt>
      <trkpt lat="46.15317" lon="-1.33294">
        <ele>10.23</ele>
        <time>2021-05-23T14:55:09Z</time>
      </trkpt>
      <trkpt lat="46.1532" lon="-1.33295">
        <ele>10.7</ele>
        <time>2021-05-23T14:55:10Z</time>
      </trkpt>
      <trkpt lat="46.15326" lon="-1.33298">
        <ele>11.67</ele>
        <time>2021-05-23T14:55:11Z</time>
      </trkpt>
      <trkpt lat="46.15332" lon="-1.33301">
        <ele>12.64</ele>
        <time>2021-05-23T14:55:12Z</time>
      </trkpt>
      <trkpt lat="46.15338" lon="-1.33305">
        <ele>13.15</ele>
        <time>2021-05-23T14:55:13Z</time>
      </trkpt>
      <trkpt lat="46.15345" lon="-1.33308">
        <ele>13.43</ele>
        <time>2021-05-23T14:55:14Z</time>
      </trkpt>
      <trkpt lat="46.15351" lon="-1.33311">
        <ele>13.58</ele>
        <time>2021-05-23T14:55:15Z</time>
      </trkpt>
      <trkpt lat="46.15357" lon="-1.33313">
        <ele>13.66</ele>
        <time>2021-05-23T14:55:16Z</time>
      </trkpt>
      <trkpt lat="46.15362" lon="-1.33314">
        <ele>13.58</ele>
        <time>2021-05-23T14:55:17Z</time>
      </trkpt>
      <trkpt lat="46.15367" lon="-1.33314">
        <ele>12.91</ele>
        <time>2021-05-23T14:55:18Z</time>
      </trkpt>
      <trkpt lat="46.15372" lon="-1.33315">
        <ele>12.23</ele>
        <time>2021-05-23T14:55:19Z</time>
      </trkpt>
      <trkpt lat="46.15377" lon="-1.33315">
        <ele>11.57</ele>
        <time>2021-05-23T14:55:20Z</time>
      </trkpt>
      <trkpt lat="46.15383" lon="-1.33315">
        <ele>10.78</ele>
        <time>2021-05-23T14:55:21Z</time>
      </trkpt>
      <trkpt lat="46.15387" lon="-1.33314">
        <ele>10.25</ele>
        <time>2021-05-23T14:55:22Z</time>
      </trkpt>
      <trkpt lat="46.15392" lon="-1.33314">
        <ele>10.03</ele>
        <time>2021-05-23T14:55:23Z</time>
      </trkpt>
      <trkpt lat="46.15397" lon="-1.33314">
        <ele>10.09</ele>
        <time>2021-05-23T14:55:24Z</time>
      </trkpt>
      <trkpt lat="46.15401" lon="-1.33314">
        <ele>10.13</ele>
        <time>2021-05-23T14:55:25Z</time>
      </trkpt>
      <trkpt lat="46.15406" lon="-1.33314">
        <ele>10.19</ele>
        <time>2021-05-23T14:55:26Z</time>
      </trkpt>
      <trkpt lat="46.15411" lon="-1.33313">
        <ele>10.21</ele>
        <time>2021-05-23T14:55:27Z</time>
      </trkpt>
      <trkpt lat="46.15416" lon="-1.33313">
        <ele>10.26</ele>
        <time>2021-05-23T14:55:28Z</time>
      </trkpt>
      <trkpt lat="46.15421" lon="-1.33312">
        <ele>10.28</ele>
        <time>2021-05-23T14:55:29Z</time>
      </trkpt>
      <trkpt lat="46.15425" lon="-1.33312">
        <ele>10.32</ele>
        <time>2021-05-23T14:55:30Z</time>
      </trkpt>
      <trkpt lat="46.15429" lon="-1.33311">
        <ele>10.38</ele>
        <time>2021-05-23T14:55:31Z</time>
      </trkpt>
      <trkpt lat="46.15433" lon="-1.33311">
        <ele>10.44</ele>
        <time>2021-05-23T14:55:32Z</time>
      </trkpt>
      <trkpt lat="46.15437" lon="-1.3331">
        <ele>10.54</ele>
        <time>2021-05-23T14:55:33Z</time>
      </trkpt>
      <trkpt lat="46.15441" lon="-1.33308">
        <ele>10.73</ele>
        <time>2021-05-23T14:55:34Z</time>
      </trkpt>
      <trkpt lat="46.15446" lon="-1.33305">
        <ele>11.1</ele>
        <time>2021-05-23T14:55:35Z</time>
      </trkpt>
      <trkpt lat="46.15452" lon="-1.33302">
        <ele>11.56</ele>
        <time>2021-05-23T14:55:36Z</time>
      </trkpt>
      <trkpt lat="46.15457" lon="-1.333">
        <ele>11.94</ele>
        <time>2021-05-23T14:55:37Z</time>
      </trkpt>
      <trkpt lat="46.15463" lon="-1.33297">
        <ele>12.49</ele>
        <time>2021-05-23T14:55:38Z</time>
      </trkpt>
      <trkpt lat="46.15469" lon="-1.33294">
        <ele>13.08</ele>
        <time>2021-05-23T14:55:39Z</time>
      </trkpt>
      <trkpt lat="46.15475" lon="-1.33291">
        <ele>13.37</ele>
        <time>2021-05-23T14:55:40Z</time>
      </trkpt>
      <trkpt lat="46.15481" lon="-1.33288">
        <ele>13.18</ele>
        <time>2021-05-23T14:55:41Z</time>
      </trkpt>
      <trkpt lat="46.15488" lon="-1.33286">
        <ele>12.74</ele>
        <time>2021-05-23T14:55:42Z</time>
      </trkpt>
      <trkpt lat="46.15495" lon="-1.33283">
        <ele>12.28</ele>
        <time>2021-05-23T14:55:43Z</time>
      </trkpt>
      <trkpt lat="46.15501" lon="-1.3328">
        <ele>12.06</ele>
        <time>2021-05-23T14:55:44Z</time>
      </trkpt>
      <trkpt lat="46.15507" lon="-1.33277">
        <ele>13.05</ele>
        <time>2021-05-23T14:55:45Z</time>
      </trkpt>
      <trkpt lat="46.15513" lon="-1.33275">
        <ele>13.98</ele>
        <time>2021-05-23T14:55:46Z</time>
      </trkpt>
      <trkpt lat="46.15519" lon="-1.33273">
        <ele>14.84</ele>
        <time>2021-05-23T14:55:47Z</time>
      </trkpt>
      <trkpt lat="46.15525" lon="-1.3327">
        <ele>15.66</ele>
        <time>2021-05-23T14:55:48Z</time>
      </trkpt>
      <trkpt lat="46.1553" lon="-1.33268">
        <ele>15.9</ele>
        <time>2021-05-23T14:55:49Z</time>
      </trkpt>
      <trkpt lat="46.15535" lon="-1.33266">
        <ele>15.7</ele>
        <time>2021-05-23T14:55:50Z</time>
      </trkpt>
      <trkpt lat="46.15539" lon="-1.33264">
        <ele>15.59</ele>
        <time>2021-05-23T14:55:51Z</time>
      </trkpt>
      <trkpt lat="46.15543" lon="-1.33262">
        <ele>15.53</ele>
        <time>2021-05-23T14:55:52Z</time>
      </trkpt>
      <trkpt lat="46.15546" lon="-1.3326">
        <ele>15.53</ele>
        <time>2021-05-23T14:55:53Z</time>
      </trkpt>
      <trkpt lat="46.15549" lon="-1.33259">
        <ele>15.5</ele>
        <time>2021-05-23T14:55:54Z</time>
      </trkpt>
      <trkpt lat="46.15553" lon="-1.33257">
        <ele>15.54</ele>
        <time>2021-05-23T14:55:56Z</time>
      </trkpt>
      <trkpt lat="46.15557" lon="-1.33255">
        <ele>15.63</ele>
        <time>2021-05-23T14:56:05Z</time>
      </trkpt>
      <trkpt lat="46.15558" lon="-1.3325">
        <ele>16</ele>
        <time>2021-05-23T14:56:10Z</time>
      </trkpt>
      <trkpt lat="46.15556" lon="-1.3324">
        <ele>16.73</ele>
        <time>2021-05-23T14:56:11Z</time>
      </trkpt>
      <trkpt lat="46.15553" lon="-1.33226">
        <ele>17.49</ele>
        <time>2021-05-23T14:56:15Z</time>
      </trkpt>
      <trkpt lat="46.15546" lon="-1.33229">
        <ele>16.73</ele>
        <time>2021-05-23T14:56:22Z</time>
      </trkpt>
      <trkpt lat="46.15545" lon="-1.33233">
        <ele>16.53</ele>
        <time>2021-05-23T14:56:29Z</time>
      </trkpt>
      <trkpt lat="46.15544" lon="-1.3323">
        <ele>16.54</ele>
        <time>2021-05-23T14:57:06Z</time>
      </trkpt>
      <trkpt lat="46.15547" lon="-1.33229">
        <ele>16.81</ele>
        <time>2021-05-23T14:59:05Z</time>
      </trkpt>
      <trkpt lat="46.15549" lon="-1.33224">
        <ele>17.21</ele>
        <time>2021-05-23T14:59:08Z</time>
      </trkpt>
      <trkpt lat="46.15552" lon="-1.33223">
        <ele>17.57</ele>
        <time>2021-05-23T14:59:11Z</time>
      </trkpt>
      <trkpt lat="46.15555" lon="-1.33227">
        <ele>17.61</ele>
        <time>2021-05-23T14:59:13Z</time>
      </trkpt>
      <trkpt lat="46.15556" lon="-1.33232">
        <ele>17.31</ele>
        <time>2021-05-23T14:59:14Z</time>
      </trkpt>
      <trkpt lat="46.15556" lon="-1.33236">
        <ele>17.02</ele>
        <time>2021-05-23T14:59:15Z</time>
      </trkpt>
      <trkpt lat="46.15557" lon="-1.3324">
        <ele>16.74</ele>
        <time>2021-05-23T14:59:16Z</time>
      </trkpt>
      <trkpt lat="46.15557" lon="-1.33247">
        <ele>16.22</ele>
        <time>2021-05-23T14:59:18Z</time>
      </trkpt>
      <trkpt lat="46.15559" lon="-1.33255">
        <ele>15.62</ele>
        <time>2021-05-23T14:59:20Z</time>
      </trkpt>
      <trkpt lat="46.15561" lon="-1.33262">
        <ele>15.05</ele>
        <time>2021-05-23T14:59:21Z</time>
      </trkpt>
      <trkpt lat="46.15563" lon="-1.33269">
        <ele>14.45</ele>
        <time>2021-05-23T14:59:22Z</time>
      </trkpt>
      <trkpt lat="46.15565" lon="-1.33276">
        <ele>13.81</ele>
        <time>2021-05-23T14:59:23Z</time>
      </trkpt>
      <trkpt lat="46.15567" lon="-1.33283">
        <ele>13.29</ele>
        <time>2021-05-23T14:59:24Z</time>
      </trkpt>
      <trkpt lat="46.15569" lon="-1.3329">
        <ele>12.85</ele>
        <time>2021-05-23T14:59:25Z</time>
      </trkpt>
      <trkpt lat="46.1557" lon="-1.33297">
        <ele>12.46</ele>
        <time>2021-05-23T14:59:26Z</time>
      </trkpt>
      <trkpt lat="46.15572" lon="-1.33305">
        <ele>12.03</ele>
        <time>2021-05-23T14:59:27Z</time>
      </trkpt>
      <trkpt lat="46.15574" lon="-1.33312">
        <ele>12.08</ele>
        <time>2021-05-23T14:59:28Z</time>
      </trkpt>
      <trkpt lat="46.15576" lon="-1.33319">
        <ele>12.13</ele>
        <time>2021-05-23T14:59:29Z</time>
      </trkpt>
      <trkpt lat="46.15578" lon="-1.33325">
        <ele>12.13</ele>
        <time>2021-05-23T14:59:30Z</time>
      </trkpt>
      <trkpt lat="46.1558" lon="-1.33329">
        <ele>12.1</ele>
        <time>2021-05-23T14:59:33Z</time>
      </trkpt>
      <trkpt lat="46.15585" lon="-1.3334">
        <ele>12.84</ele>
        <time>2021-05-23T14:59:34Z</time>
      </trkpt>
      <trkpt lat="46.15587" lon="-1.33356">
        <ele>14.41</ele>
        <time>2021-05-23T14:59:35Z</time>
      </trkpt>
      <trkpt lat="46.15591" lon="-1.3337">
        <ele>14.96</ele>
        <time>2021-05-23T14:59:37Z</time>
      </trkpt>
      <trkpt lat="46.15595" lon="-1.33381">
        <ele>15</ele>
        <time>2021-05-23T14:59:39Z</time>
      </trkpt>
      <trkpt lat="46.15599" lon="-1.3339">
        <ele>14.85</ele>
        <time>2021-05-23T14:59:41Z</time>
      </trkpt>
      <trkpt lat="46.15606" lon="-1.33403">
        <ele>14.27</ele>
        <time>2021-05-23T14:59:43Z</time>
      </trkpt>
      <trkpt lat="46.15614" lon="-1.33416">
        <ele>14.1</ele>
        <time>2021-05-23T14:59:48Z</time>
      </trkpt>
      <trkpt lat="46.15622" lon="-1.33435">
        <ele>13.33</ele>
        <time>2021-05-23T14:59:51Z</time>
      </trkpt>
      <trkpt lat="46.15633" lon="-1.33456">
        <ele>12.92</ele>
        <time>2021-05-23T14:59:55Z</time>
      </trkpt>
      <trkpt lat="46.15645" lon="-1.33473">
        <ele>11.97</ele>
        <time>2021-05-23T15:00:00Z</time>
      </trkpt>
      <trkpt lat="46.15658" lon="-1.33492">
        <ele>11.29</ele>
        <time>2021-05-23T15:00:03Z</time>
      </trkpt>
      <trkpt lat="46.15665" lon="-1.33501">
        <ele>11.03</ele>
        <time>2021-05-23T15:00:04Z</time>
      </trkpt>
      <trkpt lat="46.15669" lon="-1.33507">
        <ele>11.36</ele>
        <time>2021-05-23T15:00:05Z</time>
      </trkpt>
      <trkpt lat="46.15673" lon="-1.33514">
        <ele>11.85</ele>
        <time>2021-05-23T15:00:06Z</time>
      </trkpt>
      <trkpt lat="46.15677" lon="-1.3352">
        <ele>12.36</ele>
        <time>2021-05-23T15:00:07Z</time>
      </trkpt>
      <trkpt lat="46.15681" lon="-1.33527">
        <ele>12.99</ele>
        <time>2021-05-23T15:00:08Z</time>
      </trkpt>
      <trkpt lat="46.15685" lon="-1.33534">
        <ele>13.47</ele>
        <time>2021-05-23T15:00:09Z</time>
      </trkpt>
      <trkpt lat="46.15689" lon="-1.3354">
        <ele>13.96</ele>
        <time>2021-05-23T15:00:10Z</time>
      </trkpt>
      <trkpt lat="46.15693" lon="-1.33545">
        <ele>14.48</ele>
        <time>2021-05-23T15:00:11Z</time>
      </trkpt>
      <trkpt lat="46.15697" lon="-1.3355">
        <ele>14.91</ele>
        <time>2021-05-23T15:00:12Z</time>
      </trkpt>
      <trkpt lat="46.15701" lon="-1.33555">
        <ele>15.22</ele>
        <time>2021-05-23T15:00:13Z</time>
      </trkpt>
      <trkpt lat="46.15704" lon="-1.3356">
        <ele>15.29</ele>
        <time>2021-05-23T15:00:14Z</time>
      </trkpt>
      <trkpt lat="46.15707" lon="-1.33565">
        <ele>15.42</ele>
        <time>2021-05-23T15:00:15Z</time>
      </trkpt>
      <trkpt lat="46.1571" lon="-1.33569">
        <ele>15.62</ele>
        <time>2021-05-23T15:00:16Z</time>
      </trkpt>
      <trkpt lat="46.15713" lon="-1.33573">
        <ele>15.88</ele>
        <time>2021-05-23T15:00:17Z</time>
      </trkpt>
      <trkpt lat="46.15716" lon="-1.33577">
        <ele>16.2</ele>
        <time>2021-05-23T15:00:18Z</time>
      </trkpt>
      <trkpt lat="46.1572" lon="-1.33582">
        <ele>16.72</ele>
        <time>2021-05-23T15:00:19Z</time>
      </trkpt>
      <trkpt lat="46.15723" lon="-1.33586">
        <ele>17.2</ele>
        <time>2021-05-23T15:00:20Z</time>
      </trkpt>
      <trkpt lat="46.15726" lon="-1.3359">
        <ele>17.69</ele>
        <time>2021-05-23T15:00:21Z</time>
      </trkpt>
      <trkpt lat="46.15729" lon="-1.33595">
        <ele>18.09</ele>
        <time>2021-05-23T15:00:22Z</time>
      </trkpt>
      <trkpt lat="46.15733" lon="-1.33601">
        <ele>18.45</ele>
        <time>2021-05-23T15:00:23Z</time>
      </trkpt>
      <trkpt lat="46.15736" lon="-1.33607">
        <ele>18.57</ele>
        <time>2021-05-23T15:00:24Z</time>
      </trkpt>
      <trkpt lat="46.15739" lon="-1.33612">
        <ele>18.47</ele>
        <time>2021-05-23T15:00:25Z</time>
      </trkpt>
      <trkpt lat="46.15742" lon="-1.33618">
        <ele>17.61</ele>
        <time>2021-05-23T15:00:26Z</time>
      </trkpt>
      <trkpt lat="46.15745" lon="-1.33624">
        <ele>16.67</ele>
        <time>2021-05-23T15:00:27Z</time>
      </trkpt>
      <trkpt lat="46.15748" lon="-1.3363">
        <ele>15.63</ele>
        <time>2021-05-23T15:00:28Z</time>
      </trkpt>
      <trkpt lat="46.1575" lon="-1.33636">
        <ele>14.52</ele>
        <time>2021-05-23T15:00:29Z</time>
      </trkpt>
      <trkpt lat="46.15752" lon="-1.33642">
        <ele>13.5</ele>
        <time>2021-05-23T15:00:30Z</time>
      </trkpt>
      <trkpt lat="46.15754" lon="-1.33649">
        <ele>12.56</ele>
        <time>2021-05-23T15:00:31Z</time>
      </trkpt>
      <trkpt lat="46.15756" lon="-1.33656">
        <ele>11.72</ele>
        <time>2021-05-23T15:00:32Z</time>
      </trkpt>
      <trkpt lat="46.15757" lon="-1.33663">
        <ele>10.93</ele>
        <time>2021-05-23T15:00:33Z</time>
      </trkpt>
      <trkpt lat="46.15758" lon="-1.3367">
        <ele>10.65</ele>
        <time>2021-05-23T15:00:34Z</time>
      </trkpt>
      <trkpt lat="46.15759" lon="-1.33676">
        <ele>10.87</ele>
        <time>2021-05-23T15:00:35Z</time>
      </trkpt>
      <trkpt lat="46.1576" lon="-1.3368">
        <ele>11.07</ele>
        <time>2021-05-23T15:00:36Z</time>
      </trkpt>
      <trkpt lat="46.15762" lon="-1.33685">
        <ele>11.43</ele>
        <time>2021-05-23T15:00:37Z</time>
      </trkpt>
      <trkpt lat="46.15763" lon="-1.33691">
        <ele>11.76</ele>
        <time>2021-05-23T15:00:38Z</time>
      </trkpt>
      <trkpt lat="46.15764" lon="-1.33696">
        <ele>12.1</ele>
        <time>2021-05-23T15:00:39Z</time>
      </trkpt>
      <trkpt lat="46.15765" lon="-1.33701">
        <ele>12.52</ele>
        <time>2021-05-23T15:00:40Z</time>
      </trkpt>
      <trkpt lat="46.15766" lon="-1.33706">
        <ele>12.96</ele>
        <time>2021-05-23T15:00:41Z</time>
      </trkpt>
      <trkpt lat="46.15766" lon="-1.33711">
        <ele>13.24</ele>
        <time>2021-05-23T15:00:43Z</time>
      </trkpt>
      <trkpt lat="46.15768" lon="-1.3372">
        <ele>14.11</ele>
        <time>2021-05-23T15:00:45Z</time>
      </trkpt>
      <trkpt lat="46.15771" lon="-1.33734">
        <ele>15.83</ele>
        <time>2021-05-23T15:00:47Z</time>
      </trkpt>
      <trkpt lat="46.15775" lon="-1.33747">
        <ele>17.46</ele>
        <time>2021-05-23T15:00:48Z</time>
      </trkpt>
      <trkpt lat="46.15777" lon="-1.33754">
        <ele>18.2</ele>
        <time>2021-05-23T15:00:49Z</time>
      </trkpt>
      <trkpt lat="46.15778" lon="-1.33761">
        <ele>18.8</ele>
        <time>2021-05-23T15:00:50Z</time>
      </trkpt>
      <trkpt lat="46.15779" lon="-1.33768">
        <ele>19.26</ele>
        <time>2021-05-23T15:00:51Z</time>
      </trkpt>
      <trkpt lat="46.1578" lon="-1.33776">
        <ele>19.6</ele>
        <time>2021-05-23T15:00:52Z</time>
      </trkpt>
      <trkpt lat="46.15782" lon="-1.33785">
        <ele>18.61</ele>
        <time>2021-05-23T15:00:53Z</time>
      </trkpt>
      <trkpt lat="46.15784" lon="-1.33794">
        <ele>17.35</ele>
        <time>2021-05-23T15:00:54Z</time>
      </trkpt>
      <trkpt lat="46.15786" lon="-1.33803">
        <ele>16.09</ele>
        <time>2021-05-23T15:00:55Z</time>
      </trkpt>
      <trkpt lat="46.15789" lon="-1.33811">
        <ele>15.35</ele>
        <time>2021-05-23T15:00:56Z</time>
      </trkpt>
      <trkpt lat="46.15793" lon="-1.3382">
        <ele>14.86</ele>
        <time>2021-05-23T15:00:57Z</time>
      </trkpt>
      <trkpt lat="46.15796" lon="-1.33828">
        <ele>14.63</ele>
        <time>2021-05-23T15:00:58Z</time>
      </trkpt>
      <trkpt lat="46.158" lon="-1.33836">
        <ele>14.34</ele>
        <time>2021-05-23T15:00:59Z</time>
      </trkpt>
      <trkpt lat="46.15803" lon="-1.33845">
        <ele>14.07</ele>
        <time>2021-05-23T15:01:00Z</time>
      </trkpt>
      <trkpt lat="46.15807" lon="-1.33852">
        <ele>13.95</ele>
        <time>2021-05-23T15:01:01Z</time>
      </trkpt>
      <trkpt lat="46.15811" lon="-1.3386">
        <ele>13.8</ele>
        <time>2021-05-23T15:01:02Z</time>
      </trkpt>
      <trkpt lat="46.15815" lon="-1.33867">
        <ele>13.94</ele>
        <time>2021-05-23T15:01:03Z</time>
      </trkpt>
      <trkpt lat="46.15819" lon="-1.33874">
        <ele>13.99</ele>
        <time>2021-05-23T15:01:04Z</time>
      </trkpt>
      <trkpt lat="46.15823" lon="-1.3388">
        <ele>13.88</ele>
        <time>2021-05-23T15:01:05Z</time>
      </trkpt>
      <trkpt lat="46.15826" lon="-1.33886">
        <ele>13.74</ele>
        <time>2021-05-23T15:01:06Z</time>
      </trkpt>
      <trkpt lat="46.1583" lon="-1.33891">
        <ele>13.49</ele>
        <time>2021-05-23T15:01:07Z</time>
      </trkpt>
      <trkpt lat="46.15833" lon="-1.33896">
        <ele>13.54</ele>
        <time>2021-05-23T15:01:08Z</time>
      </trkpt>
      <trkpt lat="46.15836" lon="-1.33901">
        <ele>13.98</ele>
        <time>2021-05-23T15:01:09Z</time>
      </trkpt>
      <trkpt lat="46.1584" lon="-1.33905">
        <ele>14.36</ele>
        <time>2021-05-23T15:01:10Z</time>
      </trkpt>
      <trkpt lat="46.15843" lon="-1.3391">
        <ele>14.69</ele>
        <time>2021-05-23T15:01:11Z</time>
      </trkpt>
      <trkpt lat="46.15847" lon="-1.33915">
        <ele>14.94</ele>
        <time>2021-05-23T15:01:12Z</time>
      </trkpt>
      <trkpt lat="46.1585" lon="-1.3392">
        <ele>14.83</ele>
        <time>2021-05-23T15:01:13Z</time>
      </trkpt>
      <trkpt lat="46.15853" lon="-1.33926">
        <ele>14.57</ele>
        <time>2021-05-23T15:01:14Z</time>
      </trkpt>
      <trkpt lat="46.15857" lon="-1.33931">
        <ele>14.41</ele>
        <time>2021-05-23T15:01:15Z</time>
      </trkpt>
      <trkpt lat="46.15861" lon="-1.33936">
        <ele>14.3</ele>
        <time>2021-05-23T15:01:16Z</time>
      </trkpt>
      <trkpt lat="46.15865" lon="-1.3394">
        <ele>14.84</ele>
        <time>2021-05-23T15:01:17Z</time>
      </trkpt>
      <trkpt lat="46.15869" lon="-1.33945">
        <ele>15.38</ele>
        <time>2021-05-23T15:01:18Z</time>
      </trkpt>
      <trkpt lat="46.15872" lon="-1.3395">
        <ele>15.56</ele>
        <time>2021-05-23T15:01:19Z</time>
      </trkpt>
      <trkpt lat="46.15876" lon="-1.33956">
        <ele>15.85</ele>
        <time>2021-05-23T15:01:20Z</time>
      </trkpt>
      <trkpt lat="46.1588" lon="-1.33961">
        <ele>16.21</ele>
        <time>2021-05-23T15:01:21Z</time>
      </trkpt>
      <trkpt lat="46.15883" lon="-1.33966">
        <ele>16.39</ele>
        <time>2021-05-23T15:01:22Z</time>
      </trkpt>
      <trkpt lat="46.15886" lon="-1.33972">
        <ele>16.5</ele>
        <time>2021-05-23T15:01:23Z</time>
      </trkpt>
      <trkpt lat="46.15889" lon="-1.33977">
        <ele>16.16</ele>
        <time>2021-05-23T15:01:24Z</time>
      </trkpt>
      <trkpt lat="46.15892" lon="-1.33983">
        <ele>15.51</ele>
        <time>2021-05-23T15:01:25Z</time>
      </trkpt>
      <trkpt lat="46.15895" lon="-1.33988">
        <ele>15.04</ele>
        <time>2021-05-23T15:01:26Z</time>
      </trkpt>
      <trkpt lat="46.15898" lon="-1.33994">
        <ele>14.39</ele>
        <time>2021-05-23T15:01:27Z</time>
      </trkpt>
      <trkpt lat="46.15902" lon="-1.34">
        <ele>13.89</ele>
        <time>2021-05-23T15:01:28Z</time>
      </trkpt>
      <trkpt lat="46.15905" lon="-1.34006">
        <ele>14.07</ele>
        <time>2021-05-23T15:01:29Z</time>
      </trkpt>
      <trkpt lat="46.15908" lon="-1.34012">
        <ele>14.16</ele>
        <time>2021-05-23T15:01:30Z</time>
      </trkpt>
      <trkpt lat="46.15912" lon="-1.34018">
        <ele>14.25</ele>
        <time>2021-05-23T15:01:31Z</time>
      </trkpt>
      <trkpt lat="46.15916" lon="-1.34024">
        <ele>14.22</ele>
        <time>2021-05-23T15:01:32Z</time>
      </trkpt>
      <trkpt lat="46.15921" lon="-1.3403">
        <ele>14.63</ele>
        <time>2021-05-23T15:01:33Z</time>
      </trkpt>
      <trkpt lat="46.15926" lon="-1.34035">
        <ele>15.53</ele>
        <time>2021-05-23T15:01:34Z</time>
      </trkpt>
      <trkpt lat="46.15931" lon="-1.3404">
        <ele>16.43</ele>
        <time>2021-05-23T15:01:35Z</time>
      </trkpt>
      <trkpt lat="46.15936" lon="-1.34045">
        <ele>17.33</ele>
        <time>2021-05-23T15:01:36Z</time>
      </trkpt>
      <trkpt lat="46.15942" lon="-1.3405">
        <ele>18.34</ele>
        <time>2021-05-23T15:01:37Z</time>
      </trkpt>
      <trkpt lat="46.15947" lon="-1.34055">
        <ele>18.78</ele>
        <time>2021-05-23T15:01:38Z</time>
      </trkpt>
      <trkpt lat="46.15952" lon="-1.34059">
        <ele>18.76</ele>
        <time>2021-05-23T15:01:39Z</time>
      </trkpt>
      <trkpt lat="46.15956" lon="-1.34064">
        <ele>18.83</ele>
        <time>2021-05-23T15:01:40Z</time>
      </trkpt>
      <trkpt lat="46.15961" lon="-1.3407">
        <ele>18.75</ele>
        <time>2021-05-23T15:01:41Z</time>
      </trkpt>
      <trkpt lat="46.15965" lon="-1.34076">
        <ele>18.64</ele>
        <time>2021-05-23T15:01:42Z</time>
      </trkpt>
      <trkpt lat="46.15969" lon="-1.34082">
        <ele>18.4</ele>
        <time>2021-05-23T15:01:43Z</time>
      </trkpt>
      <trkpt lat="46.15973" lon="-1.34089">
        <ele>16.96</ele>
        <time>2021-05-23T15:01:44Z</time>
      </trkpt>
      <trkpt lat="46.15977" lon="-1.34096">
        <ele>15.63</ele>
        <time>2021-05-23T15:01:45Z</time>
      </trkpt>
      <trkpt lat="46.1598" lon="-1.34102">
        <ele>14.55</ele>
        <time>2021-05-23T15:01:46Z</time>
      </trkpt>
      <trkpt lat="46.15983" lon="-1.34108">
        <ele>13.52</ele>
        <time>2021-05-23T15:01:47Z</time>
      </trkpt>
      <trkpt lat="46.15987" lon="-1.34114">
        <ele>12.85</ele>
        <time>2021-05-23T15:01:48Z</time>
      </trkpt>
      <trkpt lat="46.1599" lon="-1.34119">
        <ele>12.61</ele>
        <time>2021-05-23T15:01:49Z</time>
      </trkpt>
      <trkpt lat="46.15993" lon="-1.34123">
        <ele>12.46</ele>
        <time>2021-05-23T15:01:50Z</time>
      </trkpt>
      <trkpt lat="46.15997" lon="-1.34126">
        <ele>12.41</ele>
        <time>2021-05-23T15:01:51Z</time>
      </trkpt>
      <trkpt lat="46.16001" lon="-1.34127">
        <ele>12.42</ele>
        <time>2021-05-23T15:01:52Z</time>
      </trkpt>
      <trkpt lat="46.16005" lon="-1.34127">
        <ele>12.38</ele>
        <time>2021-05-23T15:01:53Z</time>
      </trkpt>
      <trkpt lat="46.16009" lon="-1.34126">
        <ele>12.34</ele>
        <time>2021-05-23T15:01:54Z</time>
      </trkpt>
      <trkpt lat="46.16011" lon="-1.34125">
        <ele>12.3</ele>
        <time>2021-05-23T15:01:55Z</time>
      </trkpt>
      <trkpt lat="46.16014" lon="-1.34124">
        <ele>12.23</ele>
        <time>2021-05-23T15:01:56Z</time>
      </trkpt>
      <trkpt lat="46.16019" lon="-1.34122">
        <ele>12.04</ele>
        <time>2021-05-23T15:01:58Z</time>
      </trkpt>
      <trkpt lat="46.16023" lon="-1.3412">
        <ele>11.82</ele>
        <time>2021-05-23T15:02:02Z</time>
      </trkpt>
      <trkpt lat="46.16026" lon="-1.34119">
        <ele>11.64</ele>
        <time>2021-05-23T15:02:08Z</time>
      </trkpt>
      <trkpt lat="46.16029" lon="-1.34118">
        <ele>11.73</ele>
        <time>2021-05-23T15:02:22Z</time>
      </trkpt>
      <trkpt lat="46.16032" lon="-1.3412">
        <ele>12.41</ele>
        <time>2021-05-23T15:02:24Z</time>
      </trkpt>
      <trkpt lat="46.16038" lon="-1.3413">
        <ele>13.82</ele>
        <time>2021-05-23T15:02:26Z</time>
      </trkpt>
      <trkpt lat="46.16043" lon="-1.3414">
        <ele>14.62</ele>
        <time>2021-05-23T15:02:27Z</time>
      </trkpt>
      <trkpt lat="46.16045" lon="-1.34148">
        <ele>14.58</ele>
        <time>2021-05-23T15:02:28Z</time>
      </trkpt>
      <trkpt lat="46.16047" lon="-1.34156">
        <ele>14.41</ele>
        <time>2021-05-23T15:02:29Z</time>
      </trkpt>
      <trkpt lat="46.16048" lon="-1.34164">
        <ele>14.11</ele>
        <time>2021-05-23T15:02:30Z</time>
      </trkpt>
      <trkpt lat="46.1605" lon="-1.34171">
        <ele>14.62</ele>
        <time>2021-05-23T15:02:31Z</time>
      </trkpt>
      <trkpt lat="46.16052" lon="-1.34179">
        <ele>15.78</ele>
        <time>2021-05-23T15:02:32Z</time>
      </trkpt>
      <trkpt lat="46.16054" lon="-1.34187">
        <ele>16.93</ele>
        <time>2021-05-23T15:02:33Z</time>
      </trkpt>
      <trkpt lat="46.16057" lon="-1.34196">
        <ele>18.15</ele>
        <time>2021-05-23T15:02:34Z</time>
      </trkpt>
      <trkpt lat="46.1606" lon="-1.34204">
        <ele>18.3</ele>
        <time>2021-05-23T15:02:35Z</time>
      </trkpt>
      <trkpt lat="46.16063" lon="-1.34213">
        <ele>18.4</ele>
        <time>2021-05-23T15:02:36Z</time>
      </trkpt>
      <trkpt lat="46.16066" lon="-1.34222">
        <ele>18.51</ele>
        <time>2021-05-23T15:02:37Z</time>
      </trkpt>
      <trkpt lat="46.16069" lon="-1.34232">
        <ele>18.24</ele>
        <time>2021-05-23T15:02:38Z</time>
      </trkpt>
      <trkpt lat="46.16072" lon="-1.34241">
        <ele>17.89</ele>
        <time>2021-05-23T15:02:39Z</time>
      </trkpt>
      <trkpt lat="46.16075" lon="-1.3425">
        <ele>17.4</ele>
        <time>2021-05-23T15:02:40Z</time>
      </trkpt>
      <trkpt lat="46.16079" lon="-1.34259">
        <ele>17.14</ele>
        <time>2021-05-23T15:02:41Z</time>
      </trkpt>
      <trkpt lat="46.16083" lon="-1.34267">
        <ele>16.77</ele>
        <time>2021-05-23T15:02:42Z</time>
      </trkpt>
      <trkpt lat="46.16086" lon="-1.34276">
        <ele>16.31</ele>
        <time>2021-05-23T15:02:43Z</time>
      </trkpt>
      <trkpt lat="46.1609" lon="-1.34285">
        <ele>15.9</ele>
        <time>2021-05-23T15:02:44Z</time>
      </trkpt>
      <trkpt lat="46.16093" lon="-1.34293">
        <ele>15.41</ele>
        <time>2021-05-23T15:02:45Z</time>
      </trkpt>
      <trkpt lat="46.16097" lon="-1.34302">
        <ele>14.81</ele>
        <time>2021-05-23T15:02:46Z</time>
      </trkpt>
      <trkpt lat="46.16101" lon="-1.3431">
        <ele>14.32</ele>
        <time>2021-05-23T15:02:47Z</time>
      </trkpt>
      <trkpt lat="46.16105" lon="-1.34318">
        <ele>13.88</ele>
        <time>2021-05-23T15:02:48Z</time>
      </trkpt>
      <trkpt lat="46.16108" lon="-1.34327">
        <ele>13.34</ele>
        <time>2021-05-23T15:02:49Z</time>
      </trkpt>
      <trkpt lat="46.16111" lon="-1.34336">
        <ele>13.09</ele>
        <time>2021-05-23T15:02:50Z</time>
      </trkpt>
      <trkpt lat="46.16113" lon="-1.34345">
        <ele>13.44</ele>
        <time>2021-05-23T15:02:51Z</time>
      </trkpt>
      <trkpt lat="46.16116" lon="-1.34354">
        <ele>13.57</ele>
        <time>2021-05-23T15:02:52Z</time>
      </trkpt>
      <trkpt lat="46.16119" lon="-1.34364">
        <ele>13.19</ele>
        <time>2021-05-23T15:02:53Z</time>
      </trkpt>
      <trkpt lat="46.1612" lon="-1.34374">
        <ele>12.28</ele>
        <time>2021-05-23T15:02:54Z</time>
      </trkpt>
      <trkpt lat="46.16122" lon="-1.34384">
        <ele>11.24</ele>
        <time>2021-05-23T15:02:55Z</time>
      </trkpt>
      <trkpt lat="46.16123" lon="-1.34394">
        <ele>10.53</ele>
        <time>2021-05-23T15:02:56Z</time>
      </trkpt>
      <trkpt lat="46.16125" lon="-1.34403">
        <ele>9.99</ele>
        <time>2021-05-23T15:02:57Z</time>
      </trkpt>
      <trkpt lat="46.16127" lon="-1.34412">
        <ele>9.45</ele>
        <time>2021-05-23T15:02:58Z</time>
      </trkpt>
      <trkpt lat="46.16129" lon="-1.34421">
        <ele>9.06</ele>
        <time>2021-05-23T15:02:59Z</time>
      </trkpt>
      <trkpt lat="46.16131" lon="-1.34431">
        <ele>8.93</ele>
        <time>2021-05-23T15:03:00Z</time>
      </trkpt>
      <trkpt lat="46.16133" lon="-1.3444">
        <ele>8.94</ele>
        <time>2021-05-23T15:03:01Z</time>
      </trkpt>
      <trkpt lat="46.16135" lon="-1.34449">
        <ele>9.31</ele>
        <time>2021-05-23T15:03:02Z</time>
      </trkpt>
      <trkpt lat="46.16137" lon="-1.34459">
        <ele>10.01</ele>
        <time>2021-05-23T15:03:03Z</time>
      </trkpt>
      <trkpt lat="46.16139" lon="-1.34468">
        <ele>10.72</ele>
        <time>2021-05-23T15:03:04Z</time>
      </trkpt>
      <trkpt lat="46.16141" lon="-1.34477">
        <ele>11.86</ele>
        <time>2021-05-23T15:03:05Z</time>
      </trkpt>
      <trkpt lat="46.16144" lon="-1.34486">
        <ele>13.19</ele>
        <time>2021-05-23T15:03:06Z</time>
      </trkpt>
      <trkpt lat="46.16146" lon="-1.34496">
        <ele>14.28</ele>
        <time>2021-05-23T15:03:07Z</time>
      </trkpt>
      <trkpt lat="46.16149" lon="-1.34506">
        <ele>15.11</ele>
        <time>2021-05-23T15:03:08Z</time>
      </trkpt>
      <trkpt lat="46.16152" lon="-1.34515">
        <ele>15.58</ele>
        <time>2021-05-23T15:03:09Z</time>
      </trkpt>
      <trkpt lat="46.16155" lon="-1.34524">
        <ele>15.98</ele>
        <time>2021-05-23T15:03:10Z</time>
      </trkpt>
      <trkpt lat="46.16157" lon="-1.34534">
        <ele>15.75</ele>
        <time>2021-05-23T15:03:11Z</time>
      </trkpt>
      <trkpt lat="46.1616" lon="-1.34543">
        <ele>15.27</ele>
        <time>2021-05-23T15:03:12Z</time>
      </trkpt>
      <trkpt lat="46.16163" lon="-1.34553">
        <ele>14.31</ele>
        <time>2021-05-23T15:03:13Z</time>
      </trkpt>
      <trkpt lat="46.16166" lon="-1.34562">
        <ele>13.32</ele>
        <time>2021-05-23T15:03:14Z</time>
      </trkpt>
      <trkpt lat="46.16169" lon="-1.34571">
        <ele>12.63</ele>
        <time>2021-05-23T15:03:15Z</time>
      </trkpt>
      <trkpt lat="46.16171" lon="-1.34581">
        <ele>11.86</ele>
        <time>2021-05-23T15:03:16Z</time>
      </trkpt>
      <trkpt lat="46.16174" lon="-1.3459">
        <ele>11.75</ele>
        <time>2021-05-23T15:03:17Z</time>
      </trkpt>
      <trkpt lat="46.16177" lon="-1.34599">
        <ele>11.71</ele>
        <time>2021-05-23T15:03:18Z</time>
      </trkpt>
      <trkpt lat="46.16179" lon="-1.34608">
        <ele>11.49</ele>
        <time>2021-05-23T15:03:19Z</time>
      </trkpt>
      <trkpt lat="46.16182" lon="-1.34617">
        <ele>11.96</ele>
        <time>2021-05-23T15:03:20Z</time>
      </trkpt>
      <trkpt lat="46.16186" lon="-1.34625">
        <ele>12.74</ele>
        <time>2021-05-23T15:03:21Z</time>
      </trkpt>
      <trkpt lat="46.16189" lon="-1.34634">
        <ele>13.4</ele>
        <time>2021-05-23T15:03:22Z</time>
      </trkpt>
      <trkpt lat="46.16193" lon="-1.34642">
        <ele>14.01</ele>
        <time>2021-05-23T15:03:23Z</time>
      </trkpt>
      <trkpt lat="46.16198" lon="-1.34649">
        <ele>14.75</ele>
        <time>2021-05-23T15:03:24Z</time>
      </trkpt>
      <trkpt lat="46.16202" lon="-1.34656">
        <ele>15.43</ele>
        <time>2021-05-23T15:03:25Z</time>
      </trkpt>
      <trkpt lat="46.16207" lon="-1.34663">
        <ele>16.22</ele>
        <time>2021-05-23T15:03:26Z</time>
      </trkpt>
      <trkpt lat="46.16211" lon="-1.3467">
        <ele>16.84</ele>
        <time>2021-05-23T15:03:27Z</time>
      </trkpt>
      <trkpt lat="46.16215" lon="-1.34677">
        <ele>17.32</ele>
        <time>2021-05-23T15:03:28Z</time>
      </trkpt>
      <trkpt lat="46.1622" lon="-1.34683">
        <ele>17.81</ele>
        <time>2021-05-23T15:03:29Z</time>
      </trkpt>
      <trkpt lat="46.16223" lon="-1.34688">
        <ele>18.11</ele>
        <time>2021-05-23T15:03:30Z</time>
      </trkpt>
      <trkpt lat="46.16226" lon="-1.34692">
        <ele>18.53</ele>
        <time>2021-05-23T15:03:31Z</time>
      </trkpt>
      <trkpt lat="46.16229" lon="-1.34695">
        <ele>19.02</ele>
        <time>2021-05-23T15:03:32Z</time>
      </trkpt>
      <trkpt lat="46.16231" lon="-1.34698">
        <ele>19.52</ele>
        <time>2021-05-23T15:03:33Z</time>
      </trkpt>
      <trkpt lat="46.16234" lon="-1.34702">
        <ele>20.24</ele>
        <time>2021-05-23T15:03:34Z</time>
      </trkpt>
      <trkpt lat="46.16238" lon="-1.34706">
        <ele>21.1</ele>
        <time>2021-05-23T15:03:35Z</time>
      </trkpt>
      <trkpt lat="46.16242" lon="-1.34711">
        <ele>22.04</ele>
        <time>2021-05-23T15:03:36Z</time>
      </trkpt>
      <trkpt lat="46.16245" lon="-1.34716">
        <ele>22.83</ele>
        <time>2021-05-23T15:03:37Z</time>
      </trkpt>
      <trkpt lat="46.16248" lon="-1.34722">
        <ele>23.7</ele>
        <time>2021-05-23T15:03:38Z</time>
      </trkpt>
      <trkpt lat="46.1625" lon="-1.34728">
        <ele>24</ele>
        <time>2021-05-23T15:03:39Z</time>
      </trkpt>
      <trkpt lat="46.16252" lon="-1.34732">
        <ele>23.83</ele>
        <time>2021-05-23T15:03:40Z</time>
      </trkpt>
      <trkpt lat="46.16255" lon="-1.34743">
        <ele>23.73</ele>
        <time>2021-05-23T15:03:42Z</time>
      </trkpt>
      <trkpt lat="46.16259" lon="-1.34756">
        <ele>23.38</ele>
        <time>2021-05-23T15:03:43Z</time>
      </trkpt>
      <trkpt lat="46.16262" lon="-1.34765">
        <ele>22.95</ele>
        <time>2021-05-23T15:03:44Z</time>
      </trkpt>
      <trkpt lat="46.16263" lon="-1.34774">
        <ele>22.61</ele>
        <time>2021-05-23T15:03:45Z</time>
      </trkpt>
      <trkpt lat="46.16265" lon="-1.34783">
        <ele>22.27</ele>
        <time>2021-05-23T15:03:46Z</time>
      </trkpt>
      <trkpt lat="46.16266" lon="-1.34792">
        <ele>21.85</ele>
        <time>2021-05-23T15:03:47Z</time>
      </trkpt>
      <trkpt lat="46.16268" lon="-1.34801">
        <ele>21.52</ele>
        <time>2021-05-23T15:03:48Z</time>
      </trkpt>
      <trkpt lat="46.1627" lon="-1.34809">
        <ele>20.94</ele>
        <time>2021-05-23T15:03:49Z</time>
      </trkpt>
      <trkpt lat="46.16271" lon="-1.34817">
        <ele>19.86</ele>
        <time>2021-05-23T15:03:50Z</time>
      </trkpt>
      <trkpt lat="46.16273" lon="-1.34825">
        <ele>18.86</ele>
        <time>2021-05-23T15:03:51Z</time>
      </trkpt>
      <trkpt lat="46.16275" lon="-1.34833">
        <ele>17.85</ele>
        <time>2021-05-23T15:03:52Z</time>
      </trkpt>
      <trkpt lat="46.16278" lon="-1.34839">
        <ele>17.6</ele>
        <time>2021-05-23T15:03:53Z</time>
      </trkpt>
      <trkpt lat="46.16281" lon="-1.34846">
        <ele>17.31</ele>
        <time>2021-05-23T15:03:54Z</time>
      </trkpt>
      <trkpt lat="46.16285" lon="-1.34852">
        <ele>17.27</ele>
        <time>2021-05-23T15:03:55Z</time>
      </trkpt>
      <trkpt lat="46.16288" lon="-1.34858">
        <ele>17.25</ele>
        <time>2021-05-23T15:03:56Z</time>
      </trkpt>
      <trkpt lat="46.1629" lon="-1.34864">
        <ele>17.27</ele>
        <time>2021-05-23T15:03:57Z</time>
      </trkpt>
      <trkpt lat="46.16292" lon="-1.3487">
        <ele>17.37</ele>
        <time>2021-05-23T15:03:58Z</time>
      </trkpt>
      <trkpt lat="46.16294" lon="-1.34876">
        <ele>17.44</ele>
        <time>2021-05-23T15:03:59Z</time>
      </trkpt>
      <trkpt lat="46.16297" lon="-1.34882">
        <ele>17.56</ele>
        <time>2021-05-23T15:04:00Z</time>
      </trkpt>
      <trkpt lat="46.163" lon="-1.34889">
        <ele>17.6</ele>
        <time>2021-05-23T15:04:01Z</time>
      </trkpt>
      <trkpt lat="46.16303" lon="-1.34895">
        <ele>17.7</ele>
        <time>2021-05-23T15:04:02Z</time>
      </trkpt>
      <trkpt lat="46.16306" lon="-1.34902">
        <ele>17.53</ele>
        <time>2021-05-23T15:04:03Z</time>
      </trkpt>
      <trkpt lat="46.16309" lon="-1.34909">
        <ele>17.33</ele>
        <time>2021-05-23T15:04:04Z</time>
      </trkpt>
      <trkpt lat="46.16313" lon="-1.34917">
        <ele>17.3</ele>
        <time>2021-05-23T15:04:05Z</time>
      </trkpt>
      <trkpt lat="46.16316" lon="-1.34924">
        <ele>18</ele>
        <time>2021-05-23T15:04:06Z</time>
      </trkpt>
      <trkpt lat="46.1632" lon="-1.34931">
        <ele>18.82</ele>
        <time>2021-05-23T15:04:07Z</time>
      </trkpt>
      <trkpt lat="46.16323" lon="-1.34939">
        <ele>19.74</ele>
        <time>2021-05-23T15:04:08Z</time>
      </trkpt>
      <trkpt lat="46.16326" lon="-1.34946">
        <ele>20.58</ele>
        <time>2021-05-23T15:04:09Z</time>
      </trkpt>
      <trkpt lat="46.1633" lon="-1.34954">
        <ele>21.45</ele>
        <time>2021-05-23T15:04:10Z</time>
      </trkpt>
      <trkpt lat="46.16333" lon="-1.34961">
        <ele>22.17</ele>
        <time>2021-05-23T15:04:11Z</time>
      </trkpt>
      <trkpt lat="46.16337" lon="-1.34969">
        <ele>22.68</ele>
        <time>2021-05-23T15:04:12Z</time>
      </trkpt>
      <trkpt lat="46.16341" lon="-1.34977">
        <ele>22.68</ele>
        <time>2021-05-23T15:04:13Z</time>
      </trkpt>
      <trkpt lat="46.16344" lon="-1.34984">
        <ele>22.45</ele>
        <time>2021-05-23T15:04:14Z</time>
      </trkpt>
      <trkpt lat="46.16348" lon="-1.34992">
        <ele>22.1</ele>
        <time>2021-05-23T15:04:15Z</time>
      </trkpt>
      <trkpt lat="46.16351" lon="-1.34999">
        <ele>21.75</ele>
        <time>2021-05-23T15:04:16Z</time>
      </trkpt>
      <trkpt lat="46.16354" lon="-1.35006">
        <ele>21.46</ele>
        <time>2021-05-23T15:04:17Z</time>
      </trkpt>
      <trkpt lat="46.16357" lon="-1.35013">
        <ele>21.23</ele>
        <time>2021-05-23T15:04:18Z</time>
      </trkpt>
      <trkpt lat="46.1636" lon="-1.3502">
        <ele>21.05</ele>
        <time>2021-05-23T15:04:19Z</time>
      </trkpt>
      <trkpt lat="46.16363" lon="-1.35027">
        <ele>21.14</ele>
        <time>2021-05-23T15:04:20Z</time>
      </trkpt>
      <trkpt lat="46.16367" lon="-1.35034">
        <ele>22.05</ele>
        <time>2021-05-23T15:04:21Z</time>
      </trkpt>
      <trkpt lat="46.16371" lon="-1.35041">
        <ele>22.97</ele>
        <time>2021-05-23T15:04:22Z</time>
      </trkpt>
      <trkpt lat="46.16375" lon="-1.35047">
        <ele>23.73</ele>
        <time>2021-05-23T15:04:23Z</time>
      </trkpt>
      <trkpt lat="46.16379" lon="-1.35053">
        <ele>24.43</ele>
        <time>2021-05-23T15:04:24Z</time>
      </trkpt>
      <trkpt lat="46.16383" lon="-1.3506">
        <ele>24.47</ele>
        <time>2021-05-23T15:04:25Z</time>
      </trkpt>
      <trkpt lat="46.16387" lon="-1.35066">
        <ele>24.18</ele>
        <time>2021-05-23T15:04:26Z</time>
      </trkpt>
      <trkpt lat="46.16392" lon="-1.35073">
        <ele>23.44</ele>
        <time>2021-05-23T15:04:27Z</time>
      </trkpt>
      <trkpt lat="46.16395" lon="-1.3508">
        <ele>22.75</ele>
        <time>2021-05-23T15:04:28Z</time>
      </trkpt>
      <trkpt lat="46.164" lon="-1.35086">
        <ele>22.28</ele>
        <time>2021-05-23T15:04:29Z</time>
      </trkpt>
      <trkpt lat="46.16404" lon="-1.35093">
        <ele>22.29</ele>
        <time>2021-05-23T15:04:30Z</time>
      </trkpt>
      <trkpt lat="46.16408" lon="-1.351">
        <ele>22.45</ele>
        <time>2021-05-23T15:04:31Z</time>
      </trkpt>
      <trkpt lat="46.16412" lon="-1.35108">
        <ele>22.81</ele>
        <time>2021-05-23T15:04:32Z</time>
      </trkpt>
      <trkpt lat="46.16416" lon="-1.35115">
        <ele>22.86</ele>
        <time>2021-05-23T15:04:33Z</time>
      </trkpt>
      <trkpt lat="46.16419" lon="-1.35123">
        <ele>22.39</ele>
        <time>2021-05-23T15:04:34Z</time>
      </trkpt>
      <trkpt lat="46.16423" lon="-1.3513">
        <ele>21.95</ele>
        <time>2021-05-23T15:04:35Z</time>
      </trkpt>
      <trkpt lat="46.16427" lon="-1.35137">
        <ele>21.65</ele>
        <time>2021-05-23T15:04:36Z</time>
      </trkpt>
      <trkpt lat="46.16431" lon="-1.35144">
        <ele>21.39</ele>
        <time>2021-05-23T15:04:37Z</time>
      </trkpt>
      <trkpt lat="46.16435" lon="-1.35151">
        <ele>21.05</ele>
        <time>2021-05-23T15:04:38Z</time>
      </trkpt>
      <trkpt lat="46.16439" lon="-1.35159">
        <ele>20.61</ele>
        <time>2021-05-23T15:04:39Z</time>
      </trkpt>
      <trkpt lat="46.16443" lon="-1.35166">
        <ele>20.13</ele>
        <time>2021-05-23T15:04:40Z</time>
      </trkpt>
      <trkpt lat="46.16447" lon="-1.35173">
        <ele>19.72</ele>
        <time>2021-05-23T15:04:41Z</time>
      </trkpt>
      <trkpt lat="46.16451" lon="-1.35181">
        <ele>19.29</ele>
        <time>2021-05-23T15:04:42Z</time>
      </trkpt>
      <trkpt lat="46.16454" lon="-1.35188">
        <ele>18.97</ele>
        <time>2021-05-23T15:04:43Z</time>
      </trkpt>
      <trkpt lat="46.16468" lon="-1.35216">
        <ele>15.31</ele>
        <time>2021-05-23T15:04:47Z</time>
      </trkpt>
      <trkpt lat="46.16471" lon="-1.35223">
        <ele>14.94</ele>
        <time>2021-05-23T15:04:48Z</time>
      </trkpt>
      <trkpt lat="46.16474" lon="-1.35231">
        <ele>15.36</ele>
        <time>2021-05-23T15:04:49Z</time>
      </trkpt>
      <trkpt lat="46.16477" lon="-1.35239">
        <ele>15.67</ele>
        <time>2021-05-23T15:04:50Z</time>
      </trkpt>
      <trkpt lat="46.16479" lon="-1.35247">
        <ele>15.92</ele>
        <time>2021-05-23T15:04:51Z</time>
      </trkpt>
      <trkpt lat="46.16482" lon="-1.35255">
        <ele>15.95</ele>
        <time>2021-05-23T15:04:52Z</time>
      </trkpt>
      <trkpt lat="46.16484" lon="-1.35264">
        <ele>15.92</ele>
        <time>2021-05-23T15:04:53Z</time>
      </trkpt>
      <trkpt lat="46.16486" lon="-1.35273">
        <ele>15.99</ele>
        <time>2021-05-23T15:04:54Z</time>
      </trkpt>
      <trkpt lat="46.16487" lon="-1.35281">
        <ele>16.01</ele>
        <time>2021-05-23T15:04:55Z</time>
      </trkpt>
      <trkpt lat="46.16489" lon="-1.3529">
        <ele>16.03</ele>
        <time>2021-05-23T15:04:56Z</time>
      </trkpt>
      <trkpt lat="46.1649" lon="-1.35299">
        <ele>16</ele>
        <time>2021-05-23T15:04:57Z</time>
      </trkpt>
      <trkpt lat="46.16491" lon="-1.35308">
        <ele>16.03</ele>
        <time>2021-05-23T15:04:58Z</time>
      </trkpt>
      <trkpt lat="46.16492" lon="-1.35316">
        <ele>16.14</ele>
        <time>2021-05-23T15:04:59Z</time>
      </trkpt>
      <trkpt lat="46.16498" lon="-1.35362">
        <ele>10</ele>
      </trkpt>
      <trkpt lat="46.16503" lon="-1.35389">
        <ele>10</ele>
      </trkpt>
      <trkpt lat="46.16528" lon="-1.35457">
        <ele>10</ele>
      </trkpt>
      <trkpt lat="46.16496" lon="-1.35473">
        <ele>9.8</ele>
      </trkpt>
      <trkpt lat="46.16484" lon="-1.35491">
        <ele>9.4</ele>
      </trkpt>
      <trkpt lat="46.16475" lon="-1.35512">
        <ele>9</ele>
      </trkpt>
      <trkpt lat="46.1647" lon="-1.35544">
        <ele>9</ele>
      </trkpt>
      <trkpt lat="46.16472" lon="-1.35567">
        <ele>9</ele>
      </trkpt>
      <trkpt lat="46.16475" lon="-1.35589">
        <ele>9</ele>
      </trkpt>
      <trkpt lat="46.16475" lon="-1.35688">
        <ele>8.9</ele>
      </trkpt>
      <trkpt lat="46.16524" lon="-1.35797">
        <ele>8.8</ele>
      </trkpt>
      <trkpt lat="46.16534" lon="-1.35866">
        <ele>7.4</ele>
      </trkpt>
      <trkpt lat="46.16536" lon="-1.35975">
        <ele>7</ele>
      </trkpt>
      <trkpt lat="46.16542" lon="-1.36062">
        <ele>6.4</ele>
      </trkpt>
      <trkpt lat="46.16565" lon="-1.36114">
        <ele>5</ele>
      </trkpt>
      <trkpt lat="46.16573" lon="-1.36141">
        <ele>4.9</ele>
      </trkpt>
      <trkpt lat="46.16568" lon="-1.36172">
        <ele>3.8</ele>
      </trkpt>
      <trkpt lat="46.16555" lon="-1.36195">
        <ele>3</ele>
      </trkpt>
      <trkpt lat="46.1655" lon="-1.36232">
        <ele>3.2</ele>
      </trkpt>
      <trkpt lat="46.16547" lon="-1.36256">
        <ele>3.3</ele>
      </trkpt>
      <trkpt lat="46.16574" lon="-1.36221">
        <ele>3</ele>
      </trkpt>
      <trkpt lat="46.16621" lon="-1.36218">
        <ele>4.4</ele>
      </trkpt>
      <trkpt lat="46.16658" lon="-1.36247">
        <ele>6</ele>
      </trkpt>
      <trkpt lat="46.16667" lon="-1.36281">
        <ele>6.1</ele>
      </trkpt>
      <trkpt lat="46.16674" lon="-1.36307">
        <ele>7.3</ele>
      </trkpt>
      <trkpt lat="46.16837" lon="-1.36168">
        <ele>8</ele>
      </trkpt>
      <trkpt lat="46.16881" lon="-1.362">
        <ele>8.8</ele>
      </trkpt>
      <trkpt lat="46.16869" lon="-1.3622">
        <ele>8.1</ele>
      </trkpt>
      <trkpt lat="46.16873" lon="-1.36297">
        <ele>7.8</ele>
      </trkpt>
      <trkpt lat="46.16872" lon="-1.36449">
        <ele>8.1</ele>
      </trkpt>
      <trkpt lat="46.16916" lon="-1.3661">
        <ele>8</ele>
      </trkpt>
      <trkpt lat="46.16968" lon="-1.36864">
        <ele>6.1</ele>
      </trkpt>
      <trkpt lat="46.16998" lon="-1.36941">
        <ele>3.1</ele>
      </trkpt>
      <trkpt lat="46.17005" lon="-1.37014">
        <ele>4</ele>
      </trkpt>
      <trkpt lat="46.17124" lon="-1.37333">
        <ele>5</ele>
      </trkpt>
      <trkpt lat="46.17184" lon="-1.37411">
        <ele>5.8</ele>
      </trkpt>
      <trkpt lat="46.17271" lon="-1.37325">
        <ele>5.8</ele>
      </trkpt>
      <trkpt lat="46.17399" lon="-1.37314">
        <ele>6.1</ele>
      </trkpt>
      <trkpt lat="46.17619" lon="-1.37346">
        <ele>5.4</ele>
      </trkpt>
      <trkpt lat="46.17696" lon="-1.3734">
        <ele>4.9</ele>
      </trkpt>
      <trkpt lat="46.17788" lon="-1.37389">
        <ele>5</ele>
      </trkpt>
      <trkpt lat="46.17816" lon="-1.37379">
        <ele>5.6</ele>
      </trkpt>
      <trkpt lat="46.17878" lon="-1.37392">
        <ele>7</ele>
      </trkpt>
      <trkpt lat="46.17879" lon="-1.37393">
        <ele>13.89</ele>
        <time>2021-05-23T15:13:30Z</time>
      </trkpt>
      <trkpt lat="46.17911" lon="-1.37396">
        <ele>7.2</ele>
      </trkpt>
      <trkpt lat="46.17944" lon="-1.37386">
        <ele>8</ele>
      </trkpt>
      <trkpt lat="46.18018" lon="-1.37335">
        <ele>8.6</ele>
      </trkpt>
      <trkpt lat="46.1807" lon="-1.37322">
        <ele>8</ele>
      </trkpt>
      <trkpt lat="46.18069" lon="-1.37313">
        <ele>8</ele>
      </trkpt>
      <trkpt lat="46.18076" lon="-1.37218">
        <ele>9</ele>
      </trkpt>
      <trkpt lat="46.18073" lon="-1.37141">
        <ele>9.4</ele>
      </trkpt>
      <trkpt lat="46.1806" lon="-1.36987">
        <ele>9.8</ele>
      </trkpt>
      <trkpt lat="46.18068" lon="-1.36899">
        <ele>10</ele>
      </trkpt>
      <trkpt lat="46.18202" lon="-1.3701">
        <ele>9.9</ele>
      </trkpt>
    </trkseg>
  </trk>
</gpx>